Wetterdaten: Mittwoch, 13.09.2017
Datum Zeit Temp. A. Feuchte A. Luftdruck Regen Wind Richtung Richtung Taupunkt Windben Empfang
13.09.2017 00:00 10,9 C 90 % 1008,5 hPa 0,0 l/m 2,7 km/h (1 Bft) SW 214 9,3 C 12,6 km/h (3 Bft) 96 %
13.09.2017 00:02 10,9 C 90 % 1008,4 hPa 0,0 l/m 4,3 km/h (1 Bft) W-SW 247 9,3 C 9,4 km/h (2 Bft) 100 %
13.09.2017 00:03 10,9 C 90 % 1008,5 hPa 0,0 l/m 0,3 km/h (0 Bft) W 272 9,3 C 3,1 km/h (1 Bft) 100 %
13.09.2017 00:04 10,9 C 90 % 1008,5 hPa 0,0 l/m 0,1 km/h (0 Bft) W 272 9,3 C 3,1 km/h (1 Bft) 100 %
13.09.2017 00:05 10,9 C 90 % 1008,5 hPa 0,0 l/m 0,0 km/h (0 Bft) W 272 9,3 C 0,0 km/h (0 Bft) 100 %
13.09.2017 00:06 10,8 C 90 % 1008,4 hPa 0,0 l/m 2,0 km/h (1 Bft) SW 230 9,2 C 6,3 km/h (2 Bft) 100 %
13.09.2017 00:07 10,8 C 90 % 1008,5 hPa 0,0 l/m 1,3 km/h (1 Bft) SW 233 9,2 C 6,3 km/h (2 Bft) 100 %
13.09.2017 00:08 10,8 C 90 % 1008,5 hPa 0,0 l/m 2,7 km/h (1 Bft) W-SW 242 9,2 C 6,3 km/h (2 Bft) 100 %
13.09.2017 00:09 10,8 C 90 % 1008,4 hPa 0,0 l/m 0,7 km/h (0 Bft) W 265 9,2 C 3,1 km/h (1 Bft) 100 %
13.09.2017 00:10 10,8 C 90 % 1008,4 hPa 0,0 l/m 0,0 km/h (0 Bft) SW 219 9,2 C 0,0 km/h (0 Bft) 100 %
13.09.2017 00:11 10,7 C 90 % 1008,4 hPa 0,0 l/m 4,5 km/h (1 Bft) SW 224 9,1 C 9,4 km/h (2 Bft) 100 %
13.09.2017 00:12 10,7 C 90 % 1008,3 hPa 0,0 l/m 0,5 km/h (0 Bft) NO 37 9,1 C 3,1 km/h (1 Bft) 100 %
13.09.2017 00:13 10,7 C 90 % 1008,4 hPa 0,0 l/m 0,5 km/h (0 Bft) SW 217 9,1 C 3,1 km/h (1 Bft) 100 %
13.09.2017 00:14 10,7 C 91 % 1008,3 hPa 0,0 l/m 1,0 km/h (0 Bft) SW 217 9,3 C 6,3 km/h (2 Bft) 100 %
13.09.2017 00:15 10,6 C 91 % 1008,3 hPa 0,0 l/m 2,9 km/h (1 Bft) SW 229 9,2 C 9,4 km/h (2 Bft) 100 %
13.09.2017 00:16 10,6 C 91 % 1008,3 hPa 0,0 l/m 0,1 km/h (0 Bft) W 281 9,2 C 3,1 km/h (1 Bft) 100 %
13.09.2017 00:17 10,6 C 91 % 1008,3 hPa 0,0 l/m 1,5 km/h (1 Bft) SW 216 9,2 C 6,3 km/h (2 Bft) 100 %
13.09.2017 00:18 10,6 C 91 % 1008,3 hPa 0,0 l/m 1,6 km/h (1 Bft) NW 316 9,2 C 3,1 km/h (1 Bft) 100 %
13.09.2017 00:19 10,6 C 91 % 1008,2 hPa 0,0 l/m 2,1 km/h (1 Bft) SW 221 9,2 C 6,3 km/h (2 Bft) 100 %
13.09.2017 00:20 10,5 C 91 % 1008,2 hPa 0,0 l/m 0,0 km/h (0 Bft) W 274 9,1 C 0,0 km/h (0 Bft) 100 %
13.09.2017 00:21 10,5 C 91 % 1008,3 hPa 0,0 l/m 0,4 km/h (0 Bft) NW 319 9,1 C 3,1 km/h (1 Bft) 100 %
13.09.2017 00:22 10,4 C 91 % 1008,2 hPa 0,0 l/m 1,0 km/h (0 Bft) NW 309 9,0 C 3,1 km/h (1 Bft) 100 %
13.09.2017 00:23 10,4 C 91 % 1008,2 hPa 0,0 l/m 6,0 km/h (2 Bft) SW 234 9,0 C 18,8 km/h (3 Bft) 100 %
13.09.2017 00:24 10,4 C 91 % 1008,2 hPa 0,0 l/m 8,1 km/h (2 Bft) S-SW 212 9,0 C 15,7 km/h (3 Bft) 100 %
13.09.2017 00:25 10,4 C 91 % 1008,2 hPa 0,0 l/m 2,1 km/h (1 Bft) W 276 9,0 C 9,4 km/h (2 Bft) 100 %
13.09.2017 00:26 10,4 C 91 % 1008,2 hPa 0,0 l/m 0,9 km/h (0 Bft) SW 229 9,0 C 6,3 km/h (2 Bft) 100 %
13.09.2017 00:27 10,4 C 91 % 1008,2 hPa 0,0 l/m 1,3 km/h (1 Bft) SW 219 9,0 C 6,3 km/h (2 Bft) 100 %
13.09.2017 00:28 10,4 C 91 % 1008,3 hPa 0,0 l/m 0,8 km/h (0 Bft) SW 233 9,0 C 3,1 km/h (1 Bft) 100 %
13.09.2017 00:29 10,4 C 91 % 1008,3 hPa 0,0 l/m 1,3 km/h (1 Bft) W-SW 258 9,0 C 3,1 km/h (1 Bft) 100 %
13.09.2017 00:30 10,4 C 91 % 1008,3 hPa 0,0 l/m 2,5 km/h (1 Bft) S-SW 195 9,0 C 9,4 km/h (2 Bft) 100 %
13.09.2017 00:31 10,3 C 91 % 1008,2 hPa 0,0 l/m 1,8 km/h (1 Bft) W-NW 300 8,9 C 9,4 km/h (2 Bft) 100 %
13.09.2017 00:32 10,3 C 91 % 1008,2 hPa 0,0 l/m 1,3 km/h (1 Bft) SW 225 8,9 C 15,7 km/h (3 Bft) 100 %
13.09.2017 00:33 10,3 C 91 % 1008,1 hPa 0,0 l/m 3,4 km/h (1 Bft) W-SW 244 8,9 C 12,6 km/h (3 Bft) 100 %
13.09.2017 00:34 10,3 C 91 % 1008,1 hPa 0,0 l/m 1,4 km/h (1 Bft) N-NW 346 8,9 C 6,3 km/h (2 Bft) 100 %
13.09.2017 00:35 10,3 C 91 % 1008,1 hPa 0,0 l/m 3,0 km/h (1 Bft) SW 230 8,9 C 6,3 km/h (2 Bft) 100 %
13.09.2017 00:36 10,3 C 91 % 1008,1 hPa 0,0 l/m 1,0 km/h (0 Bft) SW 222 8,9 C 15,7 km/h (3 Bft) 100 %
13.09.2017 00:37 10,3 C 91 % 1008,1 hPa 0,0 l/m 3,0 km/h (1 Bft) W-SW 248 8,9 C 9,4 km/h (2 Bft) 100 %
13.09.2017 00:38 10,3 C 91 % 1008,1 hPa 0,0 l/m 6,0 km/h (2 Bft) W-SW 251 8,9 C 12,6 km/h (3 Bft) 100 %
13.09.2017 00:39 10,3 C 91 % 1008,1 hPa 0,0 l/m 2,6 km/h (1 Bft) S 178 8,9 C 6,3 km/h (2 Bft) 100 %
13.09.2017 00:40 10,3 C 91 % 1008,1 hPa 0,0 l/m 0,8 km/h (0 Bft) W-NW 282 8,9 C 3,1 km/h (1 Bft) 100 %
13.09.2017 00:41 10,3 C 91 % 1008,1 hPa 0,0 l/m 2,9 km/h (1 Bft) W 265 8,9 C 9,4 km/h (2 Bft) 100 %
13.09.2017 00:42 10,3 C 91 % 1008,0 hPa 0,0 l/m 0,3 km/h (0 Bft) W-SW 238 8,9 C 3,1 km/h (1 Bft) 100 %
13.09.2017 00:43 10,3 C 91 % 1008,1 hPa 0,0 l/m 3,9 km/h (1 Bft) SO 126 8,9 C 9,4 km/h (2 Bft) 100 %
13.09.2017 00:44 10,3 C 91 % 1008,1 hPa 0,0 l/m 1,7 km/h (1 Bft) W-SW 242 8,9 C 6,3 km/h (2 Bft) 100 %
13.09.2017 00:45 10,2 C 91 % 1008,0 hPa 0,0 l/m 3,5 km/h (1 Bft) SW 234 8,8 C 9,4 km/h (2 Bft) 100 %
13.09.2017 00:46 10,2 C 91 % 1008,0 hPa 0,0 l/m 2,4 km/h (1 Bft) S-SW 198 8,8 C 9,4 km/h (2 Bft) 100 %
13.09.2017 00:47 10,2 C 91 % 1008,0 hPa 0,0 l/m 4,9 km/h (1 Bft) SW 226 8,8 C 12,6 km/h (3 Bft) 100 %
13.09.2017 00:48 10,2 C 91 % 1007,8 hPa 0,0 l/m 5,8 km/h (2 Bft) N-NW 327 8,8 C 15,7 km/h (3 Bft) 100 %
13.09.2017 00:49 10,2 C 91 % 1007,8 hPa 0,0 l/m 2,7 km/h (1 Bft) W-SW 253 8,8 C 9,4 km/h (2 Bft) 100 %
13.09.2017 00:50 10,2 C 91 % 1007,8 hPa 0,0 l/m 2,1 km/h (1 Bft) N-NW 347 8,8 C 6,3 km/h (2 Bft) 100 %
13.09.2017 00:51 10,2 C 91 % 1007,8 hPa 0,0 l/m 2,5 km/h (1 Bft) S-SW 195 8,8 C 9,4 km/h (2 Bft) 100 %
13.09.2017 00:52 10,2 C 91 % 1007,8 hPa 0,0 l/m 0,0 km/h (0 Bft) S-SW 195 8,8 C 0,0 km/h (0 Bft) 100 %
13.09.2017 00:53 10,2 C 91 % 1007,8 hPa 0,0 l/m 0,6 km/h (0 Bft) SW 230 8,8 C 3,1 km/h (1 Bft) 100 %
13.09.2017 00:54 10,2 C 91 % 1007,8 hPa 0,0 l/m 1,2 km/h (1 Bft) SW 227 8,8 C 6,3 km/h (2 Bft) 100 %
13.09.2017 00:55 10,2 C 91 % 1007,7 hPa 0,0 l/m 0,9 km/h (0 Bft) SW 231 8,8 C 6,3 km/h (2 Bft) 100 %
13.09.2017 00:56 10,2 C 91 % 1007,6 hPa 0,0 l/m 0,7 km/h (0 Bft) W-NW 295 8,8 C 6,3 km/h (2 Bft) 100 %
13.09.2017 00:57 10,2 C 91 % 1007,7 hPa 0,0 l/m 3,0 km/h (1 Bft) W-SW 258 8,8 C 9,4 km/h (2 Bft) 100 %
13.09.2017 00:58 10,2 C 91 % 1007,7 hPa 0,0 l/m 0,4 km/h (0 Bft) NO 34 8,8 C 3,1 km/h (1 Bft) 100 %
13.09.2017 00:59 10,1 C 91 % 1007,7 hPa 0,0 l/m 0,8 km/h (0 Bft) SW 233 8,7 C 3,1 km/h (1 Bft) 100 %
13.09.2017 01:00 10,1 C 91 % 1007,7 hPa 0,0 l/m 4,8 km/h (1 Bft) S-SO 160 8,7 C 12,6 km/h (3 Bft) 100 %
13.09.2017 01:01 10,1 C 91 % 1007,7 hPa 0,0 l/m 0,3 km/h (0 Bft) S 186 8,7 C 3,1 km/h (1 Bft) 100 %
13.09.2017 01:02 10,1 C 91 % 1007,6 hPa 0,0 l/m 0,4 km/h (0 Bft) S-SO 147 8,7 C 3,1 km/h (1 Bft) 100 %
13.09.2017 01:03 10,1 C 91 % 1007,6 hPa 0,0 l/m 3,0 km/h (1 Bft) SW 231 8,7 C 6,3 km/h (2 Bft) 100 %
13.09.2017 01:04 10,1 C 91 % 1007,7 hPa 0,0 l/m 0,7 km/h (0 Bft) SW 231 8,7 C 3,1 km/h (1 Bft) 100 %
13.09.2017 01:05 10,1 C 91 % 1007,7 hPa 0,0 l/m 1,8 km/h (1 Bft) S-SW 207 8,7 C 6,3 km/h (2 Bft) 100 %
13.09.2017 01:06 10,1 C 91 % 1007,7 hPa 0,0 l/m 0,0 km/h (0 Bft) SW 219 8,7 C 0,0 km/h (0 Bft) 100 %
13.09.2017 01:07 10,0 C 91 % 1007,6 hPa 0,0 l/m 0,0 km/h (0 Bft) SW 219 8,6 C 0,0 km/h (0 Bft) 100 %
13.09.2017 01:08 10,0 C 91 % 1007,6 hPa 0,0 l/m 6,6 km/h (2 Bft) SO 125 8,6 C 15,7 km/h (3 Bft) 100 %
13.09.2017 01:09 10,0 C 91 % 1007,6 hPa 0,0 l/m 1,0 km/h (0 Bft) W-SW 243 8,6 C 9,4 km/h (2 Bft) 100 %
13.09.2017 01:10 10,0 C 92 % 1007,6 hPa 0,0 l/m 1,2 km/h (1 Bft) W-NW 298 8,8 C 3,1 km/h (1 Bft) 100 %
13.09.2017 01:11 10,0 C 92 % 1007,6 hPa 0,0 l/m 0,8 km/h (0 Bft) W-NW 295 8,8 C 3,1 km/h (1 Bft) 100 %
13.09.2017 01:12 9,9 C 92 % 1007,7 hPa 0,0 l/m 0,0 km/h (0 Bft) W 279 8,7 C 0,0 km/h (0 Bft) 100 %
13.09.2017 01:13 9,9 C 92 % 1007,6 hPa 0,0 l/m 1,2 km/h (1 Bft) W-NW 286 8,7 C 3,1 km/h (1 Bft) 96 %
13.09.2017 01:14 9,9 C 92 % 1007,7 hPa 0,0 l/m 0,0 km/h (0 Bft) W-NW 287 8,7 C 0,0 km/h (0 Bft) 100 %
13.09.2017 01:15 9,9 C 92 % 1007,6 hPa 0,0 l/m 0,8 km/h (0 Bft) N-NW 336 8,7 C 3,1 km/h (1 Bft) 96 %
13.09.2017 01:16 9,9 C 92 % 1007,7 hPa 0,0 l/m 0,3 km/h (0 Bft) W-SW 241 8,7 C 3,1 km/h (1 Bft) 96 %
13.09.2017 01:17 9,9 C 92 % 1007,7 hPa 0,0 l/m 0,2 km/h (0 Bft) N-NW 328 8,7 C 3,1 km/h (1 Bft) 100 %
13.09.2017 01:18 9,9 C 92 % 1007,7 hPa 0,0 l/m 0,2 km/h (0 Bft) N-NW 328 8,7 C 3,1 km/h (1 Bft) 96 %
13.09.2017 01:19 9,9 C 92 % 1007,6 hPa 0,0 l/m 2,4 km/h (1 Bft) NW 316 8,7 C 15,7 km/h (3 Bft) 100 %
13.09.2017 01:20 9,8 C 92 % 1007,6 hPa 0,0 l/m 0,8 km/h (0 Bft) SW 217 8,6 C 3,1 km/h (1 Bft) 96 %
13.09.2017 01:21 9,8 C 92 % 1007,6 hPa 0,0 l/m 1,6 km/h (1 Bft) N-NO 26 8,6 C 3,1 km/h (1 Bft) 100 %
13.09.2017 01:23 9,8 C 92 % 1007,6 hPa 0,0 l/m 2,5 km/h (1 Bft) NO 41 8,6 C 6,3 km/h (2 Bft) 96 %
13.09.2017 01:24 9,8 C 92 % 1007,6 hPa 0,0 l/m 0,1 km/h (0 Bft) NO 41 8,6 C 3,1 km/h (1 Bft) 100 %
13.09.2017 01:25 9,8 C 92 % 1007,6 hPa 0,0 l/m 0,7 km/h (0 Bft) NO 50 8,6 C 3,1 km/h (1 Bft) 100 %
13.09.2017 01:26 9,8 C 92 % 1007,6 hPa 0,0 l/m 3,4 km/h (1 Bft) SO 144 8,6 C 9,4 km/h (2 Bft) 96 %
13.09.2017 01:27 9,8 C 92 % 1007,6 hPa 0,0 l/m 1,6 km/h (1 Bft) W-SW 251 8,6 C 6,3 km/h (2 Bft) 100 %
13.09.2017 01:28 9,8 C 92 % 1007,6 hPa 0,0 l/m 3,8 km/h (1 Bft) W 278 8,6 C 12,6 km/h (3 Bft) 100 %
13.09.2017 01:29 9,8 C 92 % 1007,6 hPa 0,0 l/m 1,6 km/h (1 Bft) SW 233 8,6 C 6,3 km/h (2 Bft) 100 %
13.09.2017 01:30 9,8 C 92 % 1007,6 hPa 0,0 l/m 1,4 km/h (1 Bft) NO 37 8,6 C 3,1 km/h (1 Bft) 100 %
13.09.2017 01:31 9,7 C 92 % 1007,6 hPa 0,0 l/m 2,1 km/h (1 Bft) NW 326 8,5 C 9,4 km/h (2 Bft) 100 %
13.09.2017 01:32 9,7 C 92 % 1007,6 hPa 0,0 l/m 1,5 km/h (1 Bft) SW 229 8,5 C 6,3 km/h (2 Bft) 100 %
13.09.2017 01:33 9,7 C 92 % 1007,6 hPa 0,0 l/m 0,1 km/h (0 Bft) SO 130 8,5 C 3,1 km/h (1 Bft) 100 %
13.09.2017 01:34 9,7 C 92 % 1007,6 hPa 0,0 l/m 0,0 km/h (0 Bft) SW 220 8,5 C 0,0 km/h (0 Bft) 100 %
13.09.2017 01:35 9,7 C 92 % 1007,6 hPa 0,0 l/m 0,0 km/h (0 Bft) O-NO 73 8,5 C 0,0 km/h (0 Bft) 100 %
13.09.2017 01:36 9,7 C 92 % 1007,6 hPa 0,0 l/m 2,1 km/h (1 Bft) O-NO 77 8,5 C 6,3 km/h (2 Bft) 100 %
13.09.2017 01:37 9,7 C 92 % 1007,5 hPa 0,0 l/m 0,0 km/h (0 Bft) O-NO 75 8,5 C 0,0 km/h (0 Bft) 100 %
13.09.2017 01:38 9,6 C 92 % 1007,5 hPa 0,0 l/m 0,1 km/h (0 Bft) SW 219 8,4 C 3,1 km/h (1 Bft) 100 %
13.09.2017 01:39 9,6 C 92 % 1007,5 hPa 0,0 l/m 2,1 km/h (1 Bft) SO 146 8,4 C 12,6 km/h (3 Bft) 100 %
13.09.2017 01:40 9,6 C 92 % 1007,5 hPa 0,0 l/m 1,4 km/h (1 Bft) NW 316 8,4 C 6,3 km/h (2 Bft) 100 %
13.09.2017 01:41 9,6 C 92 % 1007,5 hPa 0,0 l/m 0,0 km/h (0 Bft) S-SO 161 8,4 C 0,0 km/h (0 Bft) 100 %
13.09.2017 01:42 9,6 C 92 % 1007,5 hPa 0,0 l/m 1,5 km/h (1 Bft) W-SW 238 8,4 C 6,3 km/h (2 Bft) 100 %
13.09.2017 01:43 9,6 C 93 % 1007,4 hPa 0,0 l/m 0,9 km/h (0 Bft) SW 220 8,5 C 3,1 km/h (1 Bft) 100 %
13.09.2017 01:44 9,6 C 93 % 1007,3 hPa 0,0 l/m 0,4 km/h (0 Bft) W 272 8,5 C 3,1 km/h (1 Bft) 100 %
13.09.2017 01:45 9,5 C 93 % 1007,3 hPa 0,0 l/m 0,0 km/h (0 Bft) S 172 8,4 C 0,0 km/h (0 Bft) 100 %
13.09.2017 01:46 9,5 C 93 % 1007,3 hPa 0,0 l/m 6,9 km/h (2 Bft) SW 218 8,4 C 18,8 km/h (3 Bft) 100 %
13.09.2017 01:47 9,5 C 93 % 1007,3 hPa 0,0 l/m 1,0 km/h (0 Bft) W-SW 257 8,4 C 6,3 km/h (2 Bft) 100 %
13.09.2017 01:48 9,5 C 93 % 1007,3 hPa 0,0 l/m 1,3 km/h (1 Bft) SW 229 8,4 C 3,1 km/h (1 Bft) 100 %
13.09.2017 01:49 9,5 C 93 % 1007,2 hPa 0,0 l/m 0,5 km/h (0 Bft) W-SW 248 8,4 C 3,1 km/h (1 Bft) 100 %
13.09.2017 01:50 9,4 C 93 % 1007,2 hPa 0,0 l/m 0,1 km/h (0 Bft) W 278 8,3 C 3,1 km/h (1 Bft) 100 %
13.09.2017 01:51 9,4 C 93 % 1007,2 hPa 0,0 l/m 0,2 km/h (0 Bft) W 264 8,3 C 3,1 km/h (1 Bft) 100 %
13.09.2017 01:52 9,4 C 93 % 1007,2 hPa 0,0 l/m 0,1 km/h (0 Bft) W-SW 238 8,3 C 3,1 km/h (1 Bft) 100 %
13.09.2017 01:53 9,4 C 93 % 1007,1 hPa 0,0 l/m 0,0 km/h (0 Bft) W-SW 238 8,3 C 0,0 km/h (0 Bft) 100 %
13.09.2017 01:54 9,4 C 93 % 1007,1 hPa 0,0 l/m 0,8 km/h (0 Bft) S-SW 205 8,3 C 6,3 km/h (2 Bft) 100 %
13.09.2017 01:55 9,4 C 93 % 1007,1 hPa 0,0 l/m 0,8 km/h (0 Bft) W-NW 282 8,3 C 3,1 km/h (1 Bft) 100 %
13.09.2017 01:56 9,4 C 93 % 1007,1 hPa 0,0 l/m 1,4 km/h (1 Bft) W-SW 246 8,3 C 6,3 km/h (2 Bft) 100 %
13.09.2017 01:57 9,4 C 93 % 1007,2 hPa 0,0 l/m 0,7 km/h (0 Bft) SW 225 8,3 C 3,1 km/h (1 Bft) 100 %
13.09.2017 01:58 9,4 C 93 % 1007,1 hPa 0,0 l/m 0,2 km/h (0 Bft) SW 225 8,3 C 3,1 km/h (1 Bft) 100 %
13.09.2017 01:59 9,3 C 93 % 1007,1 hPa 0,0 l/m 1,1 km/h (1 Bft) W-NW 287 8,2 C 3,1 km/h (1 Bft) 100 %
13.09.2017 02:00 9,4 C 93 % 1007,1 hPa 0,0 l/m 0,5 km/h (0 Bft) W 262 8,3 C 3,1 km/h (1 Bft) 100 %
13.09.2017 02:01 9,3 C 93 % 1007,1 hPa 0,0 l/m 2,8 km/h (1 Bft) W-SW 254 8,2 C 6,3 km/h (2 Bft) 100 %
13.09.2017 02:02 9,3 C 93 % 1007,1 hPa 0,0 l/m 0,0 km/h (0 Bft) W-SW 254 8,2 C 0,0 km/h (0 Bft) 100 %
13.09.2017 02:03 9,3 C 93 % 1007,1 hPa 0,0 l/m 2,7 km/h (1 Bft) W-SW 245 8,2 C 6,3 km/h (2 Bft) 100 %
13.09.2017 02:04 9,3 C 93 % 1007,1 hPa 0,0 l/m 0,9 km/h (0 Bft) W 266 8,2 C 3,1 km/h (1 Bft) 100 %
13.09.2017 02:05 9,3 C 93 % 1007,0 hPa 0,0 l/m 0,4 km/h (0 Bft) W-SW 252 8,2 C 3,1 km/h (1 Bft) 100 %
13.09.2017 02:06 9,3 C 93 % 1007,0 hPa 0,0 l/m 0,2 km/h (0 Bft) W-SW 239 8,2 C 3,1 km/h (1 Bft) 100 %
13.09.2017 02:07 9,4 C 93 % 1006,9 hPa 0,0 l/m 1,2 km/h (1 Bft) NW 315 8,3 C 3,1 km/h (1 Bft) 100 %
13.09.2017 02:08 9,3 C 93 % 1006,9 hPa 0,0 l/m 2,4 km/h (1 Bft) SW 220 8,2 C 12,6 km/h (3 Bft) 100 %
13.09.2017 02:09 9,4 C 93 % 1006,8 hPa 0,0 l/m 3,6 km/h (1 Bft) SW 219 8,3 C 15,7 km/h (3 Bft) 100 %
13.09.2017 02:10 9,4 C 93 % 1006,8 hPa 0,0 l/m 0,0 km/h (0 Bft) SW 219 8,3 C 0,0 km/h (0 Bft) 100 %
13.09.2017 02:11 9,4 C 93 % 1006,8 hPa 0,0 l/m 0,3 km/h (0 Bft) NW 310 8,3 C 6,3 km/h (2 Bft) 100 %
13.09.2017 02:12 9,4 C 93 % 1006,7 hPa 0,0 l/m 1,0 km/h (0 Bft) W 268 8,3 C 6,3 km/h (2 Bft) 100 %
13.09.2017 02:13 9,4 C 93 % 1006,7 hPa 0,0 l/m 3,9 km/h (1 Bft) SW 219 8,3 C 6,3 km/h (2 Bft) 100 %
13.09.2017 02:14 9,4 C 93 % 1006,7 hPa 0,0 l/m 0,0 km/h (0 Bft) W 272 8,3 C 0,0 km/h (0 Bft) 100 %
13.09.2017 02:15 9,4 C 93 % 1006,7 hPa 0,0 l/m 0,1 km/h (0 Bft) W-SW 250 8,3 C 3,1 km/h (1 Bft) 100 %
13.09.2017 02:16 9,4 C 93 % 1006,7 hPa 0,0 l/m 0,0 km/h (0 Bft) W 264 8,3 C 0,0 km/h (0 Bft) 100 %
13.09.2017 02:17 9,4 C 93 % 1006,7 hPa 0,0 l/m 3,5 km/h (1 Bft) W 264 8,3 C 12,6 km/h (3 Bft) 100 %
13.09.2017 02:18 9,4 C 93 % 1006,6 hPa 0,0 l/m 0,3 km/h (0 Bft) W 260 8,3 C 3,1 km/h (1 Bft) 100 %
13.09.2017 02:19 9,4 C 93 % 1006,6 hPa 0,0 l/m 0,0 km/h (0 Bft) NW 304 8,3 C 0,0 km/h (0 Bft) 100 %
13.09.2017 02:20 9,4 C 93 % 1006,5 hPa 0,0 l/m 0,0 km/h (0 Bft) NW 304 8,3 C 0,0 km/h (0 Bft) 100 %
13.09.2017 02:21 9,4 C 93 % 1006,5 hPa 0,0 l/m 0,0 km/h (0 Bft) NW 304 8,3 C 0,0 km/h (0 Bft) 100 %
13.09.2017 02:22 9,5 C 93 % 1006,5 hPa 0,0 l/m 0,0 km/h (0 Bft) W 271 8,4 C 0,0 km/h (0 Bft) 100 %
13.09.2017 02:23 9,4 C 93 % 1006,5 hPa 0,0 l/m 0,1 km/h (0 Bft) W-SW 247 8,3 C 3,1 km/h (1 Bft) 100 %
13.09.2017 02:24 9,5 C 93 % 1006,5 hPa 0,0 l/m 2,0 km/h (1 Bft) SW 217 8,4 C 6,3 km/h (2 Bft) 100 %
13.09.2017 02:25 9,5 C 93 % 1006,5 hPa 0,0 l/m 2,0 km/h (1 Bft) SW 225 8,4 C 9,4 km/h (2 Bft) 100 %
13.09.2017 02:26 9,5 C 93 % 1006,5 hPa 0,0 l/m 7,2 km/h (2 Bft) SW 216 8,4 C 22,0 km/h (4 Bft) 100 %
13.09.2017 02:27 9,6 C 93 % 1006,5 hPa 0,0 l/m 3,3 km/h (1 Bft) S-SW 196 8,5 C 9,4 km/h (2 Bft) 100 %
13.09.2017 02:28 9,6 C 93 % 1006,5 hPa 0,0 l/m 1,8 km/h (1 Bft) W-NW 302 8,5 C 6,3 km/h (2 Bft) 100 %
13.09.2017 02:29 9,6 C 93 % 1006,5 hPa 0,0 l/m 0,8 km/h (0 Bft) W-NW 299 8,5 C 3,1 km/h (1 Bft) 100 %
13.09.2017 02:30 9,6 C 93 % 1006,5 hPa 0,0 l/m 0,5 km/h (0 Bft) W 271 8,5 C 3,1 km/h (1 Bft) 100 %
13.09.2017 02:31 9,6 C 93 % 1006,5 hPa 0,0 l/m 2,6 km/h (1 Bft) S-SO 160 8,5 C 9,4 km/h (2 Bft) 100 %
13.09.2017 02:32 9,7 C 93 % 1006,4 hPa 0,0 l/m 1,4 km/h (1 Bft) W-SW 255 8,6 C 3,1 km/h (1 Bft) 100 %
13.09.2017 02:33 9,7 C 93 % 1006,4 hPa 0,0 l/m 3,7 km/h (1 Bft) SW 229 8,6 C 9,4 km/h (2 Bft) 100 %
13.09.2017 02:34 9,7 C 93 % 1006,3 hPa 0,0 l/m 1,0 km/h (0 Bft) W-NW 283 8,6 C 6,3 km/h (2 Bft) 100 %
13.09.2017 02:35 9,7 C 93 % 1006,3 hPa 0,0 l/m 4,9 km/h (1 Bft) SW 229 8,6 C 15,7 km/h (3 Bft) 100 %
13.09.2017 02:36 9,7 C 93 % 1006,2 hPa 0,0 l/m 0,1 km/h (0 Bft) N-NO 26 8,6 C 3,1 km/h (1 Bft) 100 %
13.09.2017 02:38 9,8 C 93 % 1006,1 hPa 0,0 l/m 4,7 km/h (1 Bft) O 86 8,7 C 15,7 km/h (3 Bft) 98 %
13.09.2017 02:39 9,8 C 93 % 1006,2 hPa 0,0 l/m 0,4 km/h (0 Bft) W 263 8,7 C 3,1 km/h (1 Bft) 100 %
13.09.2017 02:40 9,8 C 92 % 1006,1 hPa 0,0 l/m 2,0 km/h (1 Bft) SW 236 8,6 C 6,3 km/h (2 Bft) 96 %
13.09.2017 02:41 9,8 C 92 % 1006,2 hPa 0,0 l/m 9,7 km/h (2 Bft) SW 231 8,6 C 22,0 km/h (4 Bft) 100 %
13.09.2017 02:42 9,9 C 92 % 1006,1 hPa 0,0 l/m 5,2 km/h (1 Bft) O-NO 72 8,7 C 18,8 km/h (3 Bft) 96 %
13.09.2017 02:43 9,9 C 92 % 1006,1 hPa 0,0 l/m 4,4 km/h (1 Bft) NO 55 8,7 C 22,0 km/h (4 Bft) 100 %
13.09.2017 02:44 9,9 C 92 % 1006,1 hPa 0,0 l/m 0,5 km/h (0 Bft) W 276 8,7 C 3,1 km/h (1 Bft) 100 %
13.09.2017 02:45 9,9 C 92 % 1006,0 hPa 0,0 l/m 3,1 km/h (1 Bft) S-SO 147 8,7 C 9,4 km/h (2 Bft) 100 %
13.09.2017 02:46 9,9 C 92 % 1006,1 hPa 0,0 l/m 1,3 km/h (1 Bft) N 359 8,7 C 6,3 km/h (2 Bft) 96 %
13.09.2017 02:47 9,9 C 92 % 1006,0 hPa 0,0 l/m 0,5 km/h (0 Bft) W-SW 245 8,7 C 3,1 km/h (1 Bft) 100 %
13.09.2017 02:48 10,0 C 92 % 1006,0 hPa 0,0 l/m 3,8 km/h (1 Bft) S-SO 147 8,8 C 9,4 km/h (2 Bft) 96 %
13.09.2017 02:49 10,0 C 92 % 1006,0 hPa 0,0 l/m 0,0 km/h (0 Bft) SO 125 8,8 C 0,0 km/h (0 Bft) 96 %
13.09.2017 02:50 10,0 C 92 % 1006,0 hPa 0,0 l/m 3,0 km/h (1 Bft) N-NW 328 8,8 C 12,6 km/h (3 Bft) 100 %
13.09.2017 02:51 10,0 C 92 % 1005,9 hPa 0,0 l/m 2,5 km/h (1 Bft) W 262 8,8 C 9,4 km/h (2 Bft) 100 %
13.09.2017 02:52 10,1 C 92 % 1005,9 hPa 0,0 l/m 0,7 km/h (0 Bft) W-SW 255 8,9 C 3,1 km/h (1 Bft) 96 %
13.09.2017 02:53 10,1 C 92 % 1005,8 hPa 0,0 l/m 0,0 km/h (0 Bft) W-SW 255 8,9 C 0,0 km/h (0 Bft) 96 %
13.09.2017 02:54 10,1 C 92 % 1005,8 hPa 0,0 l/m 1,7 km/h (1 Bft) W-SW 238 8,9 C 6,3 km/h (2 Bft) 100 %
13.09.2017 02:55 10,1 C 92 % 1005,8 hPa 0,0 l/m 7,6 km/h (2 Bft) W-SW 242 8,9 C 15,7 km/h (3 Bft) 96 %
13.09.2017 02:56 10,1 C 92 % 1005,8 hPa 0,0 l/m 2,7 km/h (1 Bft) S-SW 206 8,9 C 6,3 km/h (2 Bft) 100 %
13.09.2017 02:57 10,1 C 92 % 1005,8 hPa 0,0 l/m 6,7 km/h (2 Bft) W-NW 298 8,9 C 25,1 km/h (4 Bft) 92 %
13.09.2017 02:58 10,1 C 92 % 1005,8 hPa 0,0 l/m 2,4 km/h (1 Bft) NO 46 8,9 C 12,6 km/h (3 Bft) 100 %
13.09.2017 02:59 10,1 C 91 % 1005,8 hPa 0,0 l/m 4,2 km/h (1 Bft) SW 233 8,7 C 12,6 km/h (3 Bft) 96 %
13.09.2017 03:00 10,1 C 91 % 1005,7 hPa 0,0 l/m 4,1 km/h (1 Bft) O-NO 70 8,7 C 9,4 km/h (2 Bft) 100 %
13.09.2017 03:01 10,2 C 91 % 1005,8 hPa 0,0 l/m 1,2 km/h (1 Bft) W-SW 252 8,8 C 3,1 km/h (1 Bft) 100 %
13.09.2017 03:02 10,2 C 91 % 1005,8 hPa 0,0 l/m 0,4 km/h (0 Bft) W-NW 297 8,8 C 3,1 km/h (1 Bft) 100 %
13.09.2017 03:03 10,2 C 91 % 1005,8 hPa 0,0 l/m 2,0 km/h (1 Bft) S-SW 212 8,8 C 9,4 km/h (2 Bft) 100 %
13.09.2017 03:04 10,2 C 91 % 1005,9 hPa 0,0 l/m 6,7 km/h (2 Bft) S 174 8,8 C 18,8 km/h (3 Bft) 100 %
13.09.2017 03:05 10,2 C 91 % 1005,9 hPa 0,0 l/m 8,9 km/h (2 Bft) SW 221 8,8 C 18,8 km/h (3 Bft) 100 %
13.09.2017 03:06 10,2 C 91 % 1005,8 hPa 0,0 l/m 9,7 km/h (2 Bft) NW 314 8,8 C 25,1 km/h (4 Bft) 100 %
13.09.2017 03:07 10,3 C 91 % 1005,8 hPa 0,0 l/m 8,9 km/h (2 Bft) W-SW 246 8,9 C 25,1 km/h (4 Bft) 100 %
13.09.2017 03:08 10,3 C 91 % 1005,8 hPa 0,0 l/m 2,0 km/h (1 Bft) W-NW 296 8,9 C 9,4 km/h (2 Bft) 100 %
13.09.2017 03:09 10,3 C 91 % 1005,7 hPa 0,0 l/m 6,9 km/h (2 Bft) W-SW 242 8,9 C 12,6 km/h (3 Bft) 100 %
13.09.2017 03:10 10,3 C 91 % 1005,6 hPa 0,0 l/m 1,6 km/h (1 Bft) N-NW 335 8,9 C 9,4 km/h (2 Bft) 100 %
13.09.2017 03:11 10,3 C 91 % 1005,6 hPa 0,0 l/m 3,7 km/h (1 Bft) SW 232 8,9 C 9,4 km/h (2 Bft) 100 %
13.09.2017 03:12 10,3 C 91 % 1005,5 hPa 0,0 l/m 6,3 km/h (2 Bft) W-NW 300 8,9 C 9,4 km/h (2 Bft) 100 %
13.09.2017 03:13 10,3 C 91 % 1005,5 hPa 0,0 l/m 4,8 km/h (1 Bft) W-SW 256 8,9 C 15,7 km/h (3 Bft) 100 %
13.09.2017 03:14 10,3 C 91 % 1005,5 hPa 0,0 l/m 3,4 km/h (1 Bft) S-SW 200 8,9 C 18,8 km/h (3 Bft) 100 %
13.09.2017 03:15 10,3 C 91 % 1005,5 hPa 0,0 l/m 0,7 km/h (0 Bft) N 10 8,9 C 3,1 km/h (1 Bft) 100 %
13.09.2017 03:16 10,3 C 91 % 1005,5 hPa 0,0 l/m 0,3 km/h (0 Bft) W-SW 257 8,9 C 3,1 km/h (1 Bft) 100 %
13.09.2017 03:17 10,3 C 91 % 1005,4 hPa 0,0 l/m 9,1 km/h (2 Bft) W-NW 296 8,9 C 22,0 km/h (4 Bft) 100 %
13.09.2017 03:18 10,3 C 91 % 1005,3 hPa 0,0 l/m 6,3 km/h (2 Bft) W-SW 249 8,9 C 15,7 km/h (3 Bft) 100 %
13.09.2017 03:19 10,4 C 91 % 1005,4 hPa 0,0 l/m 1,6 km/h (1 Bft) NW 306 9,0 C 9,4 km/h (2 Bft) 100 %
13.09.2017 03:20 10,4 C 91 % 1005,3 hPa 0,0 l/m 8,9 km/h (2 Bft) W-SW 238 9,0 C 22,0 km/h (4 Bft) 100 %
13.09.2017 03:21 10,4 C 91 % 1005,3 hPa 0,0 l/m 5,5 km/h (1 Bft) O-SO 109 9,0 C 15,7 km/h (3 Bft) 100 %
13.09.2017 03:22 10,4 C 91 % 1005,3 hPa 0,0 l/m 6,3 km/h (2 Bft) SW 236 9,0 C 15,7 km/h (3 Bft) 100 %
13.09.2017 03:23 10,4 C 90 % 1005,4 hPa 0,0 l/m 2,9 km/h (1 Bft) SW 223 8,8 C 15,7 km/h (3 Bft) 100 %
13.09.2017 03:24 10,4 C 90 % 1005,3 hPa 0,0 l/m 6,4 km/h (2 Bft) W 265 8,8 C 15,7 km/h (3 Bft) 100 %
13.09.2017 03:25 10,4 C 90 % 1005,4 hPa 0,0 l/m 0,4 km/h (0 Bft) S-SW 197 8,8 C 3,1 km/h (1 Bft) 100 %
13.09.2017 03:26 10,4 C 90 % 1005,3 hPa 0,0 l/m 1,3 km/h (1 Bft) S-SW 192 8,8 C 6,3 km/h (2 Bft) 100 %
13.09.2017 03:27 10,4 C 90 % 1005,4 hPa 0,0 l/m 3,3 km/h (1 Bft) SW 236 8,8 C 22,0 km/h (4 Bft) 100 %
13.09.2017 03:28 10,4 C 90 % 1005,4 hPa 0,0 l/m 1,7 km/h (1 Bft) S-SW 207 8,8 C 6,3 km/h (2 Bft) 100 %
13.09.2017 03:29 10,4 C 90 % 1005,3 hPa 0,0 l/m 6,4 km/h (2 Bft) N-NW 334 8,8 C 18,8 km/h (3 Bft) 100 %
13.09.2017 03:30 10,4 C 91 % 1005,2 hPa 0,0 l/m 2,1 km/h (1 Bft) SW 219 9,0 C 9,4 km/h (2 Bft) 100 %
13.09.2017 03:31 10,4 C 91 % 1005,2 hPa 0,0 l/m 0,5 km/h (0 Bft) NO 51 9,0 C 3,1 km/h (1 Bft) 100 %
13.09.2017 03:32 10,4 C 91 % 1005,2 hPa 0,0 l/m 4,1 km/h (1 Bft) W-SW 239 9,0 C 12,6 km/h (3 Bft) 100 %
13.09.2017 03:33 10,4 C 91 % 1005,1 hPa 0,0 l/m 4,2 km/h (1 Bft) SW 227 9,0 C 9,4 km/h (2 Bft) 100 %
13.09.2017 03:34 10,4 C 91 % 1005,1 hPa 0,0 l/m 3,6 km/h (1 Bft) N-NW 342 9,0 C 9,4 km/h (2 Bft) 100 %
13.09.2017 03:35 10,4 C 91 % 1005,1 hPa 0,0 l/m 3,9 km/h (1 Bft) W-SW 250 9,0 C 12,6 km/h (3 Bft) 100 %
13.09.2017 03:36 10,4 C 91 % 1005,0 hPa 0,0 l/m 0,5 km/h (0 Bft) SW 230 9,0 C 3,1 km/h (1 Bft) 100 %
13.09.2017 03:37 10,4 C 91 % 1005,0 hPa 0,0 l/m 3,0 km/h (1 Bft) NO 40 9,0 C 9,4 km/h (2 Bft) 100 %
13.09.2017 03:38 10,3 C 91 % 1005,0 hPa 0,0 l/m 3,0 km/h (1 Bft) SW 217 8,9 C 12,6 km/h (3 Bft) 100 %
13.09.2017 03:39 10,4 C 91 % 1005,0 hPa 0,0 l/m 0,5 km/h (0 Bft) SW 217 9,0 C 6,3 km/h (2 Bft) 100 %
13.09.2017 03:40 10,4 C 91 % 1005,0 hPa 0,0 l/m 5,9 km/h (2 Bft) SW 219 9,0 C 22,0 km/h (4 Bft) 100 %
13.09.2017 03:41 10,4 C 91 % 1005,0 hPa 0,0 l/m 7,8 km/h (2 Bft) W-NW 290 9,0 C 25,1 km/h (4 Bft) 100 %
13.09.2017 03:42 10,4 C 91 % 1005,0 hPa 0,0 l/m 0,7 km/h (0 Bft) N 8 9,0 C 3,1 km/h (1 Bft) 100 %
13.09.2017 03:43 10,4 C 91 % 1005,0 hPa 0,0 l/m 1,0 km/h (0 Bft) N 7 9,0 C 3,1 km/h (1 Bft) 100 %
13.09.2017 03:44 10,4 C 91 % 1005,0 hPa 0,0 l/m 0,5 km/h (0 Bft) W-SW 257 9,0 C 3,1 km/h (1 Bft) 100 %
13.09.2017 03:45 10,4 C 91 % 1005,0 hPa 0,0 l/m 5,1 km/h (1 Bft) SW 220 9,0 C 15,7 km/h (3 Bft) 100 %
13.09.2017 03:46 10,4 C 91 % 1005,0 hPa 0,0 l/m 0,2 km/h (0 Bft) N-NW 345 9,0 C 3,1 km/h (1 Bft) 100 %
13.09.2017 03:47 10,4 C 91 % 1005,0 hPa 0,0 l/m 1,2 km/h (1 Bft) W 263 9,0 C 6,3 km/h (2 Bft) 100 %
13.09.2017 03:48 10,4 C 91 % 1004,9 hPa 0,0 l/m 1,4 km/h (1 Bft) N-NO 32 9,0 C 6,3 km/h (2 Bft) 100 %
13.09.2017 03:49 10,4 C 91 % 1004,8 hPa 0,0 l/m 0,5 km/h (0 Bft) W-NW 299 9,0 C 3,1 km/h (1 Bft) 100 %
13.09.2017 03:50 10,4 C 91 % 1004,8 hPa 0,0 l/m 0,0 km/h (0 Bft) N-NW 345 9,0 C 0,0 km/h (0 Bft) 100 %
13.09.2017 03:51 10,4 C 91 % 1004,7 hPa 0,0 l/m 1,6 km/h (1 Bft) NW 318 9,0 C 6,3 km/h (2 Bft) 100 %
13.09.2017 03:52 10,4 C 91 % 1004,7 hPa 0,0 l/m 1,4 km/h (1 Bft) O-SO 107 9,0 C 6,3 km/h (2 Bft) 100 %
13.09.2017 03:53 10,4 C 91 % 1004,6 hPa 0,0 l/m 3,3 km/h (1 Bft) SW 220 9,0 C 6,3 km/h (2 Bft) 100 %
13.09.2017 03:54 10,4 C 91 % 1004,5 hPa 0,0 l/m 5,4 km/h (1 Bft) SW 230 9,0 C 18,8 km/h (3 Bft) 100 %
13.09.2017 03:55 10,4 C 91 % 1004,5 hPa 0,0 l/m 1,2 km/h (1 Bft) NO 56 9,0 C 3,1 km/h (1 Bft) 100 %
13.09.2017 03:56 10,4 C 91 % 1004,4 hPa 0,0 l/m 0,4 km/h (0 Bft) S-SW 202 9,0 C 3,1 km/h (1 Bft) 100 %
13.09.2017 03:57 10,4 C 91 % 1004,4 hPa 0,0 l/m 1,3 km/h (1 Bft) S-SW 205 9,0 C 6,3 km/h (2 Bft) 100 %
13.09.2017 03:58 10,4 C 91 % 1004,3 hPa 0,0 l/m 0,4 km/h (0 Bft) N-NO 19 9,0 C 3,1 km/h (1 Bft) 100 %
13.09.2017 03:59 10,4 C 91 % 1004,2 hPa 0,0 l/m 1,9 km/h (1 Bft) N-NO 32 9,0 C 6,3 km/h (2 Bft) 100 %
13.09.2017 04:00 10,4 C 92 % 1004,1 hPa 0,0 l/m 0,7 km/h (0 Bft) N 2 9,2 C 3,1 km/h (1 Bft) 100 %
13.09.2017 04:03 10,5 C 92 % 1004,0 hPa 0,0 l/m 2,0 km/h (1 Bft) O 82 9,3 C 6,3 km/h (2 Bft) 100 %
13.09.2017 04:04 10,5 C 92 % 1004,0 hPa 0,0 l/m 0,2 km/h (0 Bft) O 82 9,3 C 3,1 km/h (1 Bft) 100 %
13.09.2017 04:05 10,5 C 92 % 1003,9 hPa 0,0 l/m 0,1 km/h (0 Bft) O 82 9,3 C 3,1 km/h (1 Bft) 96 %
13.09.2017 04:06 10,5 C 92 % 1003,9 hPa 0,0 l/m 0,5 km/h (0 Bft) W 276 9,3 C 3,1 km/h (1 Bft) 96 %
13.09.2017 04:07 10,5 C 92 % 1003,9 hPa 0,0 l/m 0,0 km/h (0 Bft) N-NW 329 9,3 C 0,0 km/h (0 Bft) 100 %
13.09.2017 04:08 10,5 C 92 % 1004,0 hPa 0,0 l/m 1,8 km/h (1 Bft) W-NW 284 9,3 C 6,3 km/h (2 Bft) 100 %
13.09.2017 04:09 10,5 C 92 % 1003,9 hPa 0,0 l/m 1,4 km/h (1 Bft) W-SW 239 9,3 C 6,3 km/h (2 Bft) 100 %
13.09.2017 04:10 10,6 C 92 % 1003,9 hPa 0,0 l/m 0,7 km/h (0 Bft) N-NW 331 9,4 C 3,1 km/h (1 Bft) 100 %
13.09.2017 04:11 10,6 C 92 % 1003,9 hPa 0,0 l/m 0,2 km/h (0 Bft) NW 326 9,4 C 3,1 km/h (1 Bft) 100 %
13.09.2017 04:12 10,6 C 92 % 1003,9 hPa 0,0 l/m 3,0 km/h (1 Bft) N-NO 23 9,4 C 6,3 km/h (2 Bft) 100 %
13.09.2017 04:13 10,6 C 92 % 1003,8 hPa 0,0 l/m 5,7 km/h (1 Bft) N-NO 28 9,4 C 9,4 km/h (2 Bft) 97 %
13.09.2017 04:14 10,6 C 92 % 1003,8 hPa 0,0 l/m 2,3 km/h (1 Bft) N 10 9,4 C 9,4 km/h (2 Bft) 100 %
13.09.2017 04:15 10,6 C 92 % 1003,9 hPa 0,0 l/m 5,0 km/h (1 Bft) W-NW 298 9,4 C 18,8 km/h (3 Bft) 96 %
13.09.2017 04:16 10,6 C 92 % 1003,9 hPa 0,0 l/m 7,3 km/h (2 Bft) W 277 9,4 C 15,7 km/h (3 Bft) 100 %
13.09.2017 04:17 10,7 C 92 % 1003,9 hPa 0,0 l/m 0,7 km/h (0 Bft) W-SW 243 9,5 C 3,1 km/h (1 Bft) 96 %
13.09.2017 04:18 10,7 C 92 % 1003,8 hPa 0,0 l/m 0,6 km/h (0 Bft) N-NO 20 9,5 C 3,1 km/h (1 Bft) 100 %
13.09.2017 04:19 10,7 C 91 % 1003,8 hPa 0,0 l/m 0,3 km/h (0 Bft) SW 219 9,3 C 3,1 km/h (1 Bft) 96 %
13.09.2017 04:20 10,7 C 91 % 1003,7 hPa 0,0 l/m 1,3 km/h (1 Bft) W-NW 289 9,3 C 3,1 km/h (1 Bft) 96 %
13.09.2017 04:21 10,7 C 91 % 1003,7 hPa 0,0 l/m 1,5 km/h (1 Bft) W 264 9,3 C 6,3 km/h (2 Bft) 100 %
13.09.2017 04:22 10,7 C 91 % 1003,8 hPa 0,0 l/m 1,2 km/h (1 Bft) S 181 9,3 C 3,1 km/h (1 Bft) 96 %
13.09.2017 04:23 10,7 C 91 % 1003,8 hPa 0,0 l/m 0,8 km/h (0 Bft) W-SW 246 9,3 C 3,1 km/h (1 Bft) 100 %
13.09.2017 04:24 10,7 C 91 % 1003,8 hPa 0,0 l/m 1,8 km/h (1 Bft) NO 39 9,3 C 6,3 km/h (2 Bft) 92 %
13.09.2017 04:25 10,7 C 91 % 1003,9 hPa 0,0 l/m 2,9 km/h (1 Bft) SW 217 9,3 C 9,4 km/h (2 Bft) 100 %
13.09.2017 04:26 10,7 C 91 % 1003,8 hPa 0,0 l/m 2,8 km/h (1 Bft) O-NO 75 9,3 C 6,3 km/h (2 Bft) 100 %
13.09.2017 04:27 10,8 C 91 % 1003,8 hPa 0,0 l/m 0,8 km/h (0 Bft) W 262 9,4 C 3,1 km/h (1 Bft) 100 %
13.09.2017 04:28 10,8 C 91 % 1003,8 hPa 0,0 l/m 0,0 km/h (0 Bft) N-NW 342 9,4 C 0,0 km/h (0 Bft) 100 %
13.09.2017 04:29 10,8 C 91 % 1003,8 hPa 0,0 l/m 0,6 km/h (0 Bft) W 276 9,4 C 3,1 km/h (1 Bft) 100 %
13.09.2017 04:30 10,8 C 91 % 1003,8 hPa 0,0 l/m 0,3 km/h (0 Bft) NO 56 9,4 C 3,1 km/h (1 Bft) 100 %
13.09.2017 04:31 10,8 C 91 % 1003,7 hPa 0,0 l/m 0,0 km/h (0 Bft) N-NW 344 9,4 C 0,0 km/h (0 Bft) 100 %
13.09.2017 04:32 10,8 C 91 % 1003,6 hPa 0,0 l/m 1,0 km/h (0 Bft) S-SW 202 9,4 C 3,1 km/h (1 Bft) 100 %
13.09.2017 04:33 10,8 C 91 % 1003,6 hPa 0,0 l/m 0,0 km/h (0 Bft) NO 47 9,4 C 0,0 km/h (0 Bft) 100 %
13.09.2017 04:34 10,8 C 91 % 1003,6 hPa 0,0 l/m 2,9 km/h (1 Bft) W-SW 247 9,4 C 6,3 km/h (2 Bft) 100 %
13.09.2017 04:35 10,8 C 91 % 1003,6 hPa 0,0 l/m 2,6 km/h (1 Bft) SW 228 9,4 C 12,6 km/h (3 Bft) 100 %
13.09.2017 04:36 10,8 C 91 % 1003,6 hPa 0,0 l/m 5,9 km/h (2 Bft) S-SW 202 9,4 C 18,8 km/h (3 Bft) 100 %
13.09.2017 04:37 10,8 C 91 % 1003,6 hPa 0,0 l/m 0,8 km/h (0 Bft) SW 218 9,4 C 3,1 km/h (1 Bft) 100 %
13.09.2017 04:38 10,9 C 91 % 1003,5 hPa 0,0 l/m 0,1 km/h (0 Bft) W 259 9,5 C 3,1 km/h (1 Bft) 100 %
13.09.2017 04:39 10,9 C 91 % 1003,5 hPa 0,0 l/m 5,9 km/h (2 Bft) NO 49 9,5 C 18,8 km/h (3 Bft) 99 %
13.09.2017 04:40 10,9 C 91 % 1003,5 hPa 0,0 l/m 8,0 km/h (2 Bft) W-SW 243 9,5 C 22,0 km/h (4 Bft) 100 %
13.09.2017 04:41 10,9 C 91 % 1003,4 hPa 0,0 l/m 6,5 km/h (2 Bft) W 269 9,5 C 18,8 km/h (3 Bft) 100 %
13.09.2017 04:42 10,9 C 91 % 1003,4 hPa 0,0 l/m 2,5 km/h (1 Bft) W-SW 251 9,5 C 12,6 km/h (3 Bft) 100 %
13.09.2017 04:43 10,9 C 90 % 1003,3 hPa 0,0 l/m 5,3 km/h (1 Bft) W-SW 249 9,3 C 12,6 km/h (3 Bft) 100 %
13.09.2017 04:44 11,0 C 90 % 1003,3 hPa 0,0 l/m 4,6 km/h (1 Bft) NO 39 9,4 C 15,7 km/h (3 Bft) 100 %
13.09.2017 04:45 11,0 C 90 % 1003,1 hPa 0,0 l/m 1,4 km/h (1 Bft) O-NO 77 9,4 C 6,3 km/h (2 Bft) 100 %
13.09.2017 04:46 11,0 C 90 % 1003,2 hPa 0,0 l/m 0,5 km/h (0 Bft) N 350 9,4 C 3,1 km/h (1 Bft) 100 %
13.09.2017 04:47 11,1 C 90 % 1003,2 hPa 0,0 l/m 3,1 km/h (1 Bft) SW 226 9,5 C 9,4 km/h (2 Bft) 100 %
13.09.2017 04:48 11,1 C 90 % 1003,3 hPa 0,0 l/m 2,2 km/h (1 Bft) S-SW 193 9,5 C 9,4 km/h (2 Bft) 100 %
13.09.2017 04:49 11,1 C 90 % 1003,1 hPa 0,0 l/m 0,3 km/h (0 Bft) S-SW 193 9,5 C 6,3 km/h (2 Bft) 100 %
13.09.2017 04:50 11,1 C 90 % 1003,0 hPa 0,0 l/m 4,6 km/h (1 Bft) W-SW 238 9,5 C 9,4 km/h (2 Bft) 100 %
13.09.2017 04:51 11,1 C 90 % 1003,0 hPa 0,0 l/m 3,1 km/h (1 Bft) SW 226 9,5 C 12,6 km/h (3 Bft) 100 %
13.09.2017 04:52 11,1 C 90 % 1003,0 hPa 0,0 l/m 0,4 km/h (0 Bft) SW 231 9,5 C 3,1 km/h (1 Bft) 100 %
13.09.2017 04:53 11,1 C 90 % 1003,0 hPa 0,0 l/m 0,0 km/h (0 Bft) NW 308 9,5 C 0,0 km/h (0 Bft) 100 %
13.09.2017 04:54 11,1 C 90 % 1003,0 hPa 0,0 l/m 0,0 km/h (0 Bft) W-NW 300 9,5 C 0,0 km/h (0 Bft) 100 %
13.09.2017 04:55 11,1 C 90 % 1002,9 hPa 0,0 l/m 1,2 km/h (1 Bft) W-SW 237 9,5 C 3,1 km/h (1 Bft) 100 %
13.09.2017 04:56 11,1 C 90 % 1002,9 hPa 0,0 l/m 1,8 km/h (1 Bft) W-SW 237 9,5 C 12,6 km/h (3 Bft) 100 %
13.09.2017 04:57 11,2 C 90 % 1003,0 hPa 0,0 l/m 5,1 km/h (1 Bft) SW 226 9,6 C 15,7 km/h (3 Bft) 100 %
13.09.2017 04:58 11,2 C 90 % 1002,9 hPa 0,0 l/m 4,9 km/h (1 Bft) O-NO 64 9,6 C 15,7 km/h (3 Bft) 100 %
13.09.2017 04:59 11,2 C 90 % 1003,0 hPa 0,0 l/m 0,8 km/h (0 Bft) O-NO 63 9,6 C 6,3 km/h (2 Bft) 100 %
13.09.2017 05:00 11,2 C 89 % 1003,0 hPa 0,0 l/m 0,6 km/h (0 Bft) SW 236 9,5 C 3,1 km/h (1 Bft) 100 %
13.09.2017 05:01 11,2 C 89 % 1003,0 hPa 0,0 l/m 0,0 km/h (0 Bft) SW 236 9,5 C 0,0 km/h (0 Bft) 100 %
13.09.2017 05:02 11,2 C 89 % 1003,1 hPa 0,0 l/m 2,4 km/h (1 Bft) SW 230 9,5 C 6,3 km/h (2 Bft) 100 %
13.09.2017 05:03 11,2 C 89 % 1003,0 hPa 0,0 l/m 1,0 km/h (0 Bft) W-SW 243 9,5 C 6,3 km/h (2 Bft) 100 %
13.09.2017 05:04 11,2 C 89 % 1002,9 hPa 0,0 l/m 0,0 km/h (0 Bft) W-SW 243 9,5 C 0,0 km/h (0 Bft) 100 %
13.09.2017 05:05 11,2 C 89 % 1002,8 hPa 0,0 l/m 0,0 km/h (0 Bft) W-NW 297 9,5 C 0,0 km/h (0 Bft) 100 %
13.09.2017 05:06 11,2 C 89 % 1002,8 hPa 0,0 l/m 0,0 km/h (0 Bft) W-NW 297 9,5 C 0,0 km/h (0 Bft) 100 %
13.09.2017 05:07 11,2 C 89 % 1002,8 hPa 0,0 l/m 0,0 km/h (0 Bft) W-NW 297 9,5 C 0,0 km/h (0 Bft) 100 %
13.09.2017 05:08 11,2 C 89 % 1002,7 hPa 0,0 l/m 0,0 km/h (0 Bft) W-NW 297 9,5 C 0,0 km/h (0 Bft) 100 %
13.09.2017 05:09 11,2 C 89 % 1002,7 hPa 0,0 l/m 0,0 km/h (0 Bft) W-NW 297 9,5 C 0,0 km/h (0 Bft) 96 %
13.09.2017 05:10 11,2 C 90 % 1002,7 hPa 0,0 l/m 0,0 km/h (0 Bft) W-NW 297 9,6 C 0,0 km/h (0 Bft) 100 %
13.09.2017 05:11 11,2 C 90 % 1002,7 hPa 0,0 l/m 0,0 km/h (0 Bft) W-NW 296 9,6 C 0,0 km/h (0 Bft) 100 %
13.09.2017 05:13 11,2 C 90 % 1002,4 hPa 0,0 l/m 0,7 km/h (0 Bft) N-NO 18 9,6 C 3,1 km/h (1 Bft) 100 %
13.09.2017 05:14 11,2 C 90 % 1002,5 hPa 0,0 l/m 0,0 km/h (0 Bft) N-NO 18 9,6 C 0,0 km/h (0 Bft) 100 %
13.09.2017 05:15 11,1 C 90 % 1002,5 hPa 0,0 l/m 0,0 km/h (0 Bft) N-NO 18 9,5 C 0,0 km/h (0 Bft) 100 %
13.09.2017 05:16 11,1 C 90 % 1002,4 hPa 0,0 l/m 0,0 km/h (0 Bft) N 357 9,5 C 0,0 km/h (0 Bft) 100 %
13.09.2017 05:17 11,1 C 90 % 1002,4 hPa 0,0 l/m 0,5 km/h (0 Bft) N 5 9,5 C 3,1 km/h (1 Bft) 100 %
13.09.2017 05:18 11,1 C 90 % 1002,3 hPa 0,0 l/m 0,0 km/h (0 Bft) N 5 9,5 C 0,0 km/h (0 Bft) 100 %
13.09.2017 05:19 11,1 C 90 % 1002,3 hPa 0,0 l/m 0,4 km/h (0 Bft) W 280 9,5 C 3,1 km/h (1 Bft) 100 %
13.09.2017 05:20 11,1 C 90 % 1002,3 hPa 0,0 l/m 0,1 km/h (0 Bft) N-NW 330 9,5 C 3,1 km/h (1 Bft) 100 %
13.09.2017 05:21 11,1 C 90 % 1002,2 hPa 0,0 l/m 0,1 km/h (0 Bft) NO 46 9,5 C 3,1 km/h (1 Bft) 100 %
13.09.2017 05:22 11,1 C 90 % 1002,1 hPa 0,0 l/m 0,3 km/h (0 Bft) N-NO 21 9,5 C 3,1 km/h (1 Bft) 100 %
13.09.2017 05:23 11,1 C 90 % 1002,0 hPa 0,0 l/m 0,3 km/h (0 Bft) N-NO 21 9,5 C 3,1 km/h (1 Bft) 100 %
13.09.2017 05:24 11,1 C 90 % 1001,9 hPa 0,0 l/m 0,2 km/h (0 Bft) NO 51 9,5 C 3,1 km/h (1 Bft) 100 %
13.09.2017 05:25 11,1 C 90 % 1001,7 hPa 0,0 l/m 0,2 km/h (0 Bft) NO 49 9,5 C 3,1 km/h (1 Bft) 100 %
13.09.2017 05:26 11,1 C 90 % 1001,7 hPa 0,0 l/m 0,0 km/h (0 Bft) NO 49 9,5 C 0,0 km/h (0 Bft) 96 %
13.09.2017 05:27 11,1 C 90 % 1001,7 hPa 0,0 l/m 0,1 km/h (0 Bft) NO 46 9,5 C 3,1 km/h (1 Bft) 100 %
13.09.2017 05:28 11,1 C 90 % 1001,7 hPa 0,0 l/m 2,7 km/h (1 Bft) N-NO 22 9,5 C 9,4 km/h (2 Bft) 100 %
13.09.2017 05:29 11,1 C 90 % 1001,6 hPa 0,0 l/m 0,8 km/h (0 Bft) N-NO 25 9,5 C 3,1 km/h (1 Bft) 100 %
13.09.2017 05:30 11,1 C 90 % 1001,7 hPa 0,0 l/m 0,3 km/h (0 Bft) N-NO 25 9,5 C 3,1 km/h (1 Bft) 100 %
13.09.2017 05:31 11,1 C 90 % 1001,8 hPa 0,0 l/m 2,4 km/h (1 Bft) O 82 9,5 C 6,3 km/h (2 Bft) 94 %
13.09.2017 05:32 11,1 C 90 % 1001,6 hPa 0,0 l/m 2,1 km/h (1 Bft) NO 38 9,5 C 6,3 km/h (2 Bft) 96 %
13.09.2017 05:33 11,1 C 91 % 1001,6 hPa 0,0 l/m 3,7 km/h (1 Bft) NO 50 9,7 C 6,3 km/h (2 Bft) 100 %
13.09.2017 05:34 11,1 C 91 % 1001,7 hPa 0,0 l/m 0,4 km/h (0 Bft) NO 51 9,7 C 3,1 km/h (1 Bft) 96 %
13.09.2017 05:35 11,1 C 91 % 1001,7 hPa 0,0 l/m 1,0 km/h (0 Bft) O 82 9,7 C 3,1 km/h (1 Bft) 100 %
13.09.2017 05:36 11,1 C 91 % 1001,8 hPa 0,0 l/m 1,4 km/h (1 Bft) W-SW 251 9,7 C 6,3 km/h (2 Bft) 96 %
13.09.2017 05:37 11,1 C 91 % 1001,8 hPa 0,0 l/m 0,9 km/h (0 Bft) S 174 9,7 C 3,1 km/h (1 Bft) 96 %
13.09.2017 05:38 11,1 C 91 % 1001,7 hPa 0,0 l/m 0,0 km/h (0 Bft) W-NW 290 9,7 C 0,0 km/h (0 Bft) 100 %
13.09.2017 05:39 11,1 C 91 % 1001,8 hPa 0,0 l/m 0,6 km/h (0 Bft) NO 46 9,7 C 3,1 km/h (1 Bft) 96 %
13.09.2017 05:40 11,1 C 91 % 1001,9 hPa 0,0 l/m 0,0 km/h (0 Bft) SW 226 9,7 C 0,0 km/h (0 Bft) 100 %
13.09.2017 05:41 11,1 C 91 % 1001,9 hPa 0,2 l/m 0,0 km/h (0 Bft) N-NW 337 9,7 C 0,0 km/h (0 Bft) 96 %
13.09.2017 05:42 11,1 C 91 % 1001,8 hPa 0,0 l/m 0,0 km/h (0 Bft) N-NW 337 9,7 C 0,0 km/h (0 Bft) 100 %
13.09.2017 05:43 11,1 C 91 % 1001,7 hPa 0,0 l/m 0,5 km/h (0 Bft) SW 226 9,7 C 6,3 km/h (2 Bft) 96 %
13.09.2017 05:44 11,0 C 91 % 1001,7 hPa 0,0 l/m 0,0 km/h (0 Bft) SW 226 9,6 C 0,0 km/h (0 Bft) 100 %
13.09.2017 05:45 11,1 C 92 % 1001,7 hPa 0,2 l/m 0,0 km/h (0 Bft) SW 226 9,8 C 0,0 km/h (0 Bft) 96 %
13.09.2017 05:46 11,0 C 92 % 1001,7 hPa 0,0 l/m 0,2 km/h (0 Bft) W-NW 289 9,8 C 3,1 km/h (1 Bft) 100 %
13.09.2017 05:47 11,0 C 92 % 1001,6 hPa 0,2 l/m 0,1 km/h (0 Bft) W-NW 290 9,8 C 3,1 km/h (1 Bft) 100 %
13.09.2017 05:48 11,0 C 92 % 1001,5 hPa 0,0 l/m 0,0 km/h (0 Bft) W-NW 290 9,8 C 0,0 km/h (0 Bft) 100 %
13.09.2017 05:49 11,0 C 92 % 1001,3 hPa 0,2 l/m 0,0 km/h (0 Bft) W-NW 290 9,8 C 0,0 km/h (0 Bft) 100 %
13.09.2017 05:50 11,0 C 92 % 1001,3 hPa 0,0 l/m 0,0 km/h (0 Bft) W-NW 290 9,8 C 0,0 km/h (0 Bft) 100 %
13.09.2017 05:51 11,0 C 92 % 1001,2 hPa 0,0 l/m 0,1 km/h (0 Bft) W-NW 290 9,8 C 3,1 km/h (1 Bft) 100 %
13.09.2017 05:52 10,9 C 92 % 1000,9 hPa 0,2 l/m 0,8 km/h (0 Bft) S-SO 153 9,7 C 3,1 km/h (1 Bft) 100 %
13.09.2017 05:53 10,9 C 92 % 1000,7 hPa 0,0 l/m 0,0 km/h (0 Bft) S-SO 153 9,7 C 0,0 km/h (0 Bft) 100 %
13.09.2017 05:54 10,9 C 93 % 1000,7 hPa 0,2 l/m 0,0 km/h (0 Bft) S 169 9,8 C 0,0 km/h (0 Bft) 100 %
13.09.2017 05:55 10,9 C 93 % 1000,7 hPa 0,0 l/m 3,0 km/h (1 Bft) W 271 9,8 C 9,4 km/h (2 Bft) 100 %
13.09.2017 05:56 10,9 C 93 % 1000,6 hPa 0,0 l/m 1,8 km/h (1 Bft) W 274 9,8 C 6,3 km/h (2 Bft) 100 %
13.09.2017 05:57 10,8 C 93 % 1000,5 hPa 0,2 l/m 2,7 km/h (1 Bft) SW 223 9,7 C 9,4 km/h (2 Bft) 100 %
13.09.2017 05:58 10,8 C 93 % 1000,5 hPa 0,0 l/m 0,8 km/h (0 Bft) O-NO 59 9,7 C 3,1 km/h (1 Bft) 100 %
13.09.2017 05:59 10,8 C 93 % 1000,4 hPa 0,2 l/m 1,6 km/h (1 Bft) N-NW 347 9,7 C 6,3 km/h (2 Bft) 100 %
13.09.2017 06:00 10,8 C 93 % 1000,5 hPa 0,0 l/m 0,0 km/h (0 Bft) O-NO 76 9,7 C 0,0 km/h (0 Bft) 100 %
13.09.2017 06:01 10,8 C 93 % 1000,5 hPa 0,0 l/m 4,3 km/h (1 Bft) W-SW 250 9,7 C 15,7 km/h (3 Bft) 100 %
13.09.2017 06:02 10,7 C 94 % 1000,7 hPa 0,0 l/m 3,4 km/h (1 Bft) SW 227 9,8 C 9,4 km/h (2 Bft) 100 %
13.09.2017 06:03 10,7 C 94 % 1000,6 hPa 0,0 l/m 0,8 km/h (0 Bft) SW 226 9,8 C 3,1 km/h (1 Bft) 100 %
13.09.2017 06:04 10,7 C 94 % 1000,6 hPa 0,0 l/m 1,6 km/h (1 Bft) SW 231 9,8 C 6,3 km/h (2 Bft) 100 %
13.09.2017 06:05 10,7 C 94 % 1000,6 hPa 0,0 l/m 1,7 km/h (1 Bft) SO 127 9,8 C 6,3 km/h (2 Bft) 100 %
13.09.2017 06:06 10,7 C 94 % 1000,4 hPa 0,0 l/m 0,4 km/h (0 Bft) NO 36 9,8 C 3,1 km/h (1 Bft) 100 %
13.09.2017 06:07 10,7 C 94 % 1000,3 hPa 0,0 l/m 2,5 km/h (1 Bft) N-NO 17 9,8 C 9,4 km/h (2 Bft) 100 %
13.09.2017 06:08 10,7 C 94 % 1000,2 hPa 0,0 l/m 5,9 km/h (2 Bft) S 169 9,8 C 9,4 km/h (2 Bft) 100 %
13.09.2017 06:09 10,7 C 94 % 1000,0 hPa 0,0 l/m 6,1 km/h (2 Bft) SW 219 9,8 C 25,1 km/h (4 Bft) 100 %
13.09.2017 06:10 10,7 C 94 % 999,9 hPa 0,0 l/m 2,1 km/h (1 Bft) W-NW 296 9,8 C 6,3 km/h (2 Bft) 100 %
13.09.2017 06:11 10,7 C 94 % 999,9 hPa 0,0 l/m 0,9 km/h (0 Bft) NW 319 9,8 C 3,1 km/h (1 Bft) 100 %
13.09.2017 06:12 10,7 C 94 % 999,9 hPa 0,0 l/m 1,3 km/h (1 Bft) NO 43 9,8 C 6,3 km/h (2 Bft) 100 %
13.09.2017 06:13 10,7 C 94 % 999,8 hPa 0,2 l/m 1,6 km/h (1 Bft) S-SW 194 9,8 C 3,1 km/h (1 Bft) 100 %
13.09.2017 06:14 10,7 C 94 % 999,8 hPa 0,0 l/m 0,0 km/h (0 Bft) NO 48 9,8 C 0,0 km/h (0 Bft) 100 %
13.09.2017 06:15 10,7 C 94 % 999,7 hPa 0,0 l/m 4,7 km/h (1 Bft) SW 230 9,8 C 9,4 km/h (2 Bft) 100 %
13.09.2017 06:16 10,7 C 94 % 999,7 hPa 0,0 l/m 3,7 km/h (1 Bft) O-SO 108 9,8 C 15,7 km/h (3 Bft) 100 %
13.09.2017 06:17 10,7 C 94 % 999,7 hPa 0,2 l/m 0,2 km/h (0 Bft) W-NW 289 9,8 C 3,1 km/h (1 Bft) 100 %
13.09.2017 06:18 10,7 C 94 % 999,7 hPa 0,0 l/m 1,7 km/h (1 Bft) NW 326 9,8 C 9,4 km/h (2 Bft) 100 %
13.09.2017 06:19 10,7 C 94 % 1000,0 hPa 0,0 l/m 2,6 km/h (1 Bft) NW 306 9,8 C 6,3 km/h (2 Bft) 100 %
13.09.2017 06:20 10,7 C 94 % 1000,0 hPa 0,0 l/m 6,1 km/h (2 Bft) W-SW 252 9,8 C 18,8 km/h (3 Bft) 100 %
13.09.2017 06:21 10,7 C 94 % 1000,0 hPa 0,2 l/m 1,2 km/h (1 Bft) N 356 9,8 C 6,3 km/h (2 Bft) 100 %
13.09.2017 06:22 10,7 C 94 % 999,9 hPa 0,0 l/m 1,3 km/h (1 Bft) SW 224 9,8 C 6,3 km/h (2 Bft) 100 %
13.09.2017 06:23 10,7 C 94 % 999,8 hPa 0,0 l/m 1,3 km/h (1 Bft) O-NO 75 9,8 C 3,1 km/h (1 Bft) 100 %
13.09.2017 06:24 10,7 C 94 % 999,8 hPa 0,0 l/m 3,1 km/h (1 Bft) N 9 9,8 C 6,3 km/h (2 Bft) 100 %
13.09.2017 06:25 10,7 C 94 % 999,8 hPa 0,0 l/m 5,5 km/h (1 Bft) O 97 9,8 C 18,8 km/h (3 Bft) 100 %
13.09.2017 06:26 10,7 C 94 % 999,7 hPa 0,0 l/m 3,9 km/h (1 Bft) SO 133 9,8 C 12,6 km/h (3 Bft) 100 %
13.09.2017 06:27 10,7 C 94 % 999,6 hPa 0,0 l/m 8,0 km/h (2 Bft) NO 37 9,8 C 18,8 km/h (3 Bft) 100 %
13.09.2017 06:28 10,7 C 94 % 999,6 hPa 0,0 l/m 2,7 km/h (1 Bft) O-NO 57 9,8 C 6,3 km/h (2 Bft) 100 %
13.09.2017 06:29 10,8 C 94 % 999,6 hPa 0,2 l/m 4,9 km/h (1 Bft) W-SW 254 9,9 C 12,6 km/h (3 Bft) 100 %
13.09.2017 06:30 10,8 C 94 % 999,6 hPa 0,0 l/m 0,4 km/h (0 Bft) W 260 9,9 C 3,1 km/h (1 Bft) 100 %
13.09.2017 06:31 10,8 C 94 % 999,4 hPa 0,0 l/m 7,9 km/h (2 Bft) N-NW 342 9,9 C 12,6 km/h (3 Bft) 100 %
13.09.2017 06:32 10,8 C 94 % 999,4 hPa 0,0 l/m 4,2 km/h (1 Bft) SO 146 9,9 C 15,7 km/h (3 Bft) 100 %
13.09.2017 06:33 10,8 C 94 % 999,4 hPa 0,0 l/m 4,1 km/h (1 Bft) S-SW 201 9,9 C 18,8 km/h (3 Bft) 100 %
13.09.2017 06:34 10,8 C 94 % 999,4 hPa 0,0 l/m 4,8 km/h (1 Bft) NO 47 9,9 C 12,6 km/h (3 Bft) 100 %
13.09.2017 06:35 10,8 C 94 % 999,3 hPa 0,0 l/m 7,8 km/h (2 Bft) S-SW 196 9,9 C 31,4 km/h (5 Bft) 100 %
13.09.2017 06:36 10,8 C 94 % 999,3 hPa 0,2 l/m 6,9 km/h (2 Bft) N 7 9,9 C 12,6 km/h (3 Bft) 100 %
13.09.2017 06:37 10,8 C 94 % 999,1 hPa 0,0 l/m 9,3 km/h (2 Bft) S-SW 198 9,9 C 18,8 km/h (3 Bft) 100 %
13.09.2017 06:38 10,8 C 94 % 999,1 hPa 0,0 l/m 7,6 km/h (2 Bft) NO 34 9,9 C 18,8 km/h (3 Bft) 100 %
13.09.2017 06:39 10,8 C 94 % 999,1 hPa 0,0 l/m 2,5 km/h (1 Bft) N-NO 27 9,9 C 3,1 km/h (1 Bft) 100 %
13.09.2017 06:40 10,8 C 94 % 999,0 hPa 0,0 l/m 4,3 km/h (1 Bft) W-SW 250 9,9 C 9,4 km/h (2 Bft) 100 %
13.09.2017 06:41 10,8 C 94 % 999,0 hPa 0,0 l/m 3,1 km/h (1 Bft) N-NW 346 9,9 C 6,3 km/h (2 Bft) 100 %
13.09.2017 06:42 10,8 C 94 % 998,9 hPa 0,0 l/m 16,2 km/h (3 Bft) W-NW 295 9,9 C 50,2 km/h (7 Bft) 100 %
13.09.2017 06:43 10,8 C 94 % 998,9 hPa 0,0 l/m 7,1 km/h (2 Bft) NW 321 9,9 C 15,7 km/h (3 Bft) 100 %
13.09.2017 06:44 10,8 C 94 % 998,8 hPa 0,0 l/m 0,7 km/h (0 Bft) N 4 9,9 C 3,1 km/h (1 Bft) 100 %
13.09.2017 06:45 10,8 C 94 % 998,9 hPa 0,0 l/m 11,8 km/h (2 Bft) SW 221 9,9 C 22,0 km/h (4 Bft) 92 %
13.09.2017 06:46 10,8 C 94 % 998,7 hPa 0,0 l/m 8,0 km/h (2 Bft) S-SO 152 9,9 C 18,8 km/h (3 Bft) 100 %
13.09.2017 06:47 10,8 C 94 % 998,7 hPa 0,0 l/m 4,3 km/h (1 Bft) O 86 9,9 C 18,8 km/h (3 Bft) 100 %
13.09.2017 06:48 10,8 C 94 % 998,7 hPa 0,0 l/m 12,1 km/h (2 Bft) SW 226 9,9 C 25,1 km/h (4 Bft) 100 %
13.09.2017 06:49 10,8 C 94 % 998,8 hPa 0,0 l/m 3,3 km/h (1 Bft) W 270 9,9 C 9,4 km/h (2 Bft) 100 %
13.09.2017 06:50 10,8 C 94 % 998,7 hPa 0,0 l/m 11,7 km/h (2 Bft) SW 224 9,9 C 18,8 km/h (3 Bft) 100 %
13.09.2017 06:51 10,8 C 94 % 998,7 hPa 0,0 l/m 8,6 km/h (2 Bft) NO 34 9,9 C 22,0 km/h (4 Bft) 100 %
13.09.2017 06:52 10,8 C 94 % 998,7 hPa 0,0 l/m 6,0 km/h (2 Bft) O 86 9,9 C 18,8 km/h (3 Bft) 100 %
13.09.2017 06:53 10,8 C 94 % 998,6 hPa 0,0 l/m 4,7 km/h (1 Bft) SW 220 9,9 C 9,4 km/h (2 Bft) 96 %
13.09.2017 06:54 10,8 C 94 % 998,6 hPa 0,0 l/m 7,8 km/h (2 Bft) S-SW 210 9,9 C 12,6 km/h (3 Bft) 99 %
13.09.2017 06:55 10,8 C 94 % 998,5 hPa 0,0 l/m 9,0 km/h (2 Bft) SW 215 9,9 C 34,5 km/h (5 Bft) 98 %
13.09.2017 06:56 10,8 C 94 % 998,5 hPa 0,0 l/m 12,0 km/h (2 Bft) SW 234 9,9 C 25,1 km/h (4 Bft) 96 %
13.09.2017 06:57 10,8 C 94 % 998,5 hPa 0,0 l/m 12,7 km/h (3 Bft) SW 222 9,9 C 37,7 km/h (5 Bft) 100 %
13.09.2017 06:58 10,8 C 94 % 998,4 hPa 0,0 l/m 12,4 km/h (3 Bft) W-SW 255 9,9 C 25,1 km/h (4 Bft) 96 %
13.09.2017 06:59 10,8 C 94 % 998,4 hPa 0,0 l/m 14,0 km/h (3 Bft) S-SW 204 9,9 C 34,5 km/h (5 Bft) 100 %
13.09.2017 07:00 10,8 C 94 % 998,5 hPa 0,0 l/m 5,5 km/h (1 Bft) S-SO 163 9,9 C 9,4 km/h (2 Bft) 93 %
13.09.2017 07:01 10,8 C 94 % 998,5 hPa 0,0 l/m 10,0 km/h (2 Bft) SW 235 9,9 C 22,0 km/h (4 Bft) 100 %
13.09.2017 07:02 10,8 C 94 % 998,5 hPa 0,0 l/m 12,9 km/h (3 Bft) SW 231 9,9 C 34,5 km/h (5 Bft) 96 %
13.09.2017 07:03 10,8 C 94 % 998,4 hPa 0,0 l/m 3,1 km/h (1 Bft) S-SW 210 9,9 C 9,4 km/h (2 Bft) 100 %
13.09.2017 07:04 10,8 C 94 % 998,5 hPa 0,0 l/m 20,0 km/h (4 Bft) O-NO 67 9,9 C 43,9 km/h (6 Bft) 96 %
13.09.2017 07:05 10,8 C 94 % 998,5 hPa 0,0 l/m 7,8 km/h (2 Bft) W-SW 243 9,9 C 18,8 km/h (3 Bft) 100 %
13.09.2017 07:06 10,8 C 94 % 998,6 hPa 0,0 l/m 15,4 km/h (3 Bft) NW 314 9,9 C 34,5 km/h (5 Bft) 100 %
13.09.2017 07:07 10,8 C 93 % 998,6 hPa 0,0 l/m 18,5 km/h (3 Bft) NW 307 9,7 C 34,5 km/h (5 Bft) 100 %
13.09.2017 07:08 10,9 C 93 % 998,3 hPa 0,0 l/m 6,3 km/h (2 Bft) O-SO 121 9,8 C 12,6 km/h (3 Bft) 100 %
13.09.2017 07:09 10,9 C 93 % 998,4 hPa 0,0 l/m 13,2 km/h (3 Bft) N-NW 329 9,8 C 25,1 km/h (4 Bft) 100 %
13.09.2017 07:10 10,9 C 93 % 998,3 hPa 0,0 l/m 9,1 km/h (2 Bft) O-NO 73 9,8 C 15,7 km/h (3 Bft) 100 %
13.09.2017 07:11 10,9 C 93 % 998,3 hPa 0,0 l/m 8,7 km/h (2 Bft) W-SW 246 9,8 C 28,2 km/h (4 Bft) 100 %
13.09.2017 07:12 10,9 C 93 % 998,3 hPa 0,0 l/m 11,1 km/h (2 Bft) W 274 9,8 C 34,5 km/h (5 Bft) 100 %
13.09.2017 07:13 10,9 C 93 % 998,3 hPa 0,0 l/m 6,8 km/h (2 Bft) SW 226 9,8 C 15,7 km/h (3 Bft) 100 %
13.09.2017 07:14 10,9 C 93 % 998,3 hPa 0,0 l/m 16,5 km/h (3 Bft) W 270 9,8 C 25,1 km/h (4 Bft) 100 %
13.09.2017 07:15 10,9 C 93 % 998,2 hPa 0,0 l/m 3,0 km/h (1 Bft) NO 56 9,8 C 12,6 km/h (3 Bft) 100 %
13.09.2017 07:16 10,9 C 93 % 998,2 hPa 0,0 l/m 10,9 km/h (2 Bft) SW 219 9,8 C 28,2 km/h (4 Bft) 100 %
13.09.2017 07:17 10,9 C 93 % 998,2 hPa 0,0 l/m 20,2 km/h (4 Bft) W-SW 245 9,8 C 50,2 km/h (7 Bft) 100 %
13.09.2017 07:18 10,9 C 93 % 998,1 hPa 0,0 l/m 13,5 km/h (3 Bft) NO 46 9,8 C 31,4 km/h (5 Bft) 100 %
13.09.2017 07:19 10,9 C 93 % 998,1 hPa 0,0 l/m 7,4 km/h (2 Bft) W-SW 246 9,8 C 15,7 km/h (3 Bft) 100 %
13.09.2017 07:20 10,9 C 93 % 998,1 hPa 0,0 l/m 17,4 km/h (3 Bft) NW 315 9,8 C 47,1 km/h (6 Bft) 100 %
13.09.2017 07:21 10,9 C 93 % 998,1 hPa 0,0 l/m 15,3 km/h (3 Bft) S-SW 205 9,8 C 40,8 km/h (6 Bft) 100 %
13.09.2017 07:22 10,9 C 93 % 998,1 hPa 0,0 l/m 6,3 km/h (2 Bft) O-SO 119 9,8 C 18,8 km/h (3 Bft) 100 %
13.09.2017 07:23 10,9 C 93 % 998,1 hPa 0,0 l/m 7,6 km/h (2 Bft) W-NW 292 9,8 C 22,0 km/h (4 Bft) 100 %
13.09.2017 07:24 10,9 C 93 % 998,0 hPa 0,0 l/m 14,0 km/h (3 Bft) N 8 9,8 C 37,7 km/h (5 Bft) 100 %
13.09.2017 07:25 10,9 C 93 % 998,0 hPa 0,0 l/m 12,1 km/h (2 Bft) S 186 9,8 C 25,1 km/h (4 Bft) 100 %
13.09.2017 07:26 10,8 C 93 % 998,1 hPa 0,0 l/m 10,7 km/h (2 Bft) N-NO 25 9,7 C 18,8 km/h (3 Bft) 100 %
13.09.2017 07:27 10,9 C 93 % 998,1 hPa 0,0 l/m 12,7 km/h (3 Bft) W-SW 242 9,8 C 28,2 km/h (4 Bft) 100 %
13.09.2017 07:28 10,8 C 93 % 998,1 hPa 0,0 l/m 14,7 km/h (3 Bft) W 262 9,7 C 22,0 km/h (4 Bft) 100 %
13.09.2017 07:29 10,8 C 93 % 998,2 hPa 0,0 l/m 10,5 km/h (2 Bft) NO 37 9,7 C 28,2 km/h (4 Bft) 100 %
13.09.2017 07:30 10,9 C 93 % 998,1 hPa 0,0 l/m 12,1 km/h (2 Bft) O-NO 70 9,8 C 31,4 km/h (5 Bft) 100 %
13.09.2017 07:31 10,9 C 93 % 998,1 hPa 0,0 l/m 9,8 km/h (2 Bft) W-NW 300 9,8 C 25,1 km/h (4 Bft) 100 %
13.09.2017 07:32 10,9 C 93 % 998,3 hPa 0,0 l/m 9,3 km/h (2 Bft) S-SW 199 9,8 C 25,1 km/h (4 Bft) 100 %
13.09.2017 07:33 10,9 C 93 % 998,3 hPa 0,0 l/m 19,3 km/h (3 Bft) SW 233 9,8 C 37,7 km/h (5 Bft) 100 %
13.09.2017 07:34 10,9 C 93 % 998,1 hPa 0,0 l/m 17,7 km/h (3 Bft) N-NW 337 9,8 C 40,8 km/h (6 Bft) 100 %
13.09.2017 07:35 10,9 C 93 % 998,0 hPa 0,0 l/m 10,5 km/h (2 Bft) W-SW 251 9,8 C 18,8 km/h (3 Bft) 100 %
13.09.2017 07:36 10,9 C 93 % 998,0 hPa 0,0 l/m 16,7 km/h (3 Bft) SW 228 9,8 C 31,4 km/h (5 Bft) 100 %
13.09.2017 07:37 10,9 C 93 % 998,0 hPa 0,0 l/m 16,2 km/h (3 Bft) S-SW 213 9,8 C 37,7 km/h (5 Bft) 100 %
13.09.2017 07:38 10,9 C 93 % 998,0 hPa 0,0 l/m 11,9 km/h (2 Bft) N-NO 33 9,8 C 40,8 km/h (6 Bft) 100 %
13.09.2017 07:39 10,9 C 93 % 998,0 hPa 0,0 l/m 15,0 km/h (3 Bft) S 176 9,8 C 43,9 km/h (6 Bft) 100 %
13.09.2017 07:40 11,0 C 93 % 998,1 hPa 0,0 l/m 11,9 km/h (2 Bft) S 182 9,9 C 34,5 km/h (5 Bft) 100 %
13.09.2017 07:41 11,0 C 93 % 997,8 hPa 0,0 l/m 17,3 km/h (3 Bft) SW 229 9,9 C 53,3 km/h (7 Bft) 100 %
13.09.2017 07:42 11,0 C 92 % 997,9 hPa 0,0 l/m 10,8 km/h (2 Bft) NW 305 9,8 C 28,2 km/h (4 Bft) 100 %
13.09.2017 07:43 11,0 C 92 % 997,9 hPa 0,0 l/m 13,8 km/h (3 Bft) SW 233 9,8 C 28,2 km/h (4 Bft) 100 %
13.09.2017 07:44 11,0 C 92 % 998,0 hPa 0,0 l/m 10,2 km/h (2 Bft) S-SO 148 9,8 C 25,1 km/h (4 Bft) 100 %
13.09.2017 07:45 11,0 C 93 % 998,0 hPa 0,0 l/m 6,7 km/h (2 Bft) O 99 9,9 C 18,8 km/h (3 Bft) 100 %
13.09.2017 07:46 11,0 C 93 % 997,9 hPa 0,0 l/m 12,6 km/h (3 Bft) W-SW 256 9,9 C 34,5 km/h (5 Bft) 100 %
13.09.2017 07:47 11,0 C 93 % 997,9 hPa 0,0 l/m 9,0 km/h (2 Bft) O 89 9,9 C 25,1 km/h (4 Bft) 100 %
13.09.2017 07:48 11,1 C 93 % 997,9 hPa 0,0 l/m 14,9 km/h (3 Bft) W-NW 293 10,0 C 40,8 km/h (6 Bft) 100 %
13.09.2017 07:49 11,1 C 92 % 997,9 hPa 0,0 l/m 13,7 km/h (3 Bft) S-SW 196 9,8 C 37,7 km/h (5 Bft) 100 %
13.09.2017 07:50 11,1 C 92 % 997,9 hPa 0,0 l/m 13,4 km/h (3 Bft) SW 231 9,8 C 31,4 km/h (5 Bft) 100 %
13.09.2017 07:51 11,1 C 92 % 997,9 hPa 0,0 l/m 14,8 km/h (3 Bft) N-NW 342 9,8 C 25,1 km/h (4 Bft) 100 %
13.09.2017 07:52 11,1 C 92 % 997,7 hPa 0,0 l/m 8,0 km/h (2 Bft) N-NO 28 9,8 C 22,0 km/h (4 Bft) 100 %
13.09.2017 07:53 11,1 C 92 % 997,9 hPa 0,0 l/m 9,6 km/h (2 Bft) O 101 9,8 C 28,2 km/h (4 Bft) 100 %
13.09.2017 07:54 11,1 C 92 % 997,9 hPa 0,0 l/m 15,4 km/h (3 Bft) NW 325 9,8 C 40,8 km/h (6 Bft) 100 %
13.09.2017 07:55 11,1 C 92 % 997,9 hPa 0,0 l/m 9,1 km/h (2 Bft) N-NW 341 9,8 C 28,2 km/h (4 Bft) 100 %
13.09.2017 07:56 11,1 C 93 % 997,9 hPa 0,0 l/m 7,2 km/h (2 Bft) W-NW 291 10,0 C 22,0 km/h (4 Bft) 100 %
13.09.2017 07:57 11,1 C 92 % 997,9 hPa 0,0 l/m 10,4 km/h (2 Bft) N-NW 334 9,8 C 18,8 km/h (3 Bft) 100 %
13.09.2017 07:58 11,1 C 93 % 997,8 hPa 0,0 l/m 10,4 km/h (2 Bft) N-NO 33 10,0 C 25,1 km/h (4 Bft) 100 %
13.09.2017 07:59 11,1 C 93 % 997,8 hPa 0,0 l/m 19,8 km/h (3 Bft) W-SW 256 10,0 C 31,4 km/h (5 Bft) 100 %
13.09.2017 08:00 11,1 C 93 % 997,8 hPa 0,0 l/m 11,6 km/h (2 Bft) W 269 10,0 C 28,2 km/h (4 Bft) 100 %
13.09.2017 08:01 11,1 C 93 % 997,8 hPa 0,0 l/m 6,3 km/h (2 Bft) S 186 10,0 C 18,8 km/h (3 Bft) 100 %
13.09.2017 08:02 11,1 C 93 % 997,7 hPa 0,0 l/m 13,7 km/h (3 Bft) SW 233 10,0 C 25,1 km/h (4 Bft) 100 %
13.09.2017 08:03 11,1 C 93 % 997,7 hPa 0,0 l/m 12,0 km/h (2 Bft) W-SW 242 10,0 C 34,5 km/h (5 Bft) 100 %
13.09.2017 08:04 11,1 C 93 % 997,8 hPa 0,0 l/m 9,2 km/h (2 Bft) W-SW 243 10,0 C 25,1 km/h (4 Bft) 100 %
13.09.2017 08:05 11,1 C 93 % 997,7 hPa 0,0 l/m 7,1 km/h (2 Bft) SW 224 10,0 C 15,7 km/h (3 Bft) 96 %
13.09.2017 08:06 11,1 C 93 % 997,7 hPa 0,0 l/m 12,7 km/h (3 Bft) O-SO 115 10,0 C 25,1 km/h (4 Bft) 96 %
13.09.2017 08:07 11,1 C 93 % 997,7 hPa 0,0 l/m 13,9 km/h (3 Bft) W-SW 255 10,0 C 28,2 km/h (4 Bft) 100 %
13.09.2017 08:08 11,1 C 93 % 997,7 hPa 0,0 l/m 14,4 km/h (3 Bft) N-NW 338 10,0 C 34,5 km/h (5 Bft) 100 %
13.09.2017 08:09 11,1 C 93 % 997,7 hPa 0,0 l/m 11,8 km/h (2 Bft) SW 231 10,0 C 18,8 km/h (3 Bft) 100 %
13.09.2017 08:10 11,1 C 94 % 997,6 hPa 0,2 l/m 11,9 km/h (2 Bft) S 182 10,2 C 22,0 km/h (4 Bft) 96 %
13.09.2017 08:11 11,1 C 94 % 997,6 hPa 0,0 l/m 20,6 km/h (4 Bft) W 264 10,2 C 34,5 km/h (5 Bft) 100 %
13.09.2017 08:12 11,1 C 94 % 997,5 hPa 0,0 l/m 20,6 km/h (4 Bft) NO 37 10,2 C 53,3 km/h (7 Bft) 93 %
13.09.2017 08:13 11,0 C 94 % 997,7 hPa 0,0 l/m 13,7 km/h (3 Bft) W 279 10,1 C 22,0 km/h (4 Bft) 100 %
13.09.2017 08:14 11,0 C 94 % 997,7 hPa 0,0 l/m 19,9 km/h (4 Bft) SW 230 10,1 C 40,8 km/h (6 Bft) 96 %
13.09.2017 08:15 11,0 C 94 % 997,9 hPa 0,0 l/m 19,2 km/h (3 Bft) W 262 10,1 C 31,4 km/h (5 Bft) 96 %
13.09.2017 08:16 11,0 C 94 % 997,6 hPa 0,0 l/m 15,5 km/h (3 Bft) N 360 10,1 C 31,4 km/h (5 Bft) 100 %
13.09.2017 08:17 11,0 C 94 % 997,7 hPa 0,0 l/m 8,8 km/h (2 Bft) W-NW 284 10,1 C 18,8 km/h (3 Bft) 96 %
13.09.2017 08:18 11,0 C 94 % 997,6 hPa 0,2 l/m 8,2 km/h (2 Bft) W 273 10,1 C 12,6 km/h (3 Bft) 100 %
13.09.2017 08:19 11,0 C 94 % 997,6 hPa 0,0 l/m 12,4 km/h (3 Bft) W 278 10,1 C 31,4 km/h (5 Bft) 96 %
13.09.2017 08:20 11,0 C 94 % 997,7 hPa 0,0 l/m 13,7 km/h (3 Bft) SW 221 10,1 C 37,7 km/h (5 Bft) 100 %
13.09.2017 08:21 11,0 C 95 % 997,6 hPa 0,0 l/m 5,7 km/h (1 Bft) W-SW 244 10,2 C 15,7 km/h (3 Bft) 96 %
13.09.2017 08:22 11,0 C 95 % 997,5 hPa 0,0 l/m 11,0 km/h (2 Bft) N 2 10,2 C 22,0 km/h (4 Bft) 96 %
13.09.2017 08:23 11,0 C 95 % 997,5 hPa 0,0 l/m 5,0 km/h (1 Bft) SW 227 10,2 C 18,8 km/h (3 Bft) 100 %
13.09.2017 08:24 11,0 C 95 % 997,5 hPa 0,0 l/m 7,8 km/h (2 Bft) W-NW 302 10,2 C 18,8 km/h (3 Bft) 100 %
13.09.2017 08:25 11,0 C 95 % 997,5 hPa 0,0 l/m 7,4 km/h (2 Bft) SO 124 10,2 C 31,4 km/h (5 Bft) 100 %
13.09.2017 08:26 11,0 C 95 % 997,5 hPa 0,0 l/m 9,9 km/h (2 Bft) NW 325 10,2 C 18,8 km/h (3 Bft) 100 %
13.09.2017 08:27 11,0 C 95 % 997,4 hPa 0,0 l/m 5,2 km/h (1 Bft) S 184 10,2 C 9,4 km/h (2 Bft) 100 %
13.09.2017 08:28 11,0 C 95 % 997,4 hPa 0,0 l/m 13,2 km/h (3 Bft) O-SO 117 10,2 C 25,1 km/h (4 Bft) 100 %
13.09.2017 08:29 11,0 C 95 % 997,4 hPa 0,0 l/m 16,1 km/h (3 Bft) SW 217 10,2 C 31,4 km/h (5 Bft) 100 %
13.09.2017 08:30 11,0 C 95 % 997,4 hPa 0,0 l/m 6,3 km/h (2 Bft) S-SW 209 10,2 C 18,8 km/h (3 Bft) 100 %
13.09.2017 08:31 11,0 C 95 % 997,3 hPa 0,0 l/m 7,5 km/h (2 Bft) N-NO 12 10,2 C 15,7 km/h (3 Bft) 100 %
13.09.2017 08:32 11,1 C 95 % 997,4 hPa 0,0 l/m 8,0 km/h (2 Bft) W-SW 244 10,3 C 18,8 km/h (3 Bft) 100 %
13.09.2017 08:33 11,1 C 95 % 997,4 hPa 0,0 l/m 9,4 km/h (2 Bft) W-NW 298 10,3 C 22,0 km/h (4 Bft) 100 %
13.09.2017 08:34 11,1 C 95 % 997,4 hPa 0,0 l/m 12,6 km/h (3 Bft) W 274 10,3 C 28,2 km/h (4 Bft) 100 %
13.09.2017 08:35 11,1 C 95 % 997,4 hPa 0,0 l/m 16,6 km/h (3 Bft) O-NO 63 10,3 C 40,8 km/h (6 Bft) 100 %
13.09.2017 08:36 11,1 C 95 % 997,4 hPa 0,0 l/m 8,3 km/h (2 Bft) S-SW 203 10,3 C 37,7 km/h (5 Bft) 100 %
13.09.2017 08:37 11,1 C 95 % 997,4 hPa 0,0 l/m 3,5 km/h (1 Bft) S-SO 150 10,3 C 6,3 km/h (2 Bft) 100 %
13.09.2017 08:38 11,1 C 95 % 997,4 hPa 0,0 l/m 2,0 km/h (1 Bft) N-NW 339 10,3 C 6,3 km/h (2 Bft) 100 %
13.09.2017 08:39 11,1 C 95 % 997,4 hPa 0,0 l/m 6,9 km/h (2 Bft) NO 46 10,3 C 15,7 km/h (3 Bft) 100 %
13.09.2017 08:40 11,2 C 95 % 997,3 hPa 0,0 l/m 9,4 km/h (2 Bft) W-NW 289 10,4 C 22,0 km/h (4 Bft) 100 %
13.09.2017 08:41 11,2 C 95 % 997,3 hPa 0,0 l/m 14,3 km/h (3 Bft) W-NW 288 10,4 C 34,5 km/h (5 Bft) 100 %
13.09.2017 08:42 11,2 C 95 % 997,3 hPa 0,0 l/m 7,5 km/h (2 Bft) SW 224 10,4 C 34,5 km/h (5 Bft) 100 %
13.09.2017 08:43 11,2 C 95 % 997,2 hPa 0,0 l/m 15,1 km/h (3 Bft) S-SW 195 10,4 C 31,4 km/h (5 Bft) 100 %
13.09.2017 08:44 11,2 C 95 % 997,3 hPa 0,0 l/m 8,2 km/h (2 Bft) S-SW 198 10,4 C 18,8 km/h (3 Bft) 100 %
13.09.2017 08:45 11,2 C 95 % 997,2 hPa 0,0 l/m 14,8 km/h (3 Bft) SW 230 10,4 C 28,2 km/h (4 Bft) 100 %
13.09.2017 08:46 11,3 C 95 % 997,2 hPa 0,0 l/m 12,1 km/h (2 Bft) SO 125 10,5 C 28,2 km/h (4 Bft) 100 %
13.09.2017 08:47 11,3 C 95 % 997,3 hPa 0,0 l/m 8,5 km/h (2 Bft) W-SW 242 10,5 C 15,7 km/h (3 Bft) 100 %
13.09.2017 08:48 11,3 C 95 % 997,3 hPa 0,0 l/m 14,3 km/h (3 Bft) NO 51 10,5 C 37,7 km/h (5 Bft) 100 %
13.09.2017 08:49 11,3 C 95 % 997,1 hPa 0,0 l/m 21,0 km/h (4 Bft) N 4 10,5 C 43,9 km/h (6 Bft) 100 %
13.09.2017 08:50 11,4 C 95 % 997,2 hPa 0,0 l/m 14,4 km/h (3 Bft) O 96 10,6 C 28,2 km/h (4 Bft) 100 %
13.09.2017 08:51 11,4 C 95 % 997,2 hPa 0,0 l/m 12,6 km/h (3 Bft) SW 231 10,6 C 37,7 km/h (5 Bft) 100 %
13.09.2017 08:52 11,5 C 95 % 997,3 hPa 0,0 l/m 15,7 km/h (3 Bft) S 174 10,7 C 34,5 km/h (5 Bft) 100 %
13.09.2017 08:53 11,5 C 94 % 997,3 hPa 0,0 l/m 13,2 km/h (3 Bft) N-NO 23 10,6 C 25,1 km/h (4 Bft) 100 %
13.09.2017 08:54 11,6 C 94 % 997,3 hPa 0,0 l/m 8,1 km/h (2 Bft) W 266 10,7 C 15,7 km/h (3 Bft) 100 %
13.09.2017 08:55 11,6 C 94 % 997,3 hPa 0,0 l/m 4,6 km/h (1 Bft) W-SW 238 10,7 C 18,8 km/h (3 Bft) 100 %
13.09.2017 08:56 11,6 C 94 % 997,1 hPa 0,0 l/m 8,0 km/h (2 Bft) O-NO 74 10,7 C 25,1 km/h (4 Bft) 100 %
13.09.2017 08:57 11,6 C 94 % 997,2 hPa 0,0 l/m 9,9 km/h (2 Bft) O 79 10,7 C 25,1 km/h (4 Bft) 100 %
13.09.2017 08:58 11,6 C 94 % 997,2 hPa 0,0 l/m 16,6 km/h (3 Bft) NW 321 10,7 C 34,5 km/h (5 Bft) 100 %
13.09.2017 08:59 11,6 C 94 % 997,2 hPa 0,0 l/m 4,4 km/h (1 Bft) W 279 10,7 C 6,3 km/h (2 Bft) 100 %
13.09.2017 09:00 11,6 C 94 % 997,1 hPa 0,0 l/m 6,6 km/h (2 Bft) SW 229 10,7 C 18,8 km/h (3 Bft) 100 %
13.09.2017 09:01 11,7 C 94 % 997,0 hPa 0,0 l/m 9,7 km/h (2 Bft) W-NW 298 10,8 C 25,1 km/h (4 Bft) 100 %
13.09.2017 09:02 11,7 C 94 % 997,0 hPa 0,0 l/m 12,2 km/h (2 Bft) O 91 10,8 C 28,2 km/h (4 Bft) 100 %
13.09.2017 09:03 11,7 C 94 % 996,9 hPa 0,0 l/m 5,5 km/h (1 Bft) O-NO 75 10,8 C 12,6 km/h (3 Bft) 100 %
13.09.2017 09:04 11,8 C 94 % 996,9 hPa 0,0 l/m 13,6 km/h (3 Bft) N-NO 32 10,9 C 25,1 km/h (4 Bft) 100 %
13.09.2017 09:05 11,8 C 94 % 997,0 hPa 0,0 l/m 5,9 km/h (2 Bft) W-NW 288 10,9 C 18,8 km/h (3 Bft) 100 %
13.09.2017 09:06 11,8 C 94 % 997,0 hPa 0,0 l/m 3,3 km/h (1 Bft) SW 218 10,9 C 9,4 km/h (2 Bft) 100 %
13.09.2017 09:07 11,9 C 94 % 997,1 hPa 0,0 l/m 9,0 km/h (2 Bft) S-SO 161 11,0 C 25,1 km/h (4 Bft) 100 %
13.09.2017 09:08 11,9 C 94 % 997,1 hPa 0,0 l/m 4,1 km/h (1 Bft) S-SW 210 11,0 C 9,4 km/h (2 Bft) 100 %
13.09.2017 09:09 12,0 C 94 % 997,3 hPa 0,0 l/m 1,2 km/h (1 Bft) W 264 11,1 C 9,4 km/h (2 Bft) 100 %
13.09.2017 09:10 12,0 C 94 % 997,1 hPa 0,0 l/m 6,7 km/h (2 Bft) W-NW 300 11,1 C 15,7 km/h (3 Bft) 100 %
13.09.2017 09:11 12,0 C 94 % 997,2 hPa 0,0 l/m 9,1 km/h (2 Bft) SW 231 11,1 C 25,1 km/h (4 Bft) 100 %
13.09.2017 09:12 12,0 C 93 % 997,1 hPa 0,0 l/m 16,6 km/h (3 Bft) SW 218 10,9 C 31,4 km/h (5 Bft) 100 %
13.09.2017 09:13 12,0 C 93 % 997,1 hPa 0,0 l/m 8,3 km/h (2 Bft) W 267 10,9 C 28,2 km/h (4 Bft) 100 %
13.09.2017 09:14 12,0 C 93 % 997,0 hPa 0,0 l/m 17,5 km/h (3 Bft) N-NW 340 10,9 C 31,4 km/h (5 Bft) 100 %
13.09.2017 09:15 12,0 C 93 % 997,1 hPa 0,0 l/m 15,5 km/h (3 Bft) W 272 10,9 C 31,4 km/h (5 Bft) 100 %
13.09.2017 09:16 12,0 C 93 % 997,1 hPa 0,0 l/m 9,7 km/h (2 Bft) SW 227 10,9 C 37,7 km/h (5 Bft) 100 %
13.09.2017 09:17 12,0 C 93 % 997,1 hPa 0,0 l/m 16,3 km/h (3 Bft) W-NW 285 10,9 C 43,9 km/h (6 Bft) 100 %
13.09.2017 09:18 12,0 C 93 % 997,0 hPa 0,0 l/m 9,0 km/h (2 Bft) W 271 10,9 C 18,8 km/h (3 Bft) 100 %
13.09.2017 09:19 12,1 C 93 % 997,0 hPa 0,0 l/m 11,6 km/h (2 Bft) NW 318 11,0 C 22,0 km/h (4 Bft) 100 %
13.09.2017 09:20 12,1 C 93 % 997,4 hPa 0,0 l/m 6,7 km/h (2 Bft) S-SW 208 11,0 C 22,0 km/h (4 Bft) 100 %
13.09.2017 09:21 12,1 C 93 % 997,4 hPa 0,0 l/m 19,2 km/h (3 Bft) W-SW 255 11,0 C 34,5 km/h (5 Bft) 100 %
13.09.2017 09:22 12,1 C 93 % 997,1 hPa 0,0 l/m 12,8 km/h (3 Bft) W-NW 302 11,0 C 37,7 km/h (5 Bft) 100 %
13.09.2017 09:23 12,2 C 93 % 997,1 hPa 0,0 l/m 4,1 km/h (1 Bft) SW 233 11,1 C 12,6 km/h (3 Bft) 92 %
13.09.2017 09:24 12,2 C 93 % 997,0 hPa 0,0 l/m 7,5 km/h (2 Bft) NW 315 11,1 C 15,7 km/h (3 Bft) 100 %
13.09.2017 09:25 12,2 C 93 % 997,0 hPa 0,0 l/m 5,0 km/h (1 Bft) N 352 11,1 C 18,8 km/h (3 Bft) 96 %
13.09.2017 09:26 12,2 C 93 % 997,0 hPa 0,0 l/m 8,8 km/h (2 Bft) N 7 11,1 C 15,7 km/h (3 Bft) 100 %
13.09.2017 09:27 12,2 C 93 % 997,0 hPa 0,0 l/m 16,3 km/h (3 Bft) N-NO 32 11,1 C 34,5 km/h (5 Bft) 96 %
13.09.2017 09:28 12,2 C 93 % 996,9 hPa 0,0 l/m 4,4 km/h (1 Bft) W-SW 238 11,1 C 15,7 km/h (3 Bft) 100 %
13.09.2017 09:29 12,2 C 93 % 997,0 hPa 0,0 l/m 12,1 km/h (2 Bft) W-SW 245 11,1 C 34,5 km/h (5 Bft) 96 %
13.09.2017 09:30 12,2 C 93 % 997,0 hPa 0,0 l/m 14,8 km/h (3 Bft) W-SW 249 11,1 C 31,4 km/h (5 Bft) 96 %
13.09.2017 09:40 12,4 C 93 % 997,0 hPa 0,0 l/m 9,4 km/h (2 Bft) NW 324 11,3 C 18,8 km/h (3 Bft) 100 %
13.09.2017 09:42 12,4 C 93 % 997,0 hPa 0,0 l/m 11,3 km/h (2 Bft) S-SW 205 11,3 C 31,4 km/h (5 Bft) 100 %
13.09.2017 09:43 12,5 C 93 % 997,1 hPa 0,0 l/m 5,9 km/h (2 Bft) SW 231 11,4 C 18,8 km/h (3 Bft) 100 %
13.09.2017 09:44 12,6 C 93 % 997,0 hPa 0,0 l/m 14,5 km/h (3 Bft) S 184 11,5 C 31,4 km/h (5 Bft) 100 %
13.09.2017 09:45 12,6 C 92 % 997,0 hPa 0,0 l/m 17,2 km/h (3 Bft) NW 319 11,3 C 43,9 km/h (6 Bft) 100 %
13.09.2017 09:46 12,6 C 92 % 997,1 hPa 0,0 l/m 16,4 km/h (3 Bft) NW 309 11,3 C 22,0 km/h (4 Bft) 100 %
13.09.2017 09:47 12,6 C 92 % 997,1 hPa 0,0 l/m 13,2 km/h (3 Bft) S-SW 202 11,3 C 25,1 km/h (4 Bft) 100 %
13.09.2017 09:48 12,6 C 92 % 997,0 hPa 0,0 l/m 12,6 km/h (3 Bft) N-NO 31 11,3 C 37,7 km/h (5 Bft) 100 %
13.09.2017 09:49 12,6 C 92 % 997,1 hPa 0,0 l/m 7,8 km/h (2 Bft) NW 326 11,3 C 12,6 km/h (3 Bft) 100 %
13.09.2017 09:50 12,6 C 92 % 997,1 hPa 0,0 l/m 8,6 km/h (2 Bft) NW 304 11,3 C 15,7 km/h (3 Bft) 100 %
13.09.2017 09:51 12,6 C 92 % 997,4 hPa 0,0 l/m 13,9 km/h (3 Bft) W-NW 296 11,3 C 37,7 km/h (5 Bft) 100 %
13.09.2017 09:52 12,6 C 92 % 997,3 hPa 0,0 l/m 14,8 km/h (3 Bft) O-NO 64 11,3 C 28,2 km/h (4 Bft) 100 %
13.09.2017 09:53 12,6 C 92 % 997,2 hPa 0,0 l/m 3,8 km/h (1 Bft) W 262 11,3 C 9,4 km/h (2 Bft) 100 %
13.09.2017 09:54 12,7 C 92 % 997,2 hPa 0,0 l/m 10,6 km/h (2 Bft) SW 216 11,4 C 22,0 km/h (4 Bft) 100 %
13.09.2017 09:55 12,7 C 92 % 997,3 hPa 0,0 l/m 9,9 km/h (2 Bft) NW 311 11,4 C 18,8 km/h (3 Bft) 100 %
13.09.2017 09:56 12,7 C 93 % 997,3 hPa 0,0 l/m 12,0 km/h (2 Bft) W-SW 257 11,6 C 22,0 km/h (4 Bft) 100 %
13.09.2017 09:57 12,7 C 93 % 997,3 hPa 0,0 l/m 19,8 km/h (3 Bft) W 267 11,6 C 37,7 km/h (5 Bft) 100 %
13.09.2017 09:58 12,7 C 93 % 997,6 hPa 0,0 l/m 11,6 km/h (2 Bft) W-NW 300 11,6 C 22,0 km/h (4 Bft) 100 %
13.09.2017 09:59 12,7 C 93 % 997,4 hPa 0,2 l/m 12,1 km/h (2 Bft) NW 325 11,6 C 22,0 km/h (4 Bft) 100 %
13.09.2017 10:00 12,6 C 93 % 997,4 hPa 0,0 l/m 11,4 km/h (2 Bft) N 350 11,5 C 18,8 km/h (3 Bft) 100 %
13.09.2017 10:01 12,6 C 93 % 997,3 hPa 0,0 l/m 8,4 km/h (2 Bft) SW 214 11,5 C 15,7 km/h (3 Bft) 100 %
13.09.2017 10:02 12,6 C 94 % 997,2 hPa 0,0 l/m 7,1 km/h (2 Bft) S 182 11,7 C 12,6 km/h (3 Bft) 100 %
13.09.2017 10:03 12,6 C 94 % 997,2 hPa 0,0 l/m 16,3 km/h (3 Bft) S-SW 198 11,7 C 34,5 km/h (5 Bft) 100 %
13.09.2017 10:04 12,6 C 94 % 997,3 hPa 0,0 l/m 14,4 km/h (3 Bft) SW 229 11,7 C 31,4 km/h (5 Bft) 100 %
13.09.2017 10:05 12,6 C 94 % 997,3 hPa 0,0 l/m 12,6 km/h (3 Bft) SW 236 11,7 C 25,1 km/h (4 Bft) 100 %
13.09.2017 10:06 12,7 C 95 % 997,2 hPa 0,0 l/m 7,3 km/h (2 Bft) W-SW 238 11,9 C 25,1 km/h (4 Bft) 100 %
13.09.2017 10:07 12,7 C 95 % 997,0 hPa 0,0 l/m 10,9 km/h (2 Bft) SW 233 11,9 C 15,7 km/h (3 Bft) 100 %
13.09.2017 10:08 12,7 C 95 % 997,2 hPa 0,0 l/m 12,4 km/h (3 Bft) W 264 11,9 C 25,1 km/h (4 Bft) 100 %
13.09.2017 10:09 12,7 C 94 % 997,0 hPa 0,0 l/m 17,7 km/h (3 Bft) SO 125 11,8 C 37,7 km/h (5 Bft) 100 %
13.09.2017 10:10 12,7 C 94 % 996,9 hPa 0,0 l/m 11,4 km/h (2 Bft) W 269 11,8 C 25,1 km/h (4 Bft) 100 %
13.09.2017 10:11 12,7 C 94 % 997,0 hPa 0,0 l/m 5,2 km/h (1 Bft) W 263 11,8 C 9,4 km/h (2 Bft) 100 %
13.09.2017 10:12 12,8 C 95 % 997,0 hPa 0,0 l/m 15,6 km/h (3 Bft) W 278 12,0 C 34,5 km/h (5 Bft) 100 %
13.09.2017 10:13 12,8 C 95 % 996,9 hPa 0,0 l/m 11,1 km/h (2 Bft) SW 214 12,0 C 22,0 km/h (4 Bft) 100 %
13.09.2017 10:14 12,8 C 94 % 996,9 hPa 0,0 l/m 13,0 km/h (3 Bft) W-SW 238 11,9 C 18,8 km/h (3 Bft) 100 %
13.09.2017 10:15 12,9 C 94 % 996,9 hPa 0,0 l/m 8,4 km/h (2 Bft) S 184 12,0 C 15,7 km/h (3 Bft) 100 %
13.09.2017 10:16 12,9 C 95 % 997,0 hPa 0,0 l/m 10,4 km/h (2 Bft) W-SW 238 12,1 C 22,0 km/h (4 Bft) 100 %
13.09.2017 10:17 12,9 C 95 % 996,9 hPa 0,0 l/m 8,3 km/h (2 Bft) N 350 12,1 C 22,0 km/h (4 Bft) 100 %
13.09.2017 10:18 13,0 C 95 % 996,8 hPa 0,0 l/m 10,2 km/h (2 Bft) SW 231 12,2 C 22,0 km/h (4 Bft) 100 %
13.09.2017 10:19 13,1 C 94 % 997,0 hPa 0,0 l/m 15,2 km/h (3 Bft) NW 316 12,2 C 31,4 km/h (5 Bft) 100 %
13.09.2017 10:20 13,2 C 94 % 997,0 hPa 0,0 l/m 12,6 km/h (3 Bft) SW 214 12,3 C 18,8 km/h (3 Bft) 100 %
13.09.2017 10:21 13,2 C 94 % 996,9 hPa 0,0 l/m 22,3 km/h (4 Bft) W-SW 250 12,3 C 50,2 km/h (7 Bft) 100 %
13.09.2017 10:22 13,3 C 93 % 996,9 hPa 0,0 l/m 11,4 km/h (2 Bft) SW 236 12,2 C 22,0 km/h (4 Bft) 100 %
13.09.2017 10:23 13,4 C 93 % 996,9 hPa 0,0 l/m 9,5 km/h (2 Bft) W-NW 292 12,3 C 28,2 km/h (4 Bft) 100 %
13.09.2017 10:24 13,4 C 93 % 996,9 hPa 0,0 l/m 16,6 km/h (3 Bft) W-SW 256 12,3 C 31,4 km/h (5 Bft) 100 %
13.09.2017 10:25 13,5 C 93 % 996,8 hPa 0,0 l/m 6,3 km/h (2 Bft) W-NW 285 12,4 C 15,7 km/h (3 Bft) 100 %
13.09.2017 10:26 13,6 C 92 % 996,8 hPa 0,0 l/m 10,3 km/h (2 Bft) SO 144 12,3 C 22,0 km/h (4 Bft) 100 %
13.09.2017 10:27 13,7 C 92 % 996,7 hPa 0,0 l/m 12,4 km/h (3 Bft) W 262 12,4 C 25,1 km/h (4 Bft) 100 %
13.09.2017 10:28 13,8 C 92 % 996,7 hPa 0,0 l/m 16,0 km/h (3 Bft) NW 316 12,5 C 28,2 km/h (4 Bft) 100 %
13.09.2017 10:29 13,9 C 91 % 996,9 hPa 0,0 l/m 8,1 km/h (2 Bft) W 264 12,5 C 18,8 km/h (3 Bft) 100 %
13.09.2017 10:30 14,0 C 92 % 996,9 hPa 0,0 l/m 12,7 km/h (3 Bft) NW 307 12,7 C 18,8 km/h (3 Bft) 100 %
13.09.2017 10:31 14,1 C 90 % 997,0 hPa 0,0 l/m 13,7 km/h (3 Bft) SW 229 12,5 C 25,1 km/h (4 Bft) 96 %
13.09.2017 10:32 14,2 C 90 % 997,0 hPa 0,0 l/m 13,1 km/h (3 Bft) W-SW 244 12,6 C 25,1 km/h (4 Bft) 100 %
13.09.2017 10:33 14,3 C 90 % 997,0 hPa 0,0 l/m 13,9 km/h (3 Bft) SW 231 12,7 C 31,4 km/h (5 Bft) 96 %
13.09.2017 10:34 14,4 C 90 % 997,0 hPa 0,0 l/m 9,3 km/h (2 Bft) N-NW 340 12,8 C 22,0 km/h (4 Bft) 100 %
13.09.2017 10:35 14,5 C 90 % 997,0 hPa 0,0 l/m 11,8 km/h (2 Bft) W-NW 302 12,9 C 25,1 km/h (4 Bft) 96 %
13.09.2017 10:36 14,6 C 89 % 997,0 hPa 0,0 l/m 17,1 km/h (3 Bft) S-SW 211 12,8 C 34,5 km/h (5 Bft) 100 %
13.09.2017 10:37 14,6 C 88 % 997,0 hPa 0,0 l/m 16,1 km/h (3 Bft) S-SW 198 12,6 C 28,2 km/h (4 Bft) 97 %
13.09.2017 10:38 14,7 C 88 % 997,0 hPa 0,0 l/m 13,5 km/h (3 Bft) S-SW 210 12,7 C 22,0 km/h (4 Bft) 96 %
13.09.2017 10:39 14,8 C 87 % 997,0 hPa 0,0 l/m 22,8 km/h (4 Bft) W 269 12,7 C 34,5 km/h (5 Bft) 100 %
13.09.2017 10:40 14,8 C 86 % 997,0 hPa 0,0 l/m 12,8 km/h (3 Bft) W 272 12,5 C 22,0 km/h (4 Bft) 100 %
13.09.2017 10:41 14,9 C 86 % 996,9 hPa 0,0 l/m 21,5 km/h (4 Bft) S 180 12,6 C 43,9 km/h (6 Bft) 96 %
13.09.2017 10:42 15,0 C 85 % 996,9 hPa 0,0 l/m 13,0 km/h (3 Bft) SW 227 12,5 C 31,4 km/h (5 Bft) 100 %
13.09.2017 10:43 15,1 C 85 % 996,9 hPa 0,0 l/m 13,2 km/h (3 Bft) W 259 12,6 C 31,4 km/h (5 Bft) 100 %
13.09.2017 10:44 15,2 C 83 % 996,6 hPa 0,0 l/m 22,6 km/h (4 Bft) SW 233 12,3 C 37,7 km/h (5 Bft) 100 %
13.09.2017 10:45 15,2 C 83 % 996,7 hPa 0,0 l/m 17,5 km/h (3 Bft) N-NO 25 12,3 C 34,5 km/h (5 Bft) 100 %
13.09.2017 10:46 15,3 C 83 % 996,8 hPa 0,0 l/m 12,6 km/h (3 Bft) N-NW 327 12,4 C 28,2 km/h (4 Bft) 100 %
13.09.2017 10:47 15,4 C 83 % 996,7 hPa 0,0 l/m 20,9 km/h (4 Bft) W-NW 291 12,5 C 37,7 km/h (5 Bft) 100 %
13.09.2017 10:48 15,4 C 82 % 996,7 hPa 0,0 l/m 14,9 km/h (3 Bft) W-NW 294 12,3 C 34,5 km/h (5 Bft) 100 %
13.09.2017 10:49 15,5 C 81 % 996,7 hPa 0,0 l/m 22,8 km/h (4 Bft) N-NW 328 12,3 C 34,5 km/h (5 Bft) 100 %
13.09.2017 10:50 15,6 C 81 % 996,7 hPa 0,0 l/m 12,2 km/h (2 Bft) N-NW 331 12,3 C 25,1 km/h (4 Bft) 100 %
13.09.2017 10:51 15,6 C 82 % 996,9 hPa 0,0 l/m 9,3 km/h (2 Bft) S-SW 195 12,5 C 25,1 km/h (4 Bft) 100 %
13.09.2017 10:52 15,7 C 82 % 996,9 hPa 0,0 l/m 12,6 km/h (3 Bft) W 266 12,6 C 34,5 km/h (5 Bft) 100 %
13.09.2017 10:53 15,7 C 83 % 997,0 hPa 0,0 l/m 8,4 km/h (2 Bft) SW 219 12,8 C 18,8 km/h (3 Bft) 100 %
13.09.2017 10:54 15,6 C 83 % 997,0 hPa 0,0 l/m 15,4 km/h (3 Bft) S 187 12,7 C 28,2 km/h (4 Bft) 100 %
13.09.2017 10:55 15,6 C 84 % 997,0 hPa 0,0 l/m 9,3 km/h (2 Bft) W-SW 252 12,9 C 22,0 km/h (4 Bft) 100 %
13.09.2017 10:56 15,6 C 84 % 997,0 hPa 0,0 l/m 9,4 km/h (2 Bft) S-SW 211 12,9 C 22,0 km/h (4 Bft) 100 %
13.09.2017 10:57 15,6 C 85 % 997,1 hPa 0,0 l/m 7,2 km/h (2 Bft) W 276 13,1 C 18,8 km/h (3 Bft) 100 %
13.09.2017 10:58 15,7 C 84 % 997,1 hPa 0,0 l/m 10,8 km/h (2 Bft) W-NW 300 13,0 C 25,1 km/h (4 Bft) 100 %
13.09.2017 10:59 15,7 C 84 % 997,0 hPa 0,0 l/m 12,2 km/h (2 Bft) SW 233 13,0 C 25,1 km/h (4 Bft) 100 %
13.09.2017 11:00 15,7 C 85 % 997,2 hPa 0,0 l/m 9,6 km/h (2 Bft) NW 304 13,2 C 15,7 km/h (3 Bft) 100 %
13.09.2017 11:01 15,7 C 85 % 997,2 hPa 0,0 l/m 10,5 km/h (2 Bft) W-NW 284 13,2 C 18,8 km/h (3 Bft) 100 %
13.09.2017 11:02 15,7 C 84 % 997,2 hPa 0,0 l/m 12,3 km/h (3 Bft) S 180 13,0 C 28,2 km/h (4 Bft) 100 %
13.09.2017 11:03 15,7 C 84 % 997,0 hPa 0,0 l/m 8,2 km/h (2 Bft) W-NW 285 13,0 C 18,8 km/h (3 Bft) 100 %
13.09.2017 11:04 15,8 C 84 % 997,1 hPa 0,0 l/m 10,7 km/h (2 Bft) W-SW 240 13,1 C 22,0 km/h (4 Bft) 100 %
13.09.2017 11:05 15,8 C 85 % 997,1 hPa 0,0 l/m 11,5 km/h (2 Bft) W-NW 286 13,3 C 18,8 km/h (3 Bft) 100 %
13.09.2017 11:06 15,8 C 84 % 997,1 hPa 0,0 l/m 10,9 km/h (2 Bft) W 259 13,1 C 25,1 km/h (4 Bft) 100 %
13.09.2017 11:07 15,8 C 84 % 997,2 hPa 0,0 l/m 13,7 km/h (3 Bft) W-SW 252 13,1 C 22,0 km/h (4 Bft) 100 %
13.09.2017 11:08 15,8 C 83 % 997,1 hPa 0,0 l/m 12,6 km/h (3 Bft) N-NO 21 12,9 C 22,0 km/h (4 Bft) 100 %
13.09.2017 11:09 15,8 C 82 % 997,1 hPa 0,0 l/m 18,2 km/h (3 Bft) S-SW 205 12,7 C 37,7 km/h (5 Bft) 100 %
13.09.2017 11:10 15,8 C 82 % 997,0 hPa 0,0 l/m 16,3 km/h (3 Bft) W 262 12,7 C 25,1 km/h (4 Bft) 100 %
13.09.2017 11:11 15,8 C 82 % 997,1 hPa 0,0 l/m 12,6 km/h (3 Bft) S-SW 210 12,7 C 18,8 km/h (3 Bft) 100 %
13.09.2017 11:12 15,7 C 82 % 997,0 hPa 0,0 l/m 18,7 km/h (3 Bft) W 260 12,6 C 31,4 km/h (5 Bft) 100 %
13.09.2017 11:13 15,7 C 81 % 997,1 hPa 0,0 l/m 15,5 km/h (3 Bft) W 278 12,4 C 31,4 km/h (5 Bft) 100 %
13.09.2017 11:14 15,7 C 81 % 997,1 hPa 0,0 l/m 9,4 km/h (2 Bft) S-SW 201 12,4 C 22,0 km/h (4 Bft) 100 %
13.09.2017 11:15 15,7 C 81 % 997,0 hPa 0,0 l/m 18,5 km/h (3 Bft) W-NW 297 12,4 C 28,2 km/h (4 Bft) 100 %
13.09.2017 11:16 15,7 C 81 % 997,0 hPa 0,0 l/m 14,9 km/h (3 Bft) SW 217 12,4 C 22,0 km/h (4 Bft) 100 %
13.09.2017 11:17 15,8 C 82 % 997,1 hPa 0,0 l/m 8,2 km/h (2 Bft) S 172 12,7 C 22,0 km/h (4 Bft) 100 %
13.09.2017 11:18 15,8 C 79 % 997,1 hPa 0,0 l/m 21,0 km/h (4 Bft) SW 222 12,2 C 34,5 km/h (5 Bft) 100 %
13.09.2017 11:19 15,8 C 80 % 997,0 hPa 0,0 l/m 12,4 km/h (3 Bft) W 259 12,4 C 37,7 km/h (5 Bft) 100 %
13.09.2017 11:20 15,9 C 80 % 996,9 hPa 0,0 l/m 22,0 km/h (4 Bft) W-NW 302 12,5 C 43,9 km/h (6 Bft) 100 %
13.09.2017 11:21 15,9 C 80 % 997,1 hPa 0,0 l/m 16,0 km/h (3 Bft) NW 307 12,5 C 25,1 km/h (4 Bft) 100 %
13.09.2017 11:22 15,9 C 81 % 997,1 hPa 0,0 l/m 12,4 km/h (3 Bft) SW 216 12,6 C 28,2 km/h (4 Bft) 100 %
13.09.2017 11:23 16,0 C 80 % 997,0 hPa 0,0 l/m 13,1 km/h (3 Bft) W 262 12,5 C 28,2 km/h (4 Bft) 100 %
13.09.2017 11:24 16,0 C 80 % 997,0 hPa 0,0 l/m 18,4 km/h (3 Bft) S-SW 212 12,5 C 37,7 km/h (5 Bft) 100 %
13.09.2017 11:25 16,0 C 79 % 997,0 hPa 0,0 l/m 17,0 km/h (3 Bft) O 86 12,4 C 37,7 km/h (5 Bft) 100 %
13.09.2017 11:26 16,0 C 79 % 997,0 hPa 0,0 l/m 17,5 km/h (3 Bft) W 276 12,4 C 28,2 km/h (4 Bft) 100 %
13.09.2017 11:27 16,0 C 79 % 997,1 hPa 0,0 l/m 13,8 km/h (3 Bft) S 188 12,4 C 22,0 km/h (4 Bft) 100 %
13.09.2017 11:28 16,0 C 79 % 997,4 hPa 0,0 l/m 20,1 km/h (4 Bft) W 266 12,4 C 31,4 km/h (5 Bft) 100 %
13.09.2017 11:29 16,0 C 78 % 997,1 hPa 0,0 l/m 13,3 km/h (3 Bft) SW 226 12,2 C 22,0 km/h (4 Bft) 96 %
13.09.2017 11:30 16,0 C 79 % 997,1 hPa 0,0 l/m 9,7 km/h (2 Bft) W 274 12,4 C 25,1 km/h (4 Bft) 100 %
13.09.2017 11:31 16,0 C 80 % 997,2 hPa 0,0 l/m 11,1 km/h (2 Bft) NO 49 12,5 C 22,0 km/h (4 Bft) 97 %
13.09.2017 11:32 16,1 C 79 % 997,1 hPa 0,0 l/m 11,7 km/h (2 Bft) NW 321 12,5 C 18,8 km/h (3 Bft) 96 %
13.09.2017 11:33 16,1 C 79 % 997,1 hPa 0,0 l/m 15,0 km/h (3 Bft) W-SW 247 12,5 C 25,1 km/h (4 Bft) 100 %
13.09.2017 11:34 16,1 C 79 % 997,2 hPa 0,0 l/m 17,4 km/h (3 Bft) W-SW 258 12,5 C 34,5 km/h (5 Bft) 96 %
13.09.2017 11:35 16,2 C 78 % 997,1 hPa 0,0 l/m 12,7 km/h (3 Bft) SW 224 12,4 C 18,8 km/h (3 Bft) 100 %
13.09.2017 11:36 16,2 C 77 % 997,1 hPa 0,0 l/m 16,8 km/h (3 Bft) NW 326 12,2 C 28,2 km/h (4 Bft) 93 %
13.09.2017 11:37 16,3 C 77 % 997,0 hPa 0,0 l/m 11,6 km/h (2 Bft) SW 222 12,3 C 18,8 km/h (3 Bft) 100 %
13.09.2017 11:38 16,4 C 78 % 997,0 hPa 0,0 l/m 12,2 km/h (2 Bft) NW 307 12,6 C 28,2 km/h (4 Bft) 96 %
13.09.2017 11:39 16,5 C 77 % 996,7 hPa 0,0 l/m 19,5 km/h (3 Bft) W-NW 297 12,5 C 34,5 km/h (5 Bft) 96 %
13.09.2017 11:40 16,6 C 75 % 996,6 hPa 0,0 l/m 27,1 km/h (4 Bft) W-NW 287 12,1 C 47,1 km/h (6 Bft) 100 %
13.09.2017 11:41 16,6 C 75 % 996,7 hPa 0,0 l/m 17,1 km/h (3 Bft) SW 217 12,1 C 28,2 km/h (4 Bft) 100 %
13.09.2017 11:42 16,6 C 74 % 996,7 hPa 0,0 l/m 17,7 km/h (3 Bft) S 191 11,9 C 34,5 km/h (5 Bft) 100 %
13.09.2017 11:43 16,7 C 74 % 996,6 hPa 0,0 l/m 14,7 km/h (3 Bft) S-SW 200 12,0 C 40,8 km/h (6 Bft) 100 %
13.09.2017 11:44 16,7 C 75 % 996,6 hPa 0,0 l/m 22,3 km/h (4 Bft) NW 307 12,2 C 31,4 km/h (5 Bft) 100 %
13.09.2017 11:45 16,7 C 76 % 996,7 hPa 0,0 l/m 14,7 km/h (3 Bft) W-NW 290 12,4 C 22,0 km/h (4 Bft) 100 %
13.09.2017 11:46 16,8 C 74 % 996,5 hPa 0,0 l/m 24,8 km/h (4 Bft) W-NW 297 12,1 C 50,2 km/h (7 Bft) 100 %
13.09.2017 11:47 16,8 C 73 % 996,6 hPa 0,0 l/m 26,9 km/h (4 Bft) W-SW 256 11,9 C 40,8 km/h (6 Bft) 100 %
13.09.2017 11:48 16,9 C 73 % 996,6 hPa 0,0 l/m 18,4 km/h (3 Bft) SW 234 12,0 C 37,7 km/h (5 Bft) 100 %
13.09.2017 11:49 16,9 C 73 % 996,7 hPa 0,0 l/m 16,3 km/h (3 Bft) W-NW 290 12,0 C 34,5 km/h (5 Bft) 100 %
13.09.2017 11:50 17,0 C 73 % 996,7 hPa 0,0 l/m 15,4 km/h (3 Bft) W-SW 245 12,1 C 25,1 km/h (4 Bft) 100 %
13.09.2017 11:51 17,1 C 72 % 996,6 hPa 0,0 l/m 26,5 km/h (4 Bft) SW 224 12,0 C 40,8 km/h (6 Bft) 100 %
13.09.2017 11:52 17,1 C 71 % 996,6 hPa 0,0 l/m 20,3 km/h (4 Bft) SW 218 11,8 C 43,9 km/h (6 Bft) 100 %
13.09.2017 11:53 17,1 C 71 % 996,5 hPa 0,0 l/m 23,3 km/h (4 Bft) W-NW 285 11,8 C 34,5 km/h (5 Bft) 100 %
13.09.2017 11:54 17,1 C 71 % 996,6 hPa 0,0 l/m 18,0 km/h (3 Bft) S-SO 153 11,8 C 31,4 km/h (5 Bft) 100 %
13.09.2017 11:55 17,1 C 72 % 996,7 hPa 0,0 l/m 15,1 km/h (3 Bft) W-NW 299 12,0 C 28,2 km/h (4 Bft) 100 %
13.09.2017 11:56 17,1 C 73 % 996,5 hPa 0,0 l/m 10,0 km/h (2 Bft) SW 221 12,2 C 22,0 km/h (4 Bft) 100 %
13.09.2017 11:57 17,1 C 73 % 996,7 hPa 0,0 l/m 18,8 km/h (3 Bft) W-SW 248 12,2 C 40,8 km/h (6 Bft) 100 %
13.09.2017 11:58 17,2 C 72 % 996,7 hPa 0,0 l/m 13,3 km/h (3 Bft) W-NW 290 12,1 C 25,1 km/h (4 Bft) 100 %
13.09.2017 11:59 17,2 C 72 % 996,7 hPa 0,0 l/m 12,6 km/h (3 Bft) W-NW 284 12,1 C 31,4 km/h (5 Bft) 100 %
13.09.2017 12:00 17,1 C 72 % 996,9 hPa 0,0 l/m 19,3 km/h (3 Bft) W-NW 294 12,0 C 28,2 km/h (4 Bft) 100 %
13.09.2017 12:01 17,1 C 71 % 997,0 hPa 0,0 l/m 15,2 km/h (3 Bft) SW 228 11,8 C 28,2 km/h (4 Bft) 100 %
13.09.2017 12:02 17,1 C 71 % 997,0 hPa 0,0 l/m 18,8 km/h (3 Bft) W-SW 242 11,8 C 34,5 km/h (5 Bft) 100 %
13.09.2017 12:03 17,1 C 72 % 996,7 hPa 0,0 l/m 10,8 km/h (2 Bft) W-NW 292 12,0 C 28,2 km/h (4 Bft) 100 %
13.09.2017 12:04 17,1 C 72 % 997,1 hPa 0,0 l/m 23,1 km/h (4 Bft) W 265 12,0 C 40,8 km/h (6 Bft) 100 %
13.09.2017 12:05 17,1 C 71 % 996,7 hPa 0,0 l/m 17,7 km/h (3 Bft) NO 51 11,8 C 37,7 km/h (5 Bft) 100 %
13.09.2017 12:06 17,1 C 71 % 996,7 hPa 0,0 l/m 25,8 km/h (4 Bft) W-NW 293 11,8 C 47,1 km/h (6 Bft) 100 %
13.09.2017 12:07 17,1 C 69 % 996,8 hPa 0,0 l/m 22,9 km/h (4 Bft) W 267 11,4 C 31,4 km/h (5 Bft) 100 %
13.09.2017 12:08 17,1 C 70 % 996,8 hPa 0,0 l/m 21,6 km/h (4 Bft) W-SW 248 11,6 C 43,9 km/h (6 Bft) 100 %
13.09.2017 12:09 17,0 C 71 % 996,8 hPa 0,0 l/m 14,9 km/h (3 Bft) W 262 11,7 C 34,5 km/h (5 Bft) 100 %
13.09.2017 12:10 17,0 C 71 % 996,9 hPa 0,0 l/m 20,9 km/h (4 Bft) W-NW 298 11,7 C 43,9 km/h (6 Bft) 100 %
13.09.2017 12:11 17,0 C 71 % 996,9 hPa 0,0 l/m 21,7 km/h (4 Bft) S-SW 195 11,7 C 37,7 km/h (5 Bft) 100 %
13.09.2017 12:12 17,0 C 70 % 996,9 hPa 0,0 l/m 28,7 km/h (4 Bft) S-SW 211 11,5 C 56,5 km/h (7 Bft) 100 %
13.09.2017 12:13 17,0 C 70 % 996,8 hPa 0,0 l/m 25,6 km/h (4 Bft) W 279 11,5 C 40,8 km/h (6 Bft) 100 %
13.09.2017 12:14 17,0 C 71 % 996,8 hPa 0,0 l/m 14,7 km/h (3 Bft) W-NW 295 11,7 C 28,2 km/h (4 Bft) 100 %
13.09.2017 12:15 17,1 C 70 % 996,7 hPa 0,0 l/m 23,1 km/h (4 Bft) SW 215 11,6 C 43,9 km/h (6 Bft) 100 %
13.09.2017 12:16 17,1 C 69 % 996,5 hPa 0,0 l/m 17,1 km/h (3 Bft) W-SW 257 11,4 C 34,5 km/h (5 Bft) 100 %
13.09.2017 12:17 17,1 C 70 % 996,5 hPa 0,0 l/m 26,1 km/h (4 Bft) SW 229 11,6 C 59,6 km/h (7 Bft) 100 %
13.09.2017 12:18 17,1 C 68 % 996,8 hPa 0,0 l/m 28,8 km/h (4 Bft) W-SW 254 11,1 C 47,1 km/h (6 Bft) 100 %
13.09.2017 12:19 17,1 C 68 % 996,8 hPa 0,0 l/m 16,2 km/h (3 Bft) W-NW 294 11,1 C 34,5 km/h (5 Bft) 100 %
13.09.2017 12:20 17,1 C 69 % 996,8 hPa 0,0 l/m 24,9 km/h (4 Bft) N-NW 328 11,4 C 50,2 km/h (7 Bft) 100 %
13.09.2017 12:21 17,1 C 69 % 996,8 hPa 0,0 l/m 20,7 km/h (4 Bft) NW 311 11,4 C 43,9 km/h (6 Bft) 100 %
13.09.2017 12:22 17,1 C 69 % 996,9 hPa 0,0 l/m 22,8 km/h (4 Bft) NW 314 11,4 C 37,7 km/h (5 Bft) 100 %
13.09.2017 12:23 17,1 C 69 % 996,8 hPa 0,0 l/m 12,6 km/h (3 Bft) W-NW 302 11,4 C 18,8 km/h (3 Bft) 96 %
13.09.2017 12:24 17,2 C 69 % 996,7 hPa 0,0 l/m 14,0 km/h (3 Bft) W 274 11,5 C 18,8 km/h (3 Bft) 100 %
13.09.2017 12:25 17,2 C 70 % 996,7 hPa 0,0 l/m 11,4 km/h (2 Bft) W 262 11,7 C 28,2 km/h (4 Bft) 100 %
13.09.2017 12:26 17,2 C 70 % 996,9 hPa 0,0 l/m 20,6 km/h (4 Bft) W-NW 291 11,7 C 43,9 km/h (6 Bft) 92 %
13.09.2017 12:27 17,2 C 69 % 996,7 hPa 0,0 l/m 17,5 km/h (3 Bft) W-SW 257 11,5 C 28,2 km/h (4 Bft) 100 %
13.09.2017 12:28 17,2 C 70 % 996,7 hPa 0,0 l/m 11,0 km/h (2 Bft) NW 318 11,7 C 25,1 km/h (4 Bft) 96 %
13.09.2017 12:29 17,2 C 68 % 996,8 hPa 0,0 l/m 23,5 km/h (4 Bft) SW 231 11,2 C 40,8 km/h (6 Bft) 100 %
13.09.2017 12:30 17,2 C 68 % 996,8 hPa 0,0 l/m 16,6 km/h (3 Bft) SW 217 11,2 C 34,5 km/h (5 Bft) 96 %
13.09.2017 12:31 17,2 C 67 % 996,7 hPa 0,0 l/m 32,0 km/h (5 Bft) W 281 11,0 C 53,3 km/h (7 Bft) 96 %
13.09.2017 12:32 17,1 C 67 % 996,7 hPa 0,0 l/m 24,1 km/h (4 Bft) NW 309 10,9 C 40,8 km/h (6 Bft) 100 %
13.09.2017 12:33 17,1 C 67 % 996,7 hPa 0,0 l/m 23,3 km/h (4 Bft) NW 321 10,9 C 43,9 km/h (6 Bft) 93 %
13.09.2017 12:34 17,1 C 68 % 996,9 hPa 0,0 l/m 17,8 km/h (3 Bft) W 268 11,1 C 47,1 km/h (6 Bft) 100 %
13.09.2017 12:35 17,0 C 68 % 997,1 hPa 0,0 l/m 15,7 km/h (3 Bft) SW 232 11,0 C 34,5 km/h (5 Bft) 100 %
13.09.2017 12:36 16,9 C 70 % 997,1 hPa 0,0 l/m 24,0 km/h (4 Bft) SO 131 11,4 C 40,8 km/h (6 Bft) 100 %
13.09.2017 12:37 16,8 C 71 % 997,1 hPa 0,0 l/m 24,5 km/h (4 Bft) S-SW 207 11,5 C 37,7 km/h (5 Bft) 100 %
13.09.2017 12:38 16,7 C 73 % 997,0 hPa 0,0 l/m 12,6 km/h (3 Bft) W-NW 285 11,8 C 22,0 km/h (4 Bft) 100 %
13.09.2017 12:39 16,4 C 74 % 997,2 hPa 0,0 l/m 12,9 km/h (3 Bft) SW 226 11,8 C 18,8 km/h (3 Bft) 100 %
13.09.2017 12:40 16,3 C 74 % 997,0 hPa 0,0 l/m 21,7 km/h (4 Bft) SW 235 11,7 C 43,9 km/h (6 Bft) 100 %
13.09.2017 12:41 16,2 C 74 % 997,1 hPa 0,0 l/m 30,2 km/h (5 Bft) W 269 11,6 C 56,5 km/h (7 Bft) 100 %
13.09.2017 12:42 16,2 C 74 % 997,1 hPa 0,0 l/m 19,5 km/h (3 Bft) NW 317 11,6 C 34,5 km/h (5 Bft) 100 %
13.09.2017 12:43 16,2 C 75 % 997,2 hPa 0,0 l/m 17,6 km/h (3 Bft) W-SW 244 11,8 C 37,7 km/h (5 Bft) 100 %
13.09.2017 12:44 16,2 C 74 % 996,9 hPa 0,0 l/m 22,6 km/h (4 Bft) NW 326 11,6 C 47,1 km/h (6 Bft) 96 %
13.09.2017 12:45 16,2 C 73 % 996,9 hPa 0,0 l/m 25,8 km/h (4 Bft) SW 221 11,4 C 50,2 km/h (7 Bft) 100 %
13.09.2017 12:46 16,3 C 74 % 996,8 hPa 0,0 l/m 14,7 km/h (3 Bft) SW 234 11,7 C 43,9 km/h (6 Bft) 100 %
13.09.2017 12:47 16,3 C 74 % 996,9 hPa 0,0 l/m 14,6 km/h (3 Bft) S 179 11,7 C 28,2 km/h (4 Bft) 100 %
13.09.2017 12:48 16,4 C 73 % 996,7 hPa 0,0 l/m 27,9 km/h (4 Bft) W-NW 293 11,5 C 47,1 km/h (6 Bft) 100 %
13.09.2017 12:49 16,4 C 72 % 996,9 hPa 0,0 l/m 21,2 km/h (4 Bft) W-NW 284 11,3 C 28,2 km/h (4 Bft) 100 %
13.09.2017 12:50 16,5 C 72 % 996,9 hPa 0,0 l/m 17,4 km/h (3 Bft) S-SW 192 11,4 C 25,1 km/h (4 Bft) 100 %
13.09.2017 12:51 16,6 C 73 % 996,9 hPa 0,0 l/m 22,6 km/h (4 Bft) W-NW 293 11,7 C 40,8 km/h (6 Bft) 100 %
13.09.2017 12:52 16,6 C 70 % 996,9 hPa 0,0 l/m 20,7 km/h (4 Bft) SW 218 11,1 C 37,7 km/h (5 Bft) 100 %
13.09.2017 12:53 16,6 C 70 % 996,9 hPa 0,0 l/m 24,0 km/h (4 Bft) SW 219 11,1 C 40,8 km/h (6 Bft) 100 %
13.09.2017 12:54 16,6 C 70 % 996,9 hPa 0,0 l/m 24,9 km/h (4 Bft) W-SW 253 11,1 C 53,3 km/h (7 Bft) 100 %
13.09.2017 12:55 16,7 C 69 % 996,8 hPa 0,0 l/m 25,2 km/h (4 Bft) NW 311 11,0 C 37,7 km/h (5 Bft) 100 %
13.09.2017 12:56 16,7 C 69 % 996,8 hPa 0,0 l/m 20,2 km/h (4 Bft) S 178 11,0 C 31,4 km/h (5 Bft) 100 %
13.09.2017 12:57 16,7 C 69 % 996,9 hPa 0,0 l/m 16,9 km/h (3 Bft) NW 314 11,0 C 31,4 km/h (5 Bft) 100 %
13.09.2017 12:58 16,7 C 70 % 997,0 hPa 0,0 l/m 12,7 km/h (3 Bft) N 354 11,2 C 28,2 km/h (4 Bft) 100 %
13.09.2017 12:59 16,7 C 68 % 996,9 hPa 0,0 l/m 27,8 km/h (4 Bft) W 265 10,8 C 53,3 km/h (7 Bft) 100 %
13.09.2017 13:00 16,7 C 68 % 996,9 hPa 0,0 l/m 24,5 km/h (4 Bft) SW 233 10,8 C 40,8 km/h (6 Bft) 100 %
13.09.2017 13:01 16,7 C 68 % 997,0 hPa 0,0 l/m 15,4 km/h (3 Bft) SW 221 10,8 C 25,1 km/h (4 Bft) 100 %
13.09.2017 13:02 16,7 C 67 % 997,1 hPa 0,0 l/m 30,9 km/h (5 Bft) W 268 10,5 C 40,8 km/h (6 Bft) 100 %
13.09.2017 13:03 16,8 C 66 % 997,1 hPa 0,0 l/m 27,7 km/h (4 Bft) SW 230 10,4 C 56,5 km/h (7 Bft) 100 %
13.09.2017 13:04 16,8 C 66 % 997,0 hPa 0,0 l/m 19,6 km/h (3 Bft) S-SO 167 10,4 C 31,4 km/h (5 Bft) 100 %
13.09.2017 13:05 16,8 C 65 % 996,9 hPa 0,0 l/m 26,5 km/h (4 Bft) W-NW 285 10,2 C 62,8 km/h (8 Bft) 100 %
13.09.2017 13:06 16,8 C 65 % 997,2 hPa 0,0 l/m 27,3 km/h (4 Bft) S-SW 204 10,2 C 37,7 km/h (5 Bft) 100 %
13.09.2017 13:07 16,8 C 65 % 997,0 hPa 0,0 l/m 20,6 km/h (4 Bft) N-NW 334 10,2 C 47,1 km/h (6 Bft) 100 %
13.09.2017 13:08 16,8 C 65 % 997,0 hPa 0,0 l/m 18,8 km/h (3 Bft) W-NW 289 10,2 C 28,2 km/h (4 Bft) 100 %
13.09.2017 13:09 16,8 C 64 % 997,1 hPa 0,0 l/m 26,4 km/h (4 Bft) W-NW 289 10,0 C 65,9 km/h (8 Bft) 100 %
13.09.2017 13:10 16,8 C 64 % 997,0 hPa 0,0 l/m 22,4 km/h (4 Bft) NW 310 10,0 C 34,5 km/h (5 Bft) 100 %
13.09.2017 13:11 16,8 C 65 % 997,0 hPa 0,0 l/m 19,9 km/h (4 Bft) SW 233 10,2 C 37,7 km/h (5 Bft) 100 %
13.09.2017 13:12 16,9 C 66 % 997,0 hPa 0,0 l/m 14,9 km/h (3 Bft) S-SW 212 10,5 C 25,1 km/h (4 Bft) 100 %
13.09.2017 13:13 16,9 C 65 % 997,0 hPa 0,0 l/m 16,9 km/h (3 Bft) NW 308 10,3 C 34,5 km/h (5 Bft) 100 %
13.09.2017 13:14 17,1 C 65 % 996,9 hPa 0,0 l/m 20,4 km/h (4 Bft) NW 304 10,5 C 37,7 km/h (5 Bft) 100 %
13.09.2017 13:15 17,1 C 63 % 997,0 hPa 0,0 l/m 30,6 km/h (5 Bft) N-NW 345 10,0 C 43,9 km/h (6 Bft) 100 %
13.09.2017 13:16 17,1 C 63 % 997,0 hPa 0,0 l/m 18,0 km/h (3 Bft) NW 323 10,0 C 37,7 km/h (5 Bft) 100 %
13.09.2017 13:17 17,1 C 64 % 996,9 hPa 0,0 l/m 24,2 km/h (4 Bft) S-SW 194 10,2 C 43,9 km/h (6 Bft) 100 %
13.09.2017 13:18 17,1 C 62 % 997,0 hPa 0,0 l/m 25,7 km/h (4 Bft) W 278 9,8 C 47,1 km/h (6 Bft) 100 %
13.09.2017 13:19 17,1 C 63 % 997,2 hPa 0,0 l/m 22,8 km/h (4 Bft) W 271 10,0 C 37,7 km/h (5 Bft) 94 %
13.09.2017 13:20 17,2 C 62 % 997,0 hPa 0,0 l/m 25,2 km/h (4 Bft) SW 230 9,9 C 43,9 km/h (6 Bft) 96 %
13.09.2017 13:21 17,2 C 62 % 997,0 hPa 0,0 l/m 24,6 km/h (4 Bft) NW 307 9,9 C 40,8 km/h (6 Bft) 96 %
13.09.2017 13:22 17,2 C 62 % 997,0 hPa 0,0 l/m 17,1 km/h (3 Bft) SW 229 9,9 C 25,1 km/h (4 Bft) 96 %
13.09.2017 13:23 17,3 C 62 % 997,0 hPa 0,0 l/m 21,0 km/h (4 Bft) NW 311 9,9 C 34,5 km/h (5 Bft) 96 %
13.09.2017 13:24 17,4 C 63 % 997,0 hPa 0,0 l/m 26,7 km/h (4 Bft) SW 229 10,3 C 72,2 km/h (8 Bft) 100 %
13.09.2017 13:25 17,4 C 61 % 997,4 hPa 0,0 l/m 38,0 km/h (5 Bft) NW 311 9,8 C 56,5 km/h (7 Bft) 100 %
13.09.2017 13:26 17,4 C 61 % 997,2 hPa 0,0 l/m 24,5 km/h (4 Bft) W-SW 251 9,8 C 47,1 km/h (6 Bft) 97 %
13.09.2017 13:27 17,4 C 60 % 997,1 hPa 0,0 l/m 27,9 km/h (4 Bft) W-NW 283 9,6 C 53,3 km/h (7 Bft) 92 %
13.09.2017 13:28 17,5 C 60 % 997,3 hPa 0,0 l/m 22,4 km/h (4 Bft) W 261 9,6 C 40,8 km/h (6 Bft) 100 %
13.09.2017 13:29 17,5 C 61 % 997,3 hPa 0,0 l/m 20,1 km/h (4 Bft) N-NW 342 9,9 C 37,7 km/h (5 Bft) 96 %
13.09.2017 13:30 17,4 C 61 % 997,4 hPa 0,0 l/m 17,2 km/h (3 Bft) W-SW 256 9,8 C 28,2 km/h (4 Bft) 100 %
13.09.2017 13:31 17,4 C 60 % 997,1 hPa 0,0 l/m 20,0 km/h (4 Bft) S-SW 198 9,6 C 40,8 km/h (6 Bft) 96 %
13.09.2017 13:32 17,4 C 60 % 997,1 hPa 0,0 l/m 19,7 km/h (3 Bft) W 259 9,6 C 37,7 km/h (5 Bft) 100 %
13.09.2017 13:33 17,5 C 61 % 997,2 hPa 0,0 l/m 17,8 km/h (3 Bft) W-NW 288 9,9 C 31,4 km/h (5 Bft) 100 %
13.09.2017 13:34 17,5 C 62 % 997,1 hPa 0,0 l/m 12,2 km/h (2 Bft) S-SW 205 10,1 C 37,7 km/h (5 Bft) 100 %
13.09.2017 13:35 17,6 C 61 % 997,2 hPa 0,0 l/m 19,6 km/h (3 Bft) NW 323 10,0 C 37,7 km/h (5 Bft) 100 %
13.09.2017 13:36 17,6 C 61 % 997,3 hPa 0,0 l/m 19,8 km/h (3 Bft) SW 222 10,0 C 34,5 km/h (5 Bft) 100 %
13.09.2017 13:37 17,7 C 60 % 997,4 hPa 0,0 l/m 25,5 km/h (4 Bft) W-NW 300 9,8 C 47,1 km/h (6 Bft) 100 %
13.09.2017 13:38 17,7 C 60 % 997,2 hPa 0,0 l/m 22,8 km/h (4 Bft) S-SW 213 9,8 C 47,1 km/h (6 Bft) 100 %
13.09.2017 13:39 17,7 C 59 % 997,2 hPa 0,0 l/m 25,0 km/h (4 Bft) SW 221 9,6 C 50,2 km/h (7 Bft) 100 %
13.09.2017 13:40 17,8 C 59 % 997,6 hPa 0,0 l/m 26,2 km/h (4 Bft) NW 313 9,7 C 47,1 km/h (6 Bft) 100 %
13.09.2017 13:41 17,8 C 59 % 997,1 hPa 0,0 l/m 20,8 km/h (4 Bft) W-NW 301 9,7 C 40,8 km/h (6 Bft) 100 %
13.09.2017 13:42 17,8 C 59 % 997,4 hPa 0,0 l/m 22,6 km/h (4 Bft) S-SO 166 9,7 C 31,4 km/h (5 Bft) 100 %
13.09.2017 13:43 17,9 C 59 % 997,2 hPa 0,0 l/m 19,0 km/h (3 Bft) W-NW 297 9,8 C 28,2 km/h (4 Bft) 100 %
13.09.2017 13:44 17,9 C 60 % 997,3 hPa 0,0 l/m 29,0 km/h (5 Bft) N-NW 343 10,0 C 50,2 km/h (7 Bft) 100 %
13.09.2017 13:45 17,9 C 59 % 997,3 hPa 0,0 l/m 28,2 km/h (4 Bft) W-NW 288 9,8 C 47,1 km/h (6 Bft) 100 %
13.09.2017 13:46 18,0 C 59 % 997,3 hPa 0,0 l/m 27,0 km/h (4 Bft) W 276 9,9 C 53,3 km/h (7 Bft) 100 %
13.09.2017 13:47 18,0 C 58 % 997,3 hPa 0,0 l/m 31,2 km/h (5 Bft) S-SW 210 9,6 C 50,2 km/h (7 Bft) 100 %
13.09.2017 13:48 18,1 C 59 % 997,4 hPa 0,0 l/m 17,6 km/h (3 Bft) S-SW 208 10,0 C 28,2 km/h (4 Bft) 100 %
13.09.2017 13:49 18,1 C 59 % 997,5 hPa 0,0 l/m 25,7 km/h (4 Bft) NW 314 10,0 C 50,2 km/h (7 Bft) 97 %
13.09.2017 13:50 18,1 C 59 % 997,4 hPa 0,0 l/m 28,6 km/h (4 Bft) W-NW 299 10,0 C 50,2 km/h (7 Bft) 100 %
13.09.2017 13:51 18,1 C 59 % 997,5 hPa 0,0 l/m 25,3 km/h (4 Bft) SW 231 10,0 C 34,5 km/h (5 Bft) 100 %
13.09.2017 13:52 18,2 C 59 % 997,4 hPa 0,0 l/m 19,5 km/h (3 Bft) S 176 10,1 C 28,2 km/h (4 Bft) 100 %
13.09.2017 13:53 18,2 C 60 % 997,5 hPa 0,0 l/m 18,8 km/h (3 Bft) W-NW 297 10,3 C 34,5 km/h (5 Bft) 100 %
13.09.2017 13:54 18,2 C 60 % 997,7 hPa 0,0 l/m 19,9 km/h (4 Bft) S-SO 150 10,3 C 31,4 km/h (5 Bft) 100 %
13.09.2017 13:55 18,3 C 60 % 997,6 hPa 0,0 l/m 20,6 km/h (4 Bft) SW 224 10,4 C 43,9 km/h (6 Bft) 100 %
13.09.2017 13:56 18,3 C 57 % 997,6 hPa 0,0 l/m 34,1 km/h (5 Bft) W-SW 243 9,6 C 56,5 km/h (7 Bft) 100 %
13.09.2017 13:57 18,3 C 58 % 997,6 hPa 0,0 l/m 23,5 km/h (4 Bft) W-SW 238 9,9 C 34,5 km/h (5 Bft) 100 %
13.09.2017 13:58 18,2 C 59 % 997,7 hPa 0,0 l/m 27,9 km/h (4 Bft) W-NW 291 10,1 C 47,1 km/h (6 Bft) 100 %
13.09.2017 13:59 18,2 C 58 % 997,7 hPa 0,0 l/m 27,9 km/h (4 Bft) N-NW 335 9,8 C 43,9 km/h (6 Bft) 100 %
13.09.2017 14:00 18,1 C 58 % 997,6 hPa 0,0 l/m 27,0 km/h (4 Bft) NW 320 9,7 C 40,8 km/h (6 Bft) 100 %
13.09.2017 14:01 18,1 C 58 % 997,7 hPa 0,0 l/m 26,0 km/h (4 Bft) W 261 9,7 C 59,6 km/h (7 Bft) 100 %
13.09.2017 14:02 18,1 C 59 % 997,8 hPa 0,0 l/m 23,2 km/h (4 Bft) W-NW 288 10,0 C 43,9 km/h (6 Bft) 100 %
13.09.2017 14:03 18,1 C 59 % 997,7 hPa 0,0 l/m 28,7 km/h (4 Bft) N-NW 335 10,0 C 50,2 km/h (7 Bft) 100 %
13.09.2017 14:04 18,1 C 59 % 997,8 hPa 0,0 l/m 22,0 km/h (4 Bft) S-SW 213 10,0 C 43,9 km/h (6 Bft) 100 %
13.09.2017 14:05 18,1 C 59 % 997,8 hPa 0,0 l/m 23,5 km/h (4 Bft) NW 307 10,0 C 37,7 km/h (5 Bft) 100 %
13.09.2017 14:06 18,1 C 59 % 997,9 hPa 0,0 l/m 25,6 km/h (4 Bft) W-NW 294 10,0 C 43,9 km/h (6 Bft) 96 %
13.09.2017 14:07 18,1 C 58 % 997,9 hPa 0,0 l/m 25,5 km/h (4 Bft) N-NW 328 9,7 C 40,8 km/h (6 Bft) 96 %
13.09.2017 14:08 18,1 C 61 % 997,8 hPa 0,0 l/m 13,6 km/h (3 Bft) N-NW 344 10,5 C 22,0 km/h (4 Bft) 100 %
13.09.2017 14:09 18,1 C 61 % 997,7 hPa 0,0 l/m 18,7 km/h (3 Bft) NW 318 10,5 C 34,5 km/h (5 Bft) 100 %
13.09.2017 14:10 18,1 C 61 % 997,8 hPa 0,0 l/m 21,4 km/h (4 Bft) S-SW 204 10,5 C 34,5 km/h (5 Bft) 100 %
13.09.2017 14:11 18,2 C 61 % 997,9 hPa 0,0 l/m 18,8 km/h (3 Bft) W-SW 246 10,6 C 31,4 km/h (5 Bft) 100 %
13.09.2017 14:12 18,2 C 60 % 997,8 hPa 0,0 l/m 29,3 km/h (5 Bft) SW 233 10,3 C 56,5 km/h (7 Bft) 100 %
13.09.2017 14:13 18,2 C 59 % 997,9 hPa 0,0 l/m 28,5 km/h (4 Bft) NW 315 10,1 C 53,3 km/h (7 Bft) 96 %
13.09.2017 14:14 18,1 C 59 % 997,9 hPa 0,0 l/m 27,8 km/h (4 Bft) SW 221 10,0 C 34,5 km/h (5 Bft) 100 %
13.09.2017 14:15 18,2 C 60 % 997,9 hPa 0,0 l/m 17,7 km/h (3 Bft) W-SW 255 10,3 C 34,5 km/h (5 Bft) 100 %
13.09.2017 14:16 18,2 C 60 % 997,8 hPa 0,0 l/m 19,1 km/h (3 Bft) SW 234 10,3 C 31,4 km/h (5 Bft) 100 %
13.09.2017 14:17 18,2 C 61 % 997,8 hPa 0,0 l/m 13,6 km/h (3 Bft) W-NW 296 10,6 C 31,4 km/h (5 Bft) 96 %
13.09.2017 14:18 18,2 C 61 % 998,0 hPa 0,0 l/m 16,9 km/h (3 Bft) NW 305 10,6 C 34,5 km/h (5 Bft) 100 %
13.09.2017 14:19 18,2 C 61 % 997,9 hPa 0,0 l/m 22,4 km/h (4 Bft) NW 310 10,6 C 43,9 km/h (6 Bft) 96 %
13.09.2017 14:20 18,2 C 59 % 998,1 hPa 0,0 l/m 25,9 km/h (4 Bft) W-NW 300 10,1 C 47,1 km/h (6 Bft) 100 %
13.09.2017 14:21 18,2 C 59 % 997,8 hPa 0,0 l/m 25,2 km/h (4 Bft) W-NW 290 10,1 C 53,3 km/h (7 Bft) 96 %
13.09.2017 14:22 18,2 C 59 % 997,8 hPa 0,0 l/m 26,6 km/h (4 Bft) W-NW 302 10,1 C 47,1 km/h (6 Bft) 100 %
13.09.2017 14:23 18,2 C 58 % 997,8 hPa 0,0 l/m 25,9 km/h (4 Bft) W 276 9,8 C 50,2 km/h (7 Bft) 96 %
13.09.2017 14:24 18,3 C 58 % 997,8 hPa 0,0 l/m 18,2 km/h (3 Bft) W 273 9,9 C 34,5 km/h (5 Bft) 96 %
13.09.2017 14:25 18,3 C 60 % 997,8 hPa 0,0 l/m 13,4 km/h (3 Bft) W 272 10,4 C 22,0 km/h (4 Bft) 100 %
13.09.2017 14:26 18,4 C 60 % 997,7 hPa 0,0 l/m 10,7 km/h (2 Bft) W 264 10,5 C 22,0 km/h (4 Bft) 100 %
13.09.2017 14:27 18,5 C 60 % 997,7 hPa 0,0 l/m 11,1 km/h (2 Bft) NW 305 10,6 C 22,0 km/h (4 Bft) 100 %
13.09.2017 14:28 18,6 C 60 % 997,9 hPa 0,0 l/m 22,1 km/h (4 Bft) NW 314 10,7 C 31,4 km/h (5 Bft) 100 %
13.09.2017 14:29 18,6 C 56 % 997,9 hPa 0,0 l/m 30,6 km/h (5 Bft) W-SW 258 9,6 C 53,3 km/h (7 Bft) 100 %
13.09.2017 14:30 18,6 C 55 % 998,1 hPa 0,0 l/m 29,0 km/h (5 Bft) W 264 9,4 C 50,2 km/h (7 Bft) 100 %
13.09.2017 14:31 18,6 C 53 % 998,0 hPa 0,0 l/m 20,2 km/h (4 Bft) S-SO 153 8,8 C 37,7 km/h (5 Bft) 100 %
13.09.2017 14:32 18,5 C 53 % 998,1 hPa 0,0 l/m 26,4 km/h (4 Bft) W-NW 286 8,7 C 53,3 km/h (7 Bft) 100 %
13.09.2017 14:33 18,4 C 54 % 998,1 hPa 0,0 l/m 20,0 km/h (4 Bft) N-NW 341 8,9 C 43,9 km/h (6 Bft) 100 %
13.09.2017 14:34 18,3 C 54 % 997,9 hPa 0,0 l/m 36,2 km/h (5 Bft) W-SW 237 8,8 C 62,8 km/h (8 Bft) 100 %
13.09.2017 14:35 18,2 C 53 % 997,9 hPa 0,0 l/m 31,7 km/h (5 Bft) NW 304 8,5 C 40,8 km/h (6 Bft) 100 %
13.09.2017 14:36 18,1 C 53 % 997,8 hPa 0,0 l/m 21,4 km/h (4 Bft) W 272 8,4 C 37,7 km/h (5 Bft) 100 %
13.09.2017 14:37 18,1 C 55 % 997,9 hPa 0,0 l/m 33,1 km/h (5 Bft) SW 222 8,9 C 59,6 km/h (7 Bft) 100 %
13.09.2017 14:38 18,1 C 56 % 998,0 hPa 0,0 l/m 14,4 km/h (3 Bft) W 281 9,2 C 34,5 km/h (5 Bft) 100 %
13.09.2017 14:39 18,1 C 56 % 997,9 hPa 0,0 l/m 18,3 km/h (3 Bft) SW 236 9,2 C 31,4 km/h (5 Bft) 100 %
13.09.2017 14:40 18,2 C 56 % 998,0 hPa 0,0 l/m 18,5 km/h (3 Bft) W-SW 244 9,3 C 28,2 km/h (4 Bft) 100 %
13.09.2017 14:41 18,2 C 57 % 998,1 hPa 0,0 l/m 17,5 km/h (3 Bft) W-NW 290 9,5 C 31,4 km/h (5 Bft) 100 %
13.09.2017 14:42 18,3 C 56 % 998,0 hPa 0,0 l/m 23,7 km/h (4 Bft) NW 307 9,4 C 43,9 km/h (6 Bft) 100 %
13.09.2017 14:43 18,3 C 56 % 998,0 hPa 0,0 l/m 16,8 km/h (3 Bft) W-NW 302 9,4 C 28,2 km/h (4 Bft) 100 %
13.09.2017 14:44 18,3 C 55 % 997,9 hPa 0,0 l/m 21,2 km/h (4 Bft) W 276 9,1 C 40,8 km/h (6 Bft) 100 %
13.09.2017 14:45 18,4 C 56 % 997,8 hPa 0,0 l/m 15,4 km/h (3 Bft) W-SW 248 9,5 C 28,2 km/h (4 Bft) 100 %
13.09.2017 14:46 18,4 C 56 % 998,0 hPa 0,0 l/m 26,1 km/h (4 Bft) W 276 9,5 C 43,9 km/h (6 Bft) 100 %
13.09.2017 14:47 18,4 C 56 % 997,9 hPa 0,0 l/m 27,6 km/h (4 Bft) NW 325 9,5 C 56,5 km/h (7 Bft) 100 %
13.09.2017 14:48 18,4 C 53 % 997,8 hPa 0,0 l/m 24,3 km/h (4 Bft) W 259 8,6 C 47,1 km/h (6 Bft) 100 %
13.09.2017 14:49 18,4 C 54 % 998,1 hPa 0,0 l/m 30,1 km/h (5 Bft) S-SW 207 8,9 C 53,3 km/h (7 Bft) 100 %
13.09.2017 14:50 18,4 C 55 % 998,1 hPa 0,0 l/m 32,2 km/h (5 Bft) W-SW 256 9,2 C 50,2 km/h (7 Bft) 100 %
13.09.2017 14:51 18,4 C 55 % 998,0 hPa 0,0 l/m 30,3 km/h (5 Bft) N-NW 331 9,2 C 62,8 km/h (8 Bft) 100 %
13.09.2017 14:52 18,5 C 56 % 998,0 hPa 0,0 l/m 27,2 km/h (4 Bft) W-NW 292 9,6 C 47,1 km/h (6 Bft) 100 %
13.09.2017 14:53 18,5 C 56 % 998,0 hPa 0,0 l/m 26,7 km/h (4 Bft) W 264 9,6 C 40,8 km/h (6 Bft) 100 %
13.09.2017 14:54 18,4 C 55 % 998,1 hPa 0,0 l/m 26,4 km/h (4 Bft) NW 310 9,2 C 43,9 km/h (6 Bft) 100 %
13.09.2017 14:55 18,4 C 56 % 998,1 hPa 0,0 l/m 29,2 km/h (5 Bft) W-NW 282 9,5 C 53,3 km/h (7 Bft) 100 %
13.09.2017 14:56 18,4 C 56 % 998,3 hPa 0,0 l/m 19,8 km/h (3 Bft) W-NW 288 9,5 C 34,5 km/h (5 Bft) 100 %
13.09.2017 14:57 18,5 C 55 % 998,1 hPa 0,0 l/m 19,0 km/h (3 Bft) S-SW 205 9,3 C 37,7 km/h (5 Bft) 100 %
13.09.2017 14:58 18,5 C 56 % 998,2 hPa 0,0 l/m 23,2 km/h (4 Bft) NW 304 9,6 C 34,5 km/h (5 Bft) 100 %
13.09.2017 14:59 18,5 C 55 % 998,1 hPa 0,0 l/m 18,0 km/h (3 Bft) S 189 9,3 C 34,5 km/h (5 Bft) 100 %
13.09.2017 15:00 18,5 C 55 % 998,1 hPa 0,0 l/m 17,3 km/h (3 Bft) SW 220 9,3 C 34,5 km/h (5 Bft) 100 %
13.09.2017 15:01 18,5 C 56 % 998,1 hPa 0,0 l/m 17,3 km/h (3 Bft) W 279 9,6 C 37,7 km/h (5 Bft) 100 %
13.09.2017 15:02 18,5 C 56 % 998,1 hPa 0,0 l/m 20,1 km/h (4 Bft) NW 307 9,6 C 28,2 km/h (4 Bft) 100 %
13.09.2017 15:03 18,5 C 56 % 998,2 hPa 0,0 l/m 23,7 km/h (4 Bft) SW 226 9,6 C 37,7 km/h (5 Bft) 100 %
13.09.2017 15:04 18,4 C 54 % 998,3 hPa 0,0 l/m 31,1 km/h (5 Bft) W-SW 242 8,9 C 53,3 km/h (7 Bft) 100 %
13.09.2017 15:05 18,4 C 54 % 998,2 hPa 0,0 l/m 28,9 km/h (5 Bft) W-NW 287 8,9 C 47,1 km/h (6 Bft) 100 %
13.09.2017 15:06 18,4 C 54 % 998,2 hPa 0,0 l/m 31,5 km/h (5 Bft) SW 228 8,9 C 59,6 km/h (7 Bft) 96 %
13.09.2017 15:07 18,4 C 55 % 998,2 hPa 0,0 l/m 23,5 km/h (4 Bft) W 269 9,2 C 43,9 km/h (6 Bft) 100 %
13.09.2017 15:08 18,4 C 55 % 998,2 hPa 0,0 l/m 31,2 km/h (5 Bft) W 264 9,2 C 62,8 km/h (8 Bft) 100 %
13.09.2017 15:09 18,3 C 54 % 998,2 hPa 0,0 l/m 27,6 km/h (4 Bft) W-SW 255 8,8 C 50,2 km/h (7 Bft) 100 %
13.09.2017 15:10 18,3 C 55 % 998,3 hPa 0,0 l/m 22,1 km/h (4 Bft) W-NW 297 9,1 C 43,9 km/h (6 Bft) 100 %
13.09.2017 15:11 18,3 C 56 % 998,3 hPa 0,0 l/m 21,5 km/h (4 Bft) W-NW 287 9,4 C 47,1 km/h (6 Bft) 93 %
13.09.2017 15:12 18,3 C 55 % 998,2 hPa 0,0 l/m 26,4 km/h (4 Bft) N 2 9,1 C 47,1 km/h (6 Bft) 100 %
13.09.2017 15:13 18,3 C 55 % 998,2 hPa 0,0 l/m 26,2 km/h (4 Bft) NW 316 9,1 C 53,3 km/h (7 Bft) 96 %
13.09.2017 15:14 18,4 C 55 % 998,2 hPa 0,0 l/m 21,8 km/h (4 Bft) SW 230 9,2 C 34,5 km/h (5 Bft) 96 %
13.09.2017 15:15 18,4 C 57 % 998,2 hPa 0,0 l/m 10,8 km/h (2 Bft) W 269 9,7 C 15,7 km/h (3 Bft) 100 %
13.09.2017 15:16 18,5 C 57 % 998,2 hPa 0,0 l/m 15,2 km/h (3 Bft) NW 315 9,8 C 31,4 km/h (5 Bft) 96 %
13.09.2017 15:17 18,6 C 56 % 998,2 hPa 0,0 l/m 30,5 km/h (5 Bft) SW 222 9,6 C 62,8 km/h (8 Bft) 100 %
13.09.2017 15:18 18,6 C 55 % 998,4 hPa 0,0 l/m 34,5 km/h (5 Bft) W-NW 300 9,4 C 69,0 km/h (8 Bft) 97 %
13.09.2017 15:19 18,6 C 54 % 998,4 hPa 0,0 l/m 24,6 km/h (4 Bft) SW 236 9,1 C 59,6 km/h (7 Bft) 100 %
13.09.2017 15:20 18,6 C 53 % 998,5 hPa 0,0 l/m 36,2 km/h (5 Bft) W 281 8,8 C 65,9 km/h (8 Bft) 100 %
13.09.2017 15:21 18,6 C 53 % 998,4 hPa 0,0 l/m 24,6 km/h (4 Bft) N-NW 348 8,8 C 40,8 km/h (6 Bft) 100 %
13.09.2017 15:22 18,6 C 52 % 998,2 hPa 0,0 l/m 22,9 km/h (4 Bft) W 265 8,5 C 47,1 km/h (6 Bft) 100 %
13.09.2017 15:23 18,6 C 52 % 998,1 hPa 0,0 l/m 16,0 km/h (3 Bft) W-NW 299 8,5 C 34,5 km/h (5 Bft) 100 %
13.09.2017 15:24 18,6 C 52 % 998,3 hPa 0,0 l/m 34,1 km/h (5 Bft) S-SO 150 8,5 C 65,9 km/h (8 Bft) 100 %
13.09.2017 15:25 18,6 C 52 % 998,6 hPa 0,0 l/m 35,9 km/h (5 Bft) W-NW 301 8,5 C 56,5 km/h (7 Bft) 100 %
13.09.2017 15:26 18,6 C 52 % 998,3 hPa 0,0 l/m 28,5 km/h (4 Bft) W-NW 296 8,5 C 43,9 km/h (6 Bft) 100 %
13.09.2017 15:27 18,6 C 52 % 998,3 hPa 0,0 l/m 25,5 km/h (4 Bft) W-NW 285 8,5 C 34,5 km/h (5 Bft) 100 %
13.09.2017 15:28 18,6 C 53 % 998,3 hPa 0,0 l/m 19,7 km/h (3 Bft) W 262 8,8 C 40,8 km/h (6 Bft) 100 %
13.09.2017 15:29 18,6 C 54 % 998,3 hPa 0,0 l/m 11,1 km/h (2 Bft) NW 326 9,1 C 18,8 km/h (3 Bft) 100 %
13.09.2017 15:30 18,6 C 54 % 998,3 hPa 0,0 l/m 22,2 km/h (4 Bft) W 281 9,1 C 37,7 km/h (5 Bft) 100 %
13.09.2017 15:31 18,6 C 54 % 998,4 hPa 0,0 l/m 20,1 km/h (4 Bft) W-SW 247 9,1 C 50,2 km/h (7 Bft) 100 %
13.09.2017 15:32 18,6 C 53 % 998,3 hPa 0,0 l/m 18,8 km/h (3 Bft) W-NW 302 8,8 C 40,8 km/h (6 Bft) 100 %
13.09.2017 15:33 18,6 C 52 % 998,4 hPa 0,0 l/m 22,8 km/h (4 Bft) NW 304 8,5 C 34,5 km/h (5 Bft) 100 %
13.09.2017 15:34 18,5 C 53 % 998,4 hPa 0,0 l/m 25,6 km/h (4 Bft) W-SW 247 8,7 C 43,9 km/h (6 Bft) 100 %
13.09.2017 15:35 18,4 C 53 % 998,4 hPa 0,0 l/m 15,7 km/h (3 Bft) W 278 8,6 C 34,5 km/h (5 Bft) 100 %
13.09.2017 15:36 18,4 C 53 % 998,4 hPa 0,0 l/m 18,4 km/h (3 Bft) W-NW 286 8,6 C 34,5 km/h (5 Bft) 100 %
13.09.2017 15:37 18,4 C 53 % 998,5 hPa 0,0 l/m 22,0 km/h (4 Bft) S-SW 204 8,6 C 43,9 km/h (6 Bft) 100 %
13.09.2017 15:38 18,5 C 54 % 998,4 hPa 0,0 l/m 20,7 km/h (4 Bft) W 259 9,0 C 40,8 km/h (6 Bft) 100 %
13.09.2017 15:39 18,6 C 53 % 998,4 hPa 0,0 l/m 21,6 km/h (4 Bft) W 274 8,8 C 37,7 km/h (5 Bft) 100 %
13.09.2017 15:40 18,5 C 53 % 998,5 hPa 0,0 l/m 31,4 km/h (5 Bft) W-NW 295 8,7 C 56,5 km/h (7 Bft) 100 %
13.09.2017 15:41 18,4 C 53 % 998,4 hPa 0,0 l/m 19,1 km/h (3 Bft) W-SW 248 8,6 C 31,4 km/h (5 Bft) 100 %
13.09.2017 15:42 18,4 C 53 % 998,5 hPa 0,0 l/m 20,0 km/h (4 Bft) NW 315 8,6 C 53,3 km/h (7 Bft) 100 %
13.09.2017 15:43 18,4 C 53 % 998,5 hPa 0,0 l/m 23,3 km/h (4 Bft) W-NW 285 8,6 C 56,5 km/h (7 Bft) 100 %
13.09.2017 15:44 18,3 C 53 % 998,5 hPa 0,0 l/m 27,6 km/h (4 Bft) NW 309 8,6 C 43,9 km/h (6 Bft) 100 %
13.09.2017 15:45 18,3 C 54 % 998,5 hPa 0,0 l/m 13,6 km/h (3 Bft) W 266 8,8 C 28,2 km/h (4 Bft) 100 %
13.09.2017 15:46 18,4 C 55 % 998,5 hPa 0,0 l/m 9,9 km/h (2 Bft) W 278 9,2 C 18,8 km/h (3 Bft) 100 %
13.09.2017 15:47 18,4 C 55 % 998,4 hPa 0,0 l/m 16,0 km/h (3 Bft) W-NW 302 9,2 C 22,0 km/h (4 Bft) 100 %
13.09.2017 15:48 18,4 C 55 % 998,4 hPa 0,0 l/m 16,0 km/h (3 Bft) W-NW 286 9,2 C 28,2 km/h (4 Bft) 100 %
13.09.2017 15:49 18,3 C 54 % 998,4 hPa 0,0 l/m 22,6 km/h (4 Bft) W 275 8,8 C 43,9 km/h (6 Bft) 100 %
13.09.2017 15:50 18,3 C 54 % 998,3 hPa 0,0 l/m 19,0 km/h (3 Bft) W 271 8,8 C 34,5 km/h (5 Bft) 100 %
13.09.2017 15:51 18,2 C 54 % 998,5 hPa 0,0 l/m 26,6 km/h (4 Bft) W-NW 293 8,7 C 34,5 km/h (5 Bft) 100 %
13.09.2017 15:52 18,2 C 55 % 998,4 hPa 0,0 l/m 24,5 km/h (4 Bft) W 271 9,0 C 56,5 km/h (7 Bft) 100 %
13.09.2017 15:53 18,2 C 53 % 998,3 hPa 0,0 l/m 24,8 km/h (4 Bft) W-NW 289 8,5 C 53,3 km/h (7 Bft) 100 %
13.09.2017 15:54 18,3 C 54 % 998,3 hPa 0,0 l/m 21,1 km/h (4 Bft) SW 222 8,8 C 43,9 km/h (6 Bft) 100 %
13.09.2017 15:55 18,3 C 54 % 998,3 hPa 0,0 l/m 24,8 km/h (4 Bft) W-SW 250 8,8 C 40,8 km/h (6 Bft) 100 %
13.09.2017 15:56 18,3 C 54 % 998,4 hPa 0,0 l/m 22,9 km/h (4 Bft) W-SW 240 8,8 C 37,7 km/h (5 Bft) 100 %
13.09.2017 15:57 18,2 C 54 % 998,4 hPa 0,0 l/m 20,7 km/h (4 Bft) O 89 8,7 C 37,7 km/h (5 Bft) 100 %
13.09.2017 15:58 18,2 C 54 % 998,2 hPa 0,0 l/m 18,7 km/h (3 Bft) W-SW 254 8,7 C 31,4 km/h (5 Bft) 96 %
13.09.2017 15:59 18,2 C 54 % 998,2 hPa 0,0 l/m 19,0 km/h (3 Bft) W-NW 298 8,7 C 43,9 km/h (6 Bft) 100 %
13.09.2017 16:00 18,2 C 54 % 998,2 hPa 0,0 l/m 23,3 km/h (4 Bft) W-SW 242 8,7 C 62,8 km/h (8 Bft) 100 %
13.09.2017 16:01 18,2 C 55 % 998,3 hPa 0,0 l/m 23,7 km/h (4 Bft) NW 304 9,0 C 37,7 km/h (5 Bft) 92 %
13.09.2017 16:02 18,3 C 55 % 998,4 hPa 0,0 l/m 14,0 km/h (3 Bft) W-NW 285 9,1 C 22,0 km/h (4 Bft) 100 %
13.09.2017 16:03 18,3 C 57 % 998,4 hPa 0,0 l/m 11,3 km/h (2 Bft) SO 146 9,6 C 18,8 km/h (3 Bft) 96 %
13.09.2017 16:04 18,4 C 58 % 998,4 hPa 0,0 l/m 12,9 km/h (3 Bft) W-SW 249 10,0 C 25,1 km/h (4 Bft) 100 %
13.09.2017 16:05 18,4 C 56 % 998,3 hPa 0,0 l/m 11,6 km/h (2 Bft) W 271 9,5 C 28,2 km/h (4 Bft) 96 %
13.09.2017 16:06 18,3 C 55 % 998,7 hPa 0,0 l/m 23,0 km/h (4 Bft) NW 319 9,1 C 40,8 km/h (6 Bft) 100 %
13.09.2017 16:07 18,3 C 55 % 998,4 hPa 0,0 l/m 20,7 km/h (4 Bft) S-SW 205 9,1 C 37,7 km/h (5 Bft) 96 %
13.09.2017 16:08 18,2 C 56 % 998,4 hPa 0,0 l/m 31,0 km/h (5 Bft) W-NW 293 9,3 C 53,3 km/h (7 Bft) 97 %
13.09.2017 16:09 18,2 C 55 % 998,5 hPa 0,0 l/m 23,3 km/h (4 Bft) W-NW 297 9,0 C 43,9 km/h (6 Bft) 100 %
13.09.2017 16:10 18,2 C 57 % 998,5 hPa 0,0 l/m 21,6 km/h (4 Bft) S-SW 212 9,5 C 50,2 km/h (7 Bft) 96 %
13.09.2017 16:11 18,1 C 56 % 998,6 hPa 0,0 l/m 20,9 km/h (4 Bft) NW 307 9,2 C 37,7 km/h (5 Bft) 100 %
13.09.2017 16:12 18,1 C 56 % 998,4 hPa 0,0 l/m 26,2 km/h (4 Bft) NW 313 9,2 C 37,7 km/h (5 Bft) 100 %
13.09.2017 16:13 18,1 C 56 % 998,4 hPa 0,0 l/m 24,3 km/h (4 Bft) NW 304 9,2 C 37,7 km/h (5 Bft) 100 %
13.09.2017 16:14 18,1 C 57 % 998,5 hPa 0,0 l/m 14,0 km/h (3 Bft) W-SW 255 9,4 C 18,8 km/h (3 Bft) 100 %
13.09.2017 16:15 18,0 C 56 % 999,0 hPa 0,0 l/m 23,9 km/h (4 Bft) W 264 9,1 C 31,4 km/h (5 Bft) 100 %
13.09.2017 16:16 18,1 C 56 % 998,7 hPa 0,0 l/m 30,8 km/h (5 Bft) SW 230 9,2 C 59,6 km/h (7 Bft) 100 %
13.09.2017 16:17 18,1 C 55 % 998,7 hPa 0,0 l/m 18,0 km/h (3 Bft) W-NW 292 8,9 C 34,5 km/h (5 Bft) 100 %
13.09.2017 16:18 18,1 C 55 % 998,5 hPa 0,0 l/m 26,2 km/h (4 Bft) NW 325 8,9 C 43,9 km/h (6 Bft) 100 %
13.09.2017 16:19 18,1 C 55 % 998,6 hPa 0,0 l/m 31,0 km/h (5 Bft) S 181 8,9 C 50,2 km/h (7 Bft) 100 %
13.09.2017 16:20 18,1 C 56 % 998,6 hPa 0,0 l/m 25,3 km/h (4 Bft) W-NW 289 9,2 C 40,8 km/h (6 Bft) 100 %
13.09.2017 16:21 18,0 C 56 % 998,6 hPa 0,0 l/m 25,0 km/h (4 Bft) W-SW 238 9,1 C 40,8 km/h (6 Bft) 100 %
13.09.2017 16:22 18,1 C 55 % 998,7 hPa 0,0 l/m 24,4 km/h (4 Bft) W-SW 241 8,9 C 40,8 km/h (6 Bft) 100 %
13.09.2017 16:23 18,1 C 56 % 998,6 hPa 0,0 l/m 16,9 km/h (3 Bft) W-SW 238 9,2 C 40,8 km/h (6 Bft) 100 %
13.09.2017 16:24 18,1 C 56 % 998,7 hPa 0,0 l/m 24,7 km/h (4 Bft) NW 310 9,2 C 37,7 km/h (5 Bft) 100 %
13.09.2017 16:25 18,0 C 56 % 998,7 hPa 0,0 l/m 23,7 km/h (4 Bft) W-NW 288 9,1 C 47,1 km/h (6 Bft) 100 %
13.09.2017 16:26 17,9 C 55 % 998,6 hPa 0,0 l/m 22,1 km/h (4 Bft) SW 226 8,7 C 34,5 km/h (5 Bft) 100 %
13.09.2017 16:27 17,9 C 57 % 998,7 hPa 0,0 l/m 23,1 km/h (4 Bft) W 272 9,3 C 37,7 km/h (5 Bft) 100 %
13.09.2017 16:28 17,8 C 56 % 998,8 hPa 0,0 l/m 26,6 km/h (4 Bft) W-NW 295 8,9 C 40,8 km/h (6 Bft) 100 %
13.09.2017 16:29 17,7 C 57 % 998,6 hPa 0,0 l/m 18,5 km/h (3 Bft) W-SW 246 9,1 C 40,8 km/h (6 Bft) 100 %
13.09.2017 16:30 17,7 C 56 % 998,6 hPa 0,0 l/m 20,1 km/h (4 Bft) N-NW 330 8,8 C 34,5 km/h (5 Bft) 100 %
13.09.2017 16:31 17,6 C 56 % 999,0 hPa 0,0 l/m 19,6 km/h (3 Bft) S-SW 210 8,7 C 34,5 km/h (5 Bft) 100 %
13.09.2017 16:32 17,6 C 57 % 998,9 hPa 0,0 l/m 18,7 km/h (3 Bft) W 262 9,0 C 28,2 km/h (4 Bft) 100 %
13.09.2017 16:33 17,5 C 57 % 998,8 hPa 0,0 l/m 13,5 km/h (3 Bft) W 262 8,9 C 25,1 km/h (4 Bft) 100 %
13.09.2017 16:34 17,4 C 58 % 998,9 hPa 0,0 l/m 20,1 km/h (4 Bft) SW 234 9,1 C 37,7 km/h (5 Bft) 100 %
13.09.2017 16:35 17,4 C 59 % 998,9 hPa 0,0 l/m 15,2 km/h (3 Bft) W-NW 285 9,3 C 25,1 km/h (4 Bft) 100 %
13.09.2017 16:36 17,3 C 58 % 998,9 hPa 0,0 l/m 18,8 km/h (3 Bft) SO 138 9,0 C 34,5 km/h (5 Bft) 100 %
13.09.2017 16:37 17,3 C 59 % 998,9 hPa 0,0 l/m 17,2 km/h (3 Bft) N-NW 339 9,2 C 28,2 km/h (4 Bft) 100 %
13.09.2017 16:38 17,3 C 60 % 998,9 hPa 0,0 l/m 13,1 km/h (3 Bft) W-NW 295 9,5 C 25,1 km/h (4 Bft) 100 %
13.09.2017 16:39 17,3 C 60 % 998,9 hPa 0,0 l/m 11,5 km/h (2 Bft) N 2 9,5 C 28,2 km/h (4 Bft) 100 %
13.09.2017 16:40 17,2 C 62 % 998,9 hPa 0,0 l/m 11,0 km/h (2 Bft) W-NW 288 9,9 C 22,0 km/h (4 Bft) 100 %
13.09.2017 16:41 17,2 C 62 % 999,2 hPa 0,0 l/m 17,7 km/h (3 Bft) SW 225 9,9 C 31,4 km/h (5 Bft) 100 %
13.09.2017 16:42 17,1 C 62 % 998,9 hPa 0,0 l/m 9,9 km/h (2 Bft) SW 231 9,8 C 25,1 km/h (4 Bft) 100 %
13.09.2017 16:43 17,1 C 62 % 999,1 hPa 0,0 l/m 12,6 km/h (3 Bft) N-NW 328 9,8 C 25,1 km/h (4 Bft) 100 %
13.09.2017 16:44 17,1 C 62 % 999,0 hPa 0,0 l/m 13,6 km/h (3 Bft) W-SW 251 9,8 C 25,1 km/h (4 Bft) 100 %
13.09.2017 16:45 17,1 C 63 % 998,9 hPa 0,0 l/m 10,0 km/h (2 Bft) NW 309 10,0 C 18,8 km/h (3 Bft) 100 %
13.09.2017 16:46 17,1 C 63 % 999,0 hPa 0,0 l/m 12,9 km/h (3 Bft) W 266 10,0 C 22,0 km/h (4 Bft) 100 %
13.09.2017 16:47 17,1 C 62 % 999,0 hPa 0,0 l/m 19,5 km/h (3 Bft) N-NW 327 9,8 C 34,5 km/h (5 Bft) 100 %
13.09.2017 16:48 17,1 C 62 % 999,0 hPa 0,0 l/m 13,9 km/h (3 Bft) W-NW 282 9,8 C 34,5 km/h (5 Bft) 100 %
13.09.2017 16:49 17,0 C 63 % 998,9 hPa 0,0 l/m 4,7 km/h (1 Bft) S-SW 193 9,9 C 22,0 km/h (4 Bft) 100 %
13.09.2017 16:50 17,0 C 63 % 998,8 hPa 0,0 l/m 15,2 km/h (3 Bft) W-SW 253 9,9 C 25,1 km/h (4 Bft) 99 %
13.09.2017 16:51 17,0 C 64 % 998,9 hPa 0,0 l/m 14,1 km/h (3 Bft) W-SW 250 10,1 C 25,1 km/h (4 Bft) 100 %
13.09.2017 16:52 17,0 C 64 % 998,8 hPa 0,0 l/m 11,8 km/h (2 Bft) W-NW 300 10,1 C 18,8 km/h (3 Bft) 100 %
13.09.2017 16:53 16,9 C 64 % 998,9 hPa 0,0 l/m 14,9 km/h (3 Bft) W-SW 245 10,0 C 37,7 km/h (5 Bft) 100 %
13.09.2017 16:54 16,9 C 64 % 999,0 hPa 0,0 l/m 15,5 km/h (3 Bft) S-SO 160 10,0 C 37,7 km/h (5 Bft) 100 %
13.09.2017 16:55 16,9 C 64 % 999,0 hPa 0,0 l/m 18,1 km/h (3 Bft) S 188 10,0 C 31,4 km/h (5 Bft) 100 %
13.09.2017 16:56 16,8 C 64 % 999,0 hPa 0,0 l/m 17,3 km/h (3 Bft) W-SW 251 10,0 C 34,5 km/h (5 Bft) 96 %
13.09.2017 16:57 16,8 C 65 % 999,0 hPa 0,0 l/m 17,3 km/h (3 Bft) NW 312 10,2 C 34,5 km/h (5 Bft) 97 %
13.09.2017 16:58 16,7 C 65 % 999,0 hPa 0,0 l/m 18,4 km/h (3 Bft) SW 221 10,1 C 31,4 km/h (5 Bft) 100 %
13.09.2017 16:59 16,7 C 65 % 999,0 hPa 0,0 l/m 16,9 km/h (3 Bft) S-SW 207 10,1 C 40,8 km/h (6 Bft) 96 %
13.09.2017 17:00 16,6 C 65 % 999,1 hPa 0,0 l/m 24,5 km/h (4 Bft) NW 304 10,0 C 40,8 km/h (6 Bft) 96 %
13.09.2017 17:01 16,6 C 66 % 999,1 hPa 0,0 l/m 12,3 km/h (3 Bft) W 279 10,2 C 34,5 km/h (5 Bft) 100 %
13.09.2017 17:02 16,6 C 66 % 999,1 hPa 0,0 l/m 12,8 km/h (3 Bft) W-NW 295 10,2 C 28,2 km/h (4 Bft) 96 %
13.09.2017 17:03 16,5 C 66 % 999,2 hPa 0,0 l/m 18,2 km/h (3 Bft) SW 236 10,1 C 34,5 km/h (5 Bft) 100 %
13.09.2017 17:04 16,4 C 66 % 999,2 hPa 0,0 l/m 13,0 km/h (3 Bft) SW 233 10,0 C 18,8 km/h (3 Bft) 96 %
13.09.2017 17:05 16,4 C 67 % 999,2 hPa 0,0 l/m 14,7 km/h (3 Bft) N-NW 340 10,3 C 25,1 km/h (4 Bft) 100 %
13.09.2017 17:06 16,4 C 66 % 999,2 hPa 0,0 l/m 18,3 km/h (3 Bft) N 350 10,0 C 31,4 km/h (5 Bft) 96 %
13.09.2017 17:07 16,4 C 67 % 999,2 hPa 0,0 l/m 12,4 km/h (3 Bft) W-SW 240 10,3 C 25,1 km/h (4 Bft) 100 %
13.09.2017 17:08 16,4 C 67 % 999,3 hPa 0,0 l/m 15,4 km/h (3 Bft) W-NW 282 10,3 C 31,4 km/h (5 Bft) 100 %
13.09.2017 17:09 16,4 C 68 % 999,3 hPa 0,0 l/m 15,5 km/h (3 Bft) W-SW 257 10,5 C 22,0 km/h (4 Bft) 100 %
13.09.2017 17:10 16,3 C 67 % 999,2 hPa 0,0 l/m 21,2 km/h (4 Bft) W-SW 250 10,2 C 40,8 km/h (6 Bft) 100 %
13.09.2017 17:11 16,3 C 67 % 999,3 hPa 0,0 l/m 19,5 km/h (3 Bft) W-NW 300 10,2 C 37,7 km/h (5 Bft) 100 %
13.09.2017 17:12 16,3 C 67 % 999,3 hPa 0,0 l/m 17,1 km/h (3 Bft) W 271 10,2 C 37,7 km/h (5 Bft) 100 %
13.09.2017 17:13 16,2 C 68 % 999,3 hPa 0,0 l/m 21,5 km/h (4 Bft) O-SO 109 10,3 C 37,7 km/h (5 Bft) 100 %
13.09.2017 17:14 16,2 C 68 % 999,4 hPa 0,0 l/m 12,6 km/h (3 Bft) W 278 10,3 C 31,4 km/h (5 Bft) 100 %
13.09.2017 17:15 16,2 C 68 % 999,4 hPa 0,0 l/m 11,5 km/h (2 Bft) O-SO 104 10,3 C 34,5 km/h (5 Bft) 100 %
13.09.2017 17:16 16,1 C 69 % 999,4 hPa 0,0 l/m 12,6 km/h (3 Bft) O 101 10,4 C 15,7 km/h (3 Bft) 100 %
13.09.2017 17:17 16,1 C 68 % 999,4 hPa 0,0 l/m 22,3 km/h (4 Bft) S-SW 194 10,2 C 40,8 km/h (6 Bft) 100 %
13.09.2017 17:18 16,0 C 69 % 999,5 hPa 0,0 l/m 17,1 km/h (3 Bft) W-SW 241 10,3 C 43,9 km/h (6 Bft) 100 %
13.09.2017 17:19 16,0 C 68 % 999,6 hPa 0,0 l/m 20,4 km/h (4 Bft) W-SW 248 10,1 C 37,7 km/h (5 Bft) 100 %
13.09.2017 17:20 15,9 C 68 % 999,6 hPa 0,0 l/m 17,3 km/h (3 Bft) W-NW 299 10,0 C 31,4 km/h (5 Bft) 100 %
13.09.2017 17:21 15,9 C 69 % 999,5 hPa 0,0 l/m 17,2 km/h (3 Bft) W 279 10,2 C 28,2 km/h (4 Bft) 100 %
13.09.2017 17:22 15,9 C 69 % 999,5 hPa 0,0 l/m 12,1 km/h (2 Bft) NO 42 10,2 C 22,0 km/h (4 Bft) 100 %
13.09.2017 17:23 15,8 C 69 % 999,5 hPa 0,0 l/m 20,3 km/h (4 Bft) W-NW 295 10,1 C 31,4 km/h (5 Bft) 100 %
13.09.2017 17:24 15,8 C 68 % 999,6 hPa 0,0 l/m 16,2 km/h (3 Bft) SW 224 9,9 C 28,2 km/h (4 Bft) 100 %
13.09.2017 17:25 15,8 C 69 % 999,7 hPa 0,0 l/m 12,7 km/h (3 Bft) NW 314 10,1 C 22,0 km/h (4 Bft) 100 %
13.09.2017 17:26 15,8 C 69 % 999,5 hPa 0,0 l/m 15,1 km/h (3 Bft) NW 312 10,1 C 37,7 km/h (5 Bft) 100 %
13.09.2017 17:27 15,7 C 69 % 999,5 hPa 0,0 l/m 21,8 km/h (4 Bft) W 262 10,0 C 50,2 km/h (7 Bft) 100 %
13.09.2017 17:28 15,7 C 69 % 999,5 hPa 0,0 l/m 20,5 km/h (4 Bft) SW 236 10,0 C 34,5 km/h (5 Bft) 100 %
13.09.2017 17:29 15,7 C 69 % 999,4 hPa 0,0 l/m 8,1 km/h (2 Bft) W-SW 243 10,0 C 22,0 km/h (4 Bft) 100 %
13.09.2017 17:30 15,7 C 70 % 999,5 hPa 0,0 l/m 22,1 km/h (4 Bft) SW 231 10,2 C 34,5 km/h (5 Bft) 100 %
13.09.2017 17:31 15,6 C 70 % 999,5 hPa 0,0 l/m 17,0 km/h (3 Bft) W 278 10,1 C 31,4 km/h (5 Bft) 100 %
13.09.2017 17:32 15,6 C 70 % 999,5 hPa 0,0 l/m 14,3 km/h (3 Bft) S-SW 197 10,1 C 25,1 km/h (4 Bft) 100 %
13.09.2017 17:33 15,6 C 70 % 999,5 hPa 0,0 l/m 9,4 km/h (2 Bft) W-NW 291 10,1 C 15,7 km/h (3 Bft) 100 %
13.09.2017 17:34 15,6 C 70 % 999,4 hPa 0,0 l/m 16,9 km/h (3 Bft) W-SW 252 10,1 C 25,1 km/h (4 Bft) 100 %
13.09.2017 17:35 15,6 C 70 % 999,5 hPa 0,0 l/m 22,5 km/h (4 Bft) W 266 10,1 C 34,5 km/h (5 Bft) 100 %
13.09.2017 17:36 15,6 C 70 % 999,5 hPa 0,0 l/m 13,0 km/h (3 Bft) W 281 10,1 C 31,4 km/h (5 Bft) 100 %
13.09.2017 17:37 15,5 C 70 % 999,4 hPa 0,0 l/m 19,0 km/h (3 Bft) W 278 10,1 C 40,8 km/h (6 Bft) 100 %
13.09.2017 17:38 15,5 C 71 % 999,4 hPa 0,0 l/m 12,2 km/h (2 Bft) S-SW 195 10,3 C 25,1 km/h (4 Bft) 100 %
13.09.2017 17:39 15,5 C 71 % 999,5 hPa 0,0 l/m 15,4 km/h (3 Bft) O 80 10,3 C 28,2 km/h (4 Bft) 100 %
13.09.2017 17:40 15,5 C 70 % 999,2 hPa 0,0 l/m 16,8 km/h (3 Bft) S-SW 212 10,1 C 34,5 km/h (5 Bft) 100 %
13.09.2017 17:41 15,5 C 70 % 999,3 hPa 0,0 l/m 24,6 km/h (4 Bft) W 276 10,1 C 40,8 km/h (6 Bft) 100 %
13.09.2017 17:42 15,5 C 70 % 999,4 hPa 0,0 l/m 14,0 km/h (3 Bft) NW 324 10,1 C 37,7 km/h (5 Bft) 100 %
13.09.2017 17:43 15,5 C 70 % 999,5 hPa 0,0 l/m 11,9 km/h (2 Bft) S-SW 201 10,1 C 25,1 km/h (4 Bft) 100 %
13.09.2017 17:44 15,5 C 70 % 999,3 hPa 0,0 l/m 18,2 km/h (3 Bft) S-SW 192 10,1 C 37,7 km/h (5 Bft) 100 %
13.09.2017 17:45 15,4 C 70 % 999,4 hPa 0,0 l/m 12,9 km/h (3 Bft) SW 221 10,0 C 37,7 km/h (5 Bft) 100 %
13.09.2017 17:46 15,4 C 70 % 999,4 hPa 0,0 l/m 18,8 km/h (3 Bft) SW 224 10,0 C 28,2 km/h (4 Bft) 100 %
13.09.2017 17:47 15,4 C 71 % 999,3 hPa 0,0 l/m 14,7 km/h (3 Bft) W-NW 291 10,2 C 25,1 km/h (4 Bft) 100 %
13.09.2017 17:48 15,4 C 71 % 999,3 hPa 0,0 l/m 25,4 km/h (4 Bft) NO 47 10,2 C 50,2 km/h (7 Bft) 100 %
13.09.2017 17:49 15,4 C 70 % 999,3 hPa 0,0 l/m 20,5 km/h (4 Bft) W-SW 243 10,0 C 34,5 km/h (5 Bft) 93 %
13.09.2017 17:50 15,4 C 70 % 999,3 hPa 0,0 l/m 15,8 km/h (3 Bft) W-NW 282 10,0 C 31,4 km/h (5 Bft) 100 %
13.09.2017 17:51 15,4 C 70 % 999,3 hPa 0,0 l/m 20,5 km/h (4 Bft) SO 141 10,0 C 40,8 km/h (6 Bft) 100 %
13.09.2017 17:52 15,3 C 70 % 999,3 hPa 0,0 l/m 21,8 km/h (4 Bft) W-NW 288 9,9 C 34,5 km/h (5 Bft) 96 %
13.09.2017 17:53 15,3 C 70 % 999,4 hPa 0,0 l/m 22,2 km/h (4 Bft) W-SW 243 9,9 C 40,8 km/h (6 Bft) 100 %
13.09.2017 17:54 15,3 C 70 % 999,3 hPa 0,0 l/m 23,2 km/h (4 Bft) O-SO 108 9,9 C 37,7 km/h (5 Bft) 96 %
13.09.2017 17:55 15,3 C 70 % 999,3 hPa 0,0 l/m 22,9 km/h (4 Bft) W-SW 250 9,9 C 37,7 km/h (5 Bft) 100 %
13.09.2017 17:56 15,3 C 70 % 999,4 hPa 0,0 l/m 15,2 km/h (3 Bft) W-SW 247 9,9 C 34,5 km/h (5 Bft) 96 %
13.09.2017 17:57 15,3 C 70 % 999,3 hPa 0,0 l/m 25,1 km/h (4 Bft) W 266 9,9 C 43,9 km/h (6 Bft) 96 %
13.09.2017 17:58 15,4 C 70 % 999,1 hPa 0,0 l/m 21,2 km/h (4 Bft) NW 309 10,0 C 56,5 km/h (7 Bft) 100 %
13.09.2017 17:59 15,4 C 69 % 999,1 hPa 0,0 l/m 21,7 km/h (4 Bft) W-NW 286 9,7 C 40,8 km/h (6 Bft) 96 %
13.09.2017 18:00 15,5 C 69 % 999,4 hPa 0,0 l/m 19,9 km/h (4 Bft) SW 221 9,8 C 34,5 km/h (5 Bft) 100 %
13.09.2017 18:01 15,5 C 69 % 999,3 hPa 0,0 l/m 18,2 km/h (3 Bft) SW 225 9,8 C 31,4 km/h (5 Bft) 96 %
13.09.2017 18:02 15,6 C 69 % 999,1 hPa 0,0 l/m 20,9 km/h (4 Bft) NO 34 9,9 C 40,8 km/h (6 Bft) 100 %
13.09.2017 18:03 15,6 C 70 % 999,1 hPa 0,0 l/m 10,3 km/h (2 Bft) W-NW 297 10,1 C 28,2 km/h (4 Bft) 96 %
13.09.2017 18:04 15,6 C 70 % 999,3 hPa 0,0 l/m 7,1 km/h (2 Bft) W 260 10,1 C 15,7 km/h (3 Bft) 100 %
13.09.2017 18:05 15,5 C 70 % 999,3 hPa 0,0 l/m 17,9 km/h (3 Bft) W-NW 288 10,1 C 34,5 km/h (5 Bft) 100 %
13.09.2017 18:06 15,5 C 70 % 999,3 hPa 0,0 l/m 10,0 km/h (2 Bft) W-SW 253 10,1 C 15,7 km/h (3 Bft) 100 %
13.09.2017 18:07 15,4 C 70 % 999,2 hPa 0,0 l/m 10,4 km/h (2 Bft) W 261 10,0 C 18,8 km/h (3 Bft) 100 %
13.09.2017 18:08 15,4 C 70 % 999,3 hPa 0,0 l/m 7,8 km/h (2 Bft) W-NW 290 10,0 C 18,8 km/h (3 Bft) 100 %
13.09.2017 18:09 15,4 C 70 % 999,3 hPa 0,0 l/m 16,0 km/h (3 Bft) SW 224 10,0 C 43,9 km/h (6 Bft) 100 %
13.09.2017 18:10 15,3 C 70 % 999,2 hPa 0,0 l/m 13,7 km/h (3 Bft) W 271 9,9 C 18,8 km/h (3 Bft) 100 %
13.09.2017 18:11 15,3 C 69 % 999,3 hPa 0,0 l/m 16,2 km/h (3 Bft) SW 221 9,6 C 25,1 km/h (4 Bft) 100 %
13.09.2017 18:12 15,3 C 69 % 999,2 hPa 0,0 l/m 11,6 km/h (2 Bft) W-SW 255 9,6 C 18,8 km/h (3 Bft) 100 %
13.09.2017 18:13 15,3 C 69 % 999,2 hPa 0,0 l/m 19,7 km/h (3 Bft) W-SW 246 9,6 C 34,5 km/h (5 Bft) 100 %
13.09.2017 18:14 15,2 C 69 % 999,1 hPa 0,0 l/m 15,7 km/h (3 Bft) NW 323 9,6 C 37,7 km/h (5 Bft) 99 %
13.09.2017 18:15 15,2 C 69 % 999,2 hPa 0,0 l/m 8,2 km/h (2 Bft) W-NW 293 9,6 C 18,8 km/h (3 Bft) 100 %
13.09.2017 18:16 15,2 C 69 % 999,1 hPa 0,0 l/m 13,0 km/h (3 Bft) NW 325 9,6 C 22,0 km/h (4 Bft) 100 %
13.09.2017 18:17 15,2 C 70 % 999,1 hPa 0,0 l/m 11,9 km/h (2 Bft) W 281 9,8 C 34,5 km/h (5 Bft) 100 %
13.09.2017 18:18 15,1 C 69 % 999,1 hPa 0,0 l/m 17,9 km/h (3 Bft) W-NW 288 9,5 C 34,5 km/h (5 Bft) 100 %
13.09.2017 18:19 15,1 C 69 % 999,2 hPa 0,0 l/m 18,7 km/h (3 Bft) NW 305 9,5 C 53,3 km/h (7 Bft) 100 %
13.09.2017 18:20 15,1 C 69 % 999,3 hPa 0,0 l/m 15,6 km/h (3 Bft) W 266 9,5 C 25,1 km/h (4 Bft) 100 %
13.09.2017 18:21 15,1 C 69 % 999,3 hPa 0,0 l/m 16,9 km/h (3 Bft) SW 236 9,5 C 28,2 km/h (4 Bft) 100 %
13.09.2017 18:22 15,1 C 70 % 999,3 hPa 0,0 l/m 11,4 km/h (2 Bft) W-SW 257 9,7 C 18,8 km/h (3 Bft) 100 %
13.09.2017 18:23 15,1 C 68 % 999,2 hPa 0,0 l/m 22,0 km/h (4 Bft) S 188 9,2 C 34,5 km/h (5 Bft) 100 %
13.09.2017 18:24 15,1 C 69 % 999,2 hPa 0,0 l/m 12,9 km/h (3 Bft) W-NW 297 9,5 C 22,0 km/h (4 Bft) 100 %
13.09.2017 18:25 15,0 C 69 % 999,4 hPa 0,0 l/m 11,8 km/h (2 Bft) W-SW 241 9,4 C 25,1 km/h (4 Bft) 100 %
13.09.2017 18:26 15,1 C 69 % 999,4 hPa 0,0 l/m 9,4 km/h (2 Bft) SO 146 9,5 C 18,8 km/h (3 Bft) 100 %
13.09.2017 18:27 15,1 C 70 % 999,4 hPa 0,0 l/m 9,4 km/h (2 Bft) W-NW 288 9,7 C 15,7 km/h (3 Bft) 100 %
13.09.2017 18:28 15,2 C 70 % 999,3 hPa 0,0 l/m 7,5 km/h (2 Bft) S-SW 212 9,8 C 25,1 km/h (4 Bft) 100 %
13.09.2017 18:29 15,2 C 69 % 999,3 hPa 0,0 l/m 12,4 km/h (3 Bft) SO 125 9,6 C 28,2 km/h (4 Bft) 100 %
13.09.2017 18:30 15,3 C 69 % 999,3 hPa 0,0 l/m 15,0 km/h (3 Bft) S-SW 192 9,6 C 40,8 km/h (6 Bft) 100 %
13.09.2017 18:31 15,4 C 68 % 999,3 hPa 0,0 l/m 14,3 km/h (3 Bft) O-SO 120 9,5 C 34,5 km/h (5 Bft) 100 %
13.09.2017 18:32 15,4 C 67 % 999,3 hPa 0,0 l/m 14,5 km/h (3 Bft) W-NW 302 9,3 C 25,1 km/h (4 Bft) 100 %
13.09.2017 18:33 15,5 C 68 % 999,4 hPa 0,0 l/m 9,4 km/h (2 Bft) SW 225 9,6 C 12,6 km/h (3 Bft) 100 %
13.09.2017 18:34 15,6 C 68 % 999,3 hPa 0,0 l/m 11,5 km/h (2 Bft) NW 319 9,7 C 15,7 km/h (3 Bft) 100 %
13.09.2017 18:35 15,6 C 68 % 999,3 hPa 0,0 l/m 16,4 km/h (3 Bft) S-SW 205 9,7 C 28,2 km/h (4 Bft) 100 %
13.09.2017 18:36 15,6 C 67 % 999,3 hPa 0,0 l/m 13,6 km/h (3 Bft) W-SW 240 9,5 C 22,0 km/h (4 Bft) 100 %
13.09.2017 18:37 15,6 C 67 % 999,3 hPa 0,0 l/m 8,9 km/h (2 Bft) S-SW 203 9,5 C 28,2 km/h (4 Bft) 100 %
13.09.2017 18:38 15,6 C 66 % 999,3 hPa 0,0 l/m 17,3 km/h (3 Bft) W-SW 250 9,3 C 25,1 km/h (4 Bft) 100 %
13.09.2017 18:39 15,6 C 67 % 999,3 hPa 0,0 l/m 16,0 km/h (3 Bft) O-NO 70 9,5 C 25,1 km/h (4 Bft) 100 %
13.09.2017 18:40 15,6 C 67 % 999,3 hPa 0,0 l/m 9,3 km/h (2 Bft) N 351 9,5 C 18,8 km/h (3 Bft) 100 %
13.09.2017 18:41 15,6 C 67 % 999,3 hPa 0,0 l/m 12,0 km/h (2 Bft) W 259 9,5 C 25,1 km/h (4 Bft) 100 %
13.09.2017 18:42 15,5 C 67 % 999,2 hPa 0,0 l/m 18,7 km/h (3 Bft) S-SW 202 9,4 C 31,4 km/h (5 Bft) 100 %
13.09.2017 18:43 15,5 C 67 % 999,3 hPa 0,0 l/m 16,0 km/h (3 Bft) S-SW 203 9,4 C 34,5 km/h (5 Bft) 100 %
13.09.2017 18:44 15,5 C 67 % 999,3 hPa 0,0 l/m 10,4 km/h (2 Bft) W 276 9,4 C 18,8 km/h (3 Bft) 100 %
13.09.2017 18:45 15,4 C 67 % 999,3 hPa 0,0 l/m 13,1 km/h (3 Bft) W 268 9,3 C 28,2 km/h (4 Bft) 100 %
13.09.2017 18:46 15,4 C 67 % 999,3 hPa 0,0 l/m 9,6 km/h (2 Bft) SW 227 9,3 C 15,7 km/h (3 Bft) 100 %
13.09.2017 18:47 15,4 C 67 % 999,3 hPa 0,0 l/m 13,8 km/h (3 Bft) W 276 9,3 C 25,1 km/h (4 Bft) 100 %
13.09.2017 18:48 15,4 C 68 % 999,3 hPa 0,0 l/m 11,2 km/h (2 Bft) NW 309 9,5 C 25,1 km/h (4 Bft) 100 %
13.09.2017 18:49 15,4 C 68 % 999,2 hPa 0,0 l/m 8,5 km/h (2 Bft) S-SW 197 9,5 C 15,7 km/h (3 Bft) 100 %
13.09.2017 18:50 15,4 C 69 % 999,3 hPa 0,0 l/m 8,8 km/h (2 Bft) W 260 9,7 C 15,7 km/h (3 Bft) 100 %
13.09.2017 18:51 15,4 C 68 % 999,2 hPa 0,0 l/m 14,6 km/h (3 Bft) W-SW 243 9,5 C 25,1 km/h (4 Bft) 100 %
13.09.2017 18:52 15,4 C 68 % 999,3 hPa 0,0 l/m 8,3 km/h (2 Bft) N-NW 346 9,5 C 15,7 km/h (3 Bft) 96 %
13.09.2017 18:53 15,4 C 68 % 999,2 hPa 0,0 l/m 13,3 km/h (3 Bft) S 171 9,5 C 31,4 km/h (5 Bft) 100 %
13.09.2017 18:54 15,3 C 68 % 999,2 hPa 0,0 l/m 9,9 km/h (2 Bft) W-SW 253 9,4 C 18,8 km/h (3 Bft) 100 %
13.09.2017 18:55 15,3 C 69 % 999,2 hPa 0,0 l/m 6,0 km/h (2 Bft) W-NW 293 9,6 C 12,6 km/h (3 Bft) 96 %
13.09.2017 18:56 15,3 C 69 % 999,2 hPa 0,0 l/m 5,5 km/h (1 Bft) W-NW 284 9,6 C 12,6 km/h (3 Bft) 100 %
13.09.2017 18:57 15,3 C 69 % 999,2 hPa 0,0 l/m 7,6 km/h (2 Bft) NW 312 9,6 C 15,7 km/h (3 Bft) 96 %
13.09.2017 18:58 15,3 C 69 % 999,2 hPa 0,0 l/m 8,4 km/h (2 Bft) O 91 9,6 C 15,7 km/h (3 Bft) 96 %
13.09.2017 18:59 15,3 C 69 % 999,2 hPa 0,0 l/m 7,2 km/h (2 Bft) W-NW 297 9,6 C 18,8 km/h (3 Bft) 100 %
13.09.2017 19:00 15,2 C 69 % 999,1 hPa 0,0 l/m 11,0 km/h (2 Bft) W-NW 289 9,6 C 22,0 km/h (4 Bft) 96 %
13.09.2017 19:01 15,2 C 69 % 999,1 hPa 0,0 l/m 11,4 km/h (2 Bft) S-SO 156 9,6 C 22,0 km/h (4 Bft) 100 %
13.09.2017 19:02 15,2 C 69 % 999,1 hPa 0,0 l/m 15,2 km/h (3 Bft) N-NO 18 9,6 C 28,2 km/h (4 Bft) 96 %
13.09.2017 19:03 15,1 C 69 % 999,1 hPa 0,0 l/m 14,3 km/h (3 Bft) N-NW 330 9,5 C 22,0 km/h (4 Bft) 100 %
13.09.2017 19:04 15,1 C 69 % 999,2 hPa 0,0 l/m 13,6 km/h (3 Bft) W-NW 300 9,5 C 28,2 km/h (4 Bft) 96 %
13.09.2017 19:05 15,1 C 69 % 999,1 hPa 0,0 l/m 8,8 km/h (2 Bft) SW 222 9,5 C 22,0 km/h (4 Bft) 100 %
13.09.2017 19:06 15,0 C 69 % 999,0 hPa 0,0 l/m 8,5 km/h (2 Bft) NW 314 9,4 C 18,8 km/h (3 Bft) 100 %
13.09.2017 19:07 15,0 C 70 % 999,1 hPa 0,0 l/m 7,4 km/h (2 Bft) W-SW 237 9,6 C 12,6 km/h (3 Bft) 100 %
13.09.2017 19:08 14,9 C 70 % 999,0 hPa 0,0 l/m 11,5 km/h (2 Bft) W 280 9,5 C 18,8 km/h (3 Bft) 100 %
13.09.2017 19:09 14,9 C 70 % 999,0 hPa 0,0 l/m 13,6 km/h (3 Bft) S-SW 212 9,5 C 37,7 km/h (5 Bft) 100 %
13.09.2017 19:10 14,9 C 70 % 999,0 hPa 0,0 l/m 7,5 km/h (2 Bft) W-SW 253 9,5 C 15,7 km/h (3 Bft) 100 %
13.09.2017 19:11 14,8 C 70 % 999,0 hPa 0,0 l/m 11,8 km/h (2 Bft) W-SW 238 9,4 C 34,5 km/h (5 Bft) 100 %
13.09.2017 19:12 14,7 C 70 % 999,1 hPa 0,0 l/m 10,3 km/h (2 Bft) W-SW 255 9,3 C 22,0 km/h (4 Bft) 100 %
13.09.2017 19:13 14,7 C 70 % 999,1 hPa 0,0 l/m 9,6 km/h (2 Bft) SW 228 9,3 C 15,7 km/h (3 Bft) 100 %
13.09.2017 19:14 14,6 C 71 % 999,1 hPa 0,0 l/m 9,6 km/h (2 Bft) SW 224 9,4 C 15,7 km/h (3 Bft) 100 %
13.09.2017 19:15 14,5 C 71 % 999,2 hPa 0,0 l/m 8,4 km/h (2 Bft) W-NW 295 9,3 C 31,4 km/h (5 Bft) 100 %
13.09.2017 19:16 14,4 C 71 % 999,3 hPa 0,0 l/m 6,1 km/h (2 Bft) W-NW 289 9,2 C 18,8 km/h (3 Bft) 100 %
13.09.2017 19:17 14,4 C 71 % 999,3 hPa 0,0 l/m 11,4 km/h (2 Bft) W-SW 242 9,2 C 25,1 km/h (4 Bft) 100 %
13.09.2017 19:18 14,3 C 72 % 999,3 hPa 0,0 l/m 5,3 km/h (1 Bft) N 353 9,3 C 12,6 km/h (3 Bft) 100 %
13.09.2017 19:19 14,2 C 72 % 999,3 hPa 0,0 l/m 8,2 km/h (2 Bft) W-NW 287 9,2 C 15,7 km/h (3 Bft) 100 %
13.09.2017 19:20 14,2 C 72 % 999,3 hPa 0,0 l/m 11,6 km/h (2 Bft) W 261 9,2 C 22,0 km/h (4 Bft) 100 %
13.09.2017 19:21 14,1 C 73 % 999,3 hPa 0,0 l/m 6,3 km/h (2 Bft) W-SW 243 9,3 C 12,6 km/h (3 Bft) 100 %
13.09.2017 19:22 14,1 C 73 % 999,4 hPa 0,0 l/m 7,8 km/h (2 Bft) W 267 9,3 C 12,6 km/h (3 Bft) 100 %
13.09.2017 19:23 14,0 C 73 % 999,3 hPa 0,0 l/m 9,4 km/h (2 Bft) W 274 9,2 C 18,8 km/h (3 Bft) 100 %
13.09.2017 19:24 13,9 C 74 % 999,3 hPa 0,0 l/m 10,5 km/h (2 Bft) SW 221 9,3 C 18,8 km/h (3 Bft) 100 %
13.09.2017 19:25 13,9 C 74 % 999,4 hPa 0,0 l/m 4,9 km/h (1 Bft) W-SW 257 9,3 C 18,8 km/h (3 Bft) 100 %
13.09.2017 19:26 13,9 C 75 % 999,5 hPa 0,0 l/m 10,4 km/h (2 Bft) S 176 9,5 C 18,8 km/h (3 Bft) 100 %
13.09.2017 19:27 13,8 C 75 % 999,4 hPa 0,0 l/m 8,8 km/h (2 Bft) W 264 9,4 C 25,1 km/h (4 Bft) 100 %
13.09.2017 19:28 13,8 C 75 % 999,4 hPa 0,0 l/m 13,9 km/h (3 Bft) W-SW 245 9,4 C 25,1 km/h (4 Bft) 100 %
13.09.2017 19:29 13,8 C 75 % 999,4 hPa 0,0 l/m 12,7 km/h (3 Bft) W-NW 297 9,4 C 18,8 km/h (3 Bft) 100 %
13.09.2017 19:30 13,8 C 75 % 999,4 hPa 0,0 l/m 15,7 km/h (3 Bft) NW 308 9,4 C 28,2 km/h (4 Bft) 100 %
13.09.2017 19:31 13,8 C 75 % 999,3 hPa 0,0 l/m 8,1 km/h (2 Bft) W-NW 283 9,4 C 12,6 km/h (3 Bft) 100 %
13.09.2017 19:32 13,8 C 75 % 999,4 hPa 0,0 l/m 16,2 km/h (3 Bft) SW 223 9,4 C 34,5 km/h (5 Bft) 100 %
13.09.2017 19:33 13,7 C 75 % 999,5 hPa 0,0 l/m 9,3 km/h (2 Bft) S-SW 200 9,3 C 15,7 km/h (3 Bft) 100 %
13.09.2017 19:34 13,7 C 75 % 999,4 hPa 0,0 l/m 9,0 km/h (2 Bft) W-SW 252 9,3 C 31,4 km/h (5 Bft) 100 %
13.09.2017 19:35 13,7 C 75 % 999,4 hPa 0,0 l/m 12,6 km/h (3 Bft) SW 219 9,3 C 22,0 km/h (4 Bft) 100 %
13.09.2017 19:36 13,7 C 75 % 999,4 hPa 0,0 l/m 16,6 km/h (3 Bft) W 271 9,3 C 31,4 km/h (5 Bft) 100 %
13.09.2017 19:37 13,7 C 75 % 999,5 hPa 0,0 l/m 11,4 km/h (2 Bft) W-NW 282 9,3 C 18,8 km/h (3 Bft) 100 %
13.09.2017 19:38 13,7 C 75 % 999,5 hPa 0,0 l/m 10,6 km/h (2 Bft) SW 236 9,3 C 18,8 km/h (3 Bft) 100 %
13.09.2017 19:39 13,7 C 75 % 999,5 hPa 0,0 l/m 7,8 km/h (2 Bft) SW 220 9,3 C 22,0 km/h (4 Bft) 100 %
13.09.2017 19:40 13,7 C 75 % 999,5 hPa 0,0 l/m 6,6 km/h (2 Bft) S 191 9,3 C 12,6 km/h (3 Bft) 100 %
13.09.2017 19:41 13,7 C 75 % 999,5 hPa 0,0 l/m 16,9 km/h (3 Bft) SW 231 9,3 C 25,1 km/h (4 Bft) 100 %
13.09.2017 19:42 13,7 C 75 % 999,5 hPa 0,0 l/m 14,2 km/h (3 Bft) SW 221 9,3 C 25,1 km/h (4 Bft) 100 %
13.09.2017 19:43 13,7 C 75 % 999,6 hPa 0,0 l/m 11,3 km/h (2 Bft) W-SW 255 9,3 C 37,7 km/h (5 Bft) 100 %
13.09.2017 19:44 13,7 C 75 % 999,7 hPa 0,0 l/m 16,0 km/h (3 Bft) W-SW 255 9,3 C 31,4 km/h (5 Bft) 100 %
13.09.2017 19:45 13,7 C 74 % 999,6 hPa 0,0 l/m 12,7 km/h (3 Bft) SW 214 9,2 C 22,0 km/h (4 Bft) 100 %
13.09.2017 19:46 13,7 C 75 % 999,6 hPa 0,0 l/m 7,1 km/h (2 Bft) W-SW 249 9,3 C 12,6 km/h (3 Bft) 100 %
13.09.2017 19:47 13,7 C 75 % 999,7 hPa 0,0 l/m 5,2 km/h (1 Bft) W-SW 258 9,3 C 15,7 km/h (3 Bft) 100 %
13.09.2017 19:48 13,7 C 74 % 999,7 hPa 0,0 l/m 13,4 km/h (3 Bft) N 5 9,2 C 28,2 km/h (4 Bft) 100 %
13.09.2017 19:49 13,7 C 74 % 999,5 hPa 0,0 l/m 7,1 km/h (2 Bft) W-SW 243 9,2 C 22,0 km/h (4 Bft) 100 %
13.09.2017 19:50 13,7 C 74 % 999,5 hPa 0,0 l/m 9,9 km/h (2 Bft) W-NW 291 9,2 C 22,0 km/h (4 Bft) 100 %
13.09.2017 19:51 13,7 C 74 % 999,6 hPa 0,0 l/m 6,3 km/h (2 Bft) W-SW 254 9,2 C 12,6 km/h (3 Bft) 100 %
13.09.2017 19:52 13,7 C 74 % 999,6 hPa 0,0 l/m 13,3 km/h (3 Bft) W 274 9,2 C 28,2 km/h (4 Bft) 100 %
13.09.2017 19:53 13,7 C 74 % 999,5 hPa 0,0 l/m 12,6 km/h (3 Bft) W 280 9,2 C 25,1 km/h (4 Bft) 100 %
13.09.2017 19:54 13,7 C 74 % 999,5 hPa 0,0 l/m 7,1 km/h (2 Bft) W-SW 239 9,2 C 15,7 km/h (3 Bft) 96 %
13.09.2017 19:55 13,7 C 74 % 999,5 hPa 0,0 l/m 9,7 km/h (2 Bft) S-SW 209 9,2 C 25,1 km/h (4 Bft) 100 %
13.09.2017 19:56 13,7 C 74 % 999,4 hPa 0,0 l/m 10,3 km/h (2 Bft) NW 316 9,2 C 25,1 km/h (4 Bft) 100 %
13.09.2017 19:57 13,7 C 74 % 999,4 hPa 0,0 l/m 9,7 km/h (2 Bft) W-SW 255 9,2 C 31,4 km/h (5 Bft) 100 %
13.09.2017 19:58 13,7 C 74 % 999,4 hPa 0,0 l/m 8,3 km/h (2 Bft) N 352 9,2 C 22,0 km/h (4 Bft) 96 %
13.09.2017 19:59 13,6 C 75 % 999,3 hPa 0,0 l/m 12,3 km/h (3 Bft) W-NW 288 9,3 C 25,1 km/h (4 Bft) 100 %
13.09.2017 20:00 13,6 C 75 % 999,4 hPa 0,0 l/m 11,8 km/h (2 Bft) NW 306 9,3 C 28,2 km/h (4 Bft) 96 %
13.09.2017 20:01 13,6 C 75 % 999,4 hPa 0,0 l/m 14,8 km/h (3 Bft) NW 319 9,3 C 22,0 km/h (4 Bft) 96 %
13.09.2017 20:02 13,6 C 75 % 999,3 hPa 0,0 l/m 15,2 km/h (3 Bft) W 264 9,3 C 28,2 km/h (4 Bft) 100 %
13.09.2017 20:03 13,6 C 75 % 999,4 hPa 0,0 l/m 4,1 km/h (1 Bft) SW 231 9,3 C 12,6 km/h (3 Bft) 93 %
13.09.2017 20:04 13,6 C 75 % 999,4 hPa 0,0 l/m 7,4 km/h (2 Bft) W-NW 288 9,3 C 25,1 km/h (4 Bft) 100 %
13.09.2017 20:05 13,6 C 75 % 999,4 hPa 0,0 l/m 6,8 km/h (2 Bft) NW 307 9,3 C 15,7 km/h (3 Bft) 96 %
13.09.2017 20:06 13,6 C 75 % 999,4 hPa 0,0 l/m 3,7 km/h (1 Bft) W-NW 303 9,3 C 12,6 km/h (3 Bft) 100 %
13.09.2017 20:07 13,5 C 75 % 999,5 hPa 0,0 l/m 7,6 km/h (2 Bft) NW 307 9,2 C 12,6 km/h (3 Bft) 96 %
13.09.2017 20:08 13,5 C 75 % 999,4 hPa 0,0 l/m 3,9 km/h (1 Bft) SW 231 9,2 C 9,4 km/h (2 Bft) 100 %
13.09.2017 20:09 13,5 C 75 % 999,4 hPa 0,0 l/m 7,2 km/h (2 Bft) W-NW 283 9,2 C 9,4 km/h (2 Bft) 100 %
13.09.2017 20:10 13,4 C 75 % 999,4 hPa 0,0 l/m 6,1 km/h (2 Bft) W-SW 237 9,1 C 12,6 km/h (3 Bft) 100 %
13.09.2017 20:11 13,4 C 76 % 999,5 hPa 0,0 l/m 9,7 km/h (2 Bft) W-SW 251 9,3 C 18,8 km/h (3 Bft) 100 %
13.09.2017 20:12 13,4 C 76 % 999,4 hPa 0,0 l/m 4,2 km/h (1 Bft) W-SW 253 9,3 C 9,4 km/h (2 Bft) 100 %
13.09.2017 20:13 13,4 C 76 % 999,3 hPa 0,0 l/m 1,8 km/h (1 Bft) SW 236 9,3 C 6,3 km/h (2 Bft) 100 %
13.09.2017 20:14 13,3 C 76 % 999,3 hPa 0,0 l/m 6,9 km/h (2 Bft) S-SO 165 9,2 C 9,4 km/h (2 Bft) 100 %
13.09.2017 20:15 13,3 C 76 % 999,3 hPa 0,0 l/m 4,8 km/h (1 Bft) N-NW 338 9,2 C 12,6 km/h (3 Bft) 100 %
13.09.2017 20:16 13,3 C 76 % 999,3 hPa 0,0 l/m 1,6 km/h (1 Bft) S-SW 212 9,2 C 3,1 km/h (1 Bft) 100 %
13.09.2017 20:17 13,3 C 76 % 999,2 hPa 0,0 l/m 5,8 km/h (2 Bft) SW 229 9,2 C 12,6 km/h (3 Bft) 100 %
13.09.2017 20:18 13,2 C 76 % 999,2 hPa 0,0 l/m 7,7 km/h (2 Bft) W 276 9,1 C 15,7 km/h (3 Bft) 100 %
13.09.2017 20:19 13,2 C 76 % 999,3 hPa 0,0 l/m 5,9 km/h (2 Bft) SW 231 9,1 C 12,6 km/h (3 Bft) 100 %
13.09.2017 20:20 13,2 C 76 % 999,3 hPa 0,0 l/m 7,6 km/h (2 Bft) SW 227 9,1 C 12,6 km/h (3 Bft) 100 %
13.09.2017 20:21 13,2 C 76 % 999,3 hPa 0,0 l/m 8,0 km/h (2 Bft) W-NW 302 9,1 C 15,7 km/h (3 Bft) 100 %
13.09.2017 20:22 13,2 C 76 % 999,3 hPa 0,0 l/m 7,5 km/h (2 Bft) SW 231 9,1 C 15,7 km/h (3 Bft) 100 %
13.09.2017 20:23 13,2 C 76 % 999,4 hPa 0,0 l/m 6,9 km/h (2 Bft) W 276 9,1 C 18,8 km/h (3 Bft) 100 %
13.09.2017 20:24 13,2 C 76 % 999,4 hPa 0,0 l/m 7,0 km/h (2 Bft) W-NW 291 9,1 C 12,6 km/h (3 Bft) 100 %
13.09.2017 20:25 13,1 C 76 % 999,4 hPa 0,0 l/m 5,2 km/h (1 Bft) W-SW 251 9,0 C 15,7 km/h (3 Bft) 100 %
13.09.2017 20:26 13,1 C 77 % 999,4 hPa 0,0 l/m 5,2 km/h (1 Bft) W 271 9,2 C 9,4 km/h (2 Bft) 100 %
13.09.2017 20:27 13,1 C 77 % 999,5 hPa 0,0 l/m 2,2 km/h (1 Bft) W-SW 240 9,2 C 6,3 km/h (2 Bft) 100 %
13.09.2017 20:28 13,1 C 76 % 999,5 hPa 0,0 l/m 1,0 km/h (0 Bft) N-NW 333 9,0 C 9,4 km/h (2 Bft) 100 %
13.09.2017 20:29 13,0 C 77 % 999,5 hPa 0,0 l/m 5,9 km/h (2 Bft) W-SW 243 9,1 C 22,0 km/h (4 Bft) 100 %
13.09.2017 20:30 13,0 C 76 % 999,5 hPa 0,0 l/m 7,5 km/h (2 Bft) S-SW 207 8,9 C 12,6 km/h (3 Bft) 100 %
13.09.2017 20:31 12,9 C 77 % 999,5 hPa 0,0 l/m 4,0 km/h (1 Bft) O-SO 102 9,0 C 9,4 km/h (2 Bft) 100 %
13.09.2017 20:32 12,9 C 77 % 999,4 hPa 0,0 l/m 6,1 km/h (2 Bft) S-SW 193 9,0 C 12,6 km/h (3 Bft) 100 %
13.09.2017 20:33 12,9 C 77 % 999,4 hPa 0,0 l/m 4,3 km/h (1 Bft) N-NW 327 9,0 C 9,4 km/h (2 Bft) 100 %
13.09.2017 20:34 12,9 C 76 % 999,4 hPa 0,0 l/m 7,0 km/h (2 Bft) W 273 8,8 C 12,6 km/h (3 Bft) 100 %
13.09.2017 20:35 12,9 C 77 % 999,5 hPa 0,0 l/m 5,7 km/h (1 Bft) SW 217 9,0 C 15,7 km/h (3 Bft) 100 %
13.09.2017 20:36 12,9 C 76 % 999,5 hPa 0,0 l/m 11,2 km/h (2 Bft) W-SW 239 8,8 C 22,0 km/h (4 Bft) 100 %
13.09.2017 20:37 12,9 C 76 % 999,6 hPa 0,0 l/m 9,1 km/h (2 Bft) W 272 8,8 C 12,6 km/h (3 Bft) 100 %
13.09.2017 20:38 12,9 C 76 % 999,5 hPa 0,0 l/m 10,2 km/h (2 Bft) W 278 8,8 C 18,8 km/h (3 Bft) 100 %
13.09.2017 20:39 12,9 C 76 % 999,5 hPa 0,0 l/m 10,8 km/h (2 Bft) N 356 8,8 C 15,7 km/h (3 Bft) 100 %
13.09.2017 20:40 12,9 C 76 % 999,6 hPa 0,0 l/m 10,2 km/h (2 Bft) SW 223 8,8 C 15,7 km/h (3 Bft) 100 %
13.09.2017 20:41 13,0 C 76 % 999,5 hPa 0,0 l/m 6,3 km/h (2 Bft) W-NW 302 8,9 C 12,6 km/h (3 Bft) 100 %
13.09.2017 20:42 13,0 C 76 % 999,5 hPa 0,0 l/m 9,2 km/h (2 Bft) W-NW 295 8,9 C 18,8 km/h (3 Bft) 100 %
13.09.2017 20:43 13,0 C 76 % 999,5 hPa 0,0 l/m 8,6 km/h (2 Bft) W 276 8,9 C 15,7 km/h (3 Bft) 100 %
13.09.2017 20:44 13,0 C 76 % 999,5 hPa 0,0 l/m 8,9 km/h (2 Bft) W-SW 248 8,9 C 25,1 km/h (4 Bft) 100 %
13.09.2017 20:45 13,0 C 76 % 999,5 hPa 0,0 l/m 8,2 km/h (2 Bft) NW 306 8,9 C 18,8 km/h (3 Bft) 100 %
13.09.2017 20:46 13,0 C 76 % 999,5 hPa 0,0 l/m 8,0 km/h (2 Bft) W-NW 290 8,9 C 9,4 km/h (2 Bft) 100 %
13.09.2017 20:47 13,0 C 76 % 999,4 hPa 0,0 l/m 5,5 km/h (1 Bft) W-SW 247 8,9 C 18,8 km/h (3 Bft) 100 %
13.09.2017 20:48 13,0 C 76 % 999,5 hPa 0,0 l/m 11,1 km/h (2 Bft) NW 308 8,9 C 18,8 km/h (3 Bft) 100 %
13.09.2017 20:49 13,1 C 76 % 999,4 hPa 0,0 l/m 5,8 km/h (2 Bft) SW 229 9,0 C 15,7 km/h (3 Bft) 100 %
13.09.2017 20:50 13,1 C 76 % 999,5 hPa 0,0 l/m 6,1 km/h (2 Bft) N 354 9,0 C 15,7 km/h (3 Bft) 100 %
13.09.2017 20:51 13,1 C 76 % 999,4 hPa 0,0 l/m 8,1 km/h (2 Bft) W 275 9,0 C 15,7 km/h (3 Bft) 100 %
13.09.2017 20:52 13,1 C 76 % 999,5 hPa 0,0 l/m 7,1 km/h (2 Bft) SW 226 9,0 C 12,6 km/h (3 Bft) 100 %
13.09.2017 20:53 13,1 C 76 % 999,5 hPa 0,0 l/m 10,0 km/h (2 Bft) SW 220 9,0 C 25,1 km/h (4 Bft) 100 %
13.09.2017 20:54 13,1 C 76 % 999,5 hPa 0,0 l/m 8,2 km/h (2 Bft) W 268 9,0 C 15,7 km/h (3 Bft) 100 %
13.09.2017 20:55 13,1 C 76 % 999,5 hPa 0,0 l/m 5,9 km/h (2 Bft) W-SW 241 9,0 C 12,6 km/h (3 Bft) 100 %
13.09.2017 20:56 13,1 C 76 % 999,5 hPa 0,0 l/m 6,9 km/h (2 Bft) NW 316 9,0 C 15,7 km/h (3 Bft) 100 %
13.09.2017 20:57 13,1 C 77 % 999,5 hPa 0,0 l/m 4,7 km/h (1 Bft) W-SW 254 9,2 C 15,7 km/h (3 Bft) 100 %
13.09.2017 20:58 13,1 C 76 % 999,5 hPa 0,0 l/m 9,4 km/h (2 Bft) W 274 9,0 C 18,8 km/h (3 Bft) 100 %
13.09.2017 20:59 13,1 C 77 % 999,4 hPa 0,0 l/m 11,2 km/h (2 Bft) SW 233 9,2 C 18,8 km/h (3 Bft) 100 %
13.09.2017 21:00 13,1 C 77 % 999,4 hPa 0,0 l/m 7,6 km/h (2 Bft) W-NW 286 9,2 C 18,8 km/h (3 Bft) 97 %
13.09.2017 21:01 13,1 C 77 % 999,4 hPa 0,0 l/m 7,7 km/h (2 Bft) W-NW 297 9,2 C 12,6 km/h (3 Bft) 96 %
13.09.2017 21:02 13,1 C 77 % 999,5 hPa 0,0 l/m 5,1 km/h (1 Bft) NW 312 9,2 C 12,6 km/h (3 Bft) 100 %
13.09.2017 21:03 13,1 C 77 % 999,5 hPa 0,0 l/m 9,1 km/h (2 Bft) W 274 9,2 C 12,6 km/h (3 Bft) 100 %
13.09.2017 21:04 13,1 C 77 % 999,5 hPa 0,0 l/m 9,7 km/h (2 Bft) W-NW 290 9,2 C 25,1 km/h (4 Bft) 100 %
13.09.2017 21:05 13,0 C 77 % 999,5 hPa 0,0 l/m 9,0 km/h (2 Bft) SW 230 9,1 C 18,8 km/h (3 Bft) 93 %
13.09.2017 21:06 13,0 C 77 % 999,6 hPa 0,0 l/m 9,7 km/h (2 Bft) NW 310 9,1 C 22,0 km/h (4 Bft) 100 %
13.09.2017 21:07 13,0 C 77 % 999,6 hPa 0,0 l/m 7,5 km/h (2 Bft) W 270 9,1 C 12,6 km/h (3 Bft) 100 %
13.09.2017 21:08 13,0 C 78 % 999,6 hPa 0,0 l/m 8,6 km/h (2 Bft) W-NW 290 9,3 C 12,6 km/h (3 Bft) 96 %
13.09.2017 21:09 13,0 C 78 % 999,5 hPa 0,0 l/m 10,6 km/h (2 Bft) W-NW 295 9,3 C 22,0 km/h (4 Bft) 96 %
13.09.2017 21:10 13,1 C 78 % 999,5 hPa 0,0 l/m 10,0 km/h (2 Bft) NW 304 9,4 C 22,0 km/h (4 Bft) 100 %
13.09.2017 21:11 13,1 C 78 % 999,5 hPa 0,0 l/m 13,8 km/h (3 Bft) W-NW 295 9,4 C 18,8 km/h (3 Bft) 93 %
13.09.2017 21:12 13,1 C 78 % 999,5 hPa 0,0 l/m 12,8 km/h (3 Bft) SW 229 9,4 C 22,0 km/h (4 Bft) 100 %
13.09.2017 21:13 13,1 C 78 % 999,6 hPa 0,0 l/m 7,2 km/h (2 Bft) S-SW 200 9,4 C 15,7 km/h (3 Bft) 96 %
13.09.2017 21:14 13,1 C 78 % 999,5 hPa 0,0 l/m 14,0 km/h (3 Bft) W-SW 250 9,4 C 28,2 km/h (4 Bft) 100 %
13.09.2017 21:15 13,1 C 78 % 999,5 hPa 0,0 l/m 9,8 km/h (2 Bft) S-SW 202 9,4 C 18,8 km/h (3 Bft) 96 %
13.09.2017 21:16 13,1 C 78 % 999,5 hPa 0,0 l/m 7,7 km/h (2 Bft) W 276 9,4 C 15,7 km/h (3 Bft) 100 %
13.09.2017 21:17 13,1 C 78 % 999,5 hPa 0,0 l/m 10,5 km/h (2 Bft) W-SW 243 9,4 C 15,7 km/h (3 Bft) 96 %
13.09.2017 21:18 13,1 C 78 % 999,5 hPa 0,0 l/m 8,5 km/h (2 Bft) W 274 9,4 C 9,4 km/h (2 Bft) 100 %
13.09.2017 21:19 13,1 C 78 % 999,5 hPa 0,0 l/m 7,3 km/h (2 Bft) SW 226 9,4 C 18,8 km/h (3 Bft) 100 %
13.09.2017 21:20 13,1 C 78 % 999,5 hPa 0,0 l/m 9,9 km/h (2 Bft) W-NW 295 9,4 C 25,1 km/h (4 Bft) 100 %
13.09.2017 21:21 13,1 C 78 % 999,5 hPa 0,0 l/m 14,9 km/h (3 Bft) S-SW 201 9,4 C 18,8 km/h (3 Bft) 100 %
13.09.2017 21:22 13,1 C 78 % 999,5 hPa 0,0 l/m 12,4 km/h (3 Bft) W 271 9,4 C 18,8 km/h (3 Bft) 100 %
13.09.2017 21:23 13,1 C 78 % 999,4 hPa 0,0 l/m 8,0 km/h (2 Bft) W-SW 244 9,4 C 18,8 km/h (3 Bft) 100 %
13.09.2017 21:24 13,1 C 78 % 999,4 hPa 0,0 l/m 5,4 km/h (1 Bft) NW 323 9,4 C 9,4 km/h (2 Bft) 100 %
13.09.2017 21:25 13,1 C 78 % 999,3 hPa 0,0 l/m 17,7 km/h (3 Bft) W-NW 291 9,4 C 34,5 km/h (5 Bft) 100 %
13.09.2017 21:26 13,1 C 78 % 999,3 hPa 0,0 l/m 8,0 km/h (2 Bft) W-NW 288 9,4 C 15,7 km/h (3 Bft) 100 %
13.09.2017 21:27 13,1 C 78 % 999,3 hPa 0,0 l/m 9,8 km/h (2 Bft) W 279 9,4 C 28,2 km/h (4 Bft) 100 %
13.09.2017 21:28 13,1 C 78 % 999,3 hPa 0,0 l/m 7,4 km/h (2 Bft) W 281 9,4 C 15,7 km/h (3 Bft) 100 %
13.09.2017 21:29 13,1 C 78 % 999,3 hPa 0,0 l/m 6,9 km/h (2 Bft) SW 226 9,4 C 12,6 km/h (3 Bft) 100 %
13.09.2017 21:30 13,1 C 78 % 999,5 hPa 0,0 l/m 7,2 km/h (2 Bft) W 276 9,4 C 12,6 km/h (3 Bft) 100 %
13.09.2017 21:31 13,1 C 78 % 999,4 hPa 0,0 l/m 9,7 km/h (2 Bft) W-NW 286 9,4 C 15,7 km/h (3 Bft) 100 %
13.09.2017 21:32 13,1 C 78 % 999,5 hPa 0,0 l/m 11,5 km/h (2 Bft) W-NW 298 9,4 C 18,8 km/h (3 Bft) 100 %
13.09.2017 21:33 13,1 C 78 % 999,4 hPa 0,0 l/m 5,8 km/h (2 Bft) W 265 9,4 C 15,7 km/h (3 Bft) 100 %
13.09.2017 21:34 13,1 C 78 % 999,5 hPa 0,0 l/m 7,1 km/h (2 Bft) W 273 9,4 C 12,6 km/h (3 Bft) 100 %
13.09.2017 21:35 13,1 C 78 % 999,5 hPa 0,0 l/m 3,6 km/h (1 Bft) SW 217 9,4 C 6,3 km/h (2 Bft) 100 %
13.09.2017 21:36 13,1 C 78 % 999,5 hPa 0,0 l/m 10,5 km/h (2 Bft) N-NW 333 9,4 C 22,0 km/h (4 Bft) 100 %
13.09.2017 21:37 13,1 C 78 % 999,4 hPa 0,0 l/m 9,0 km/h (2 Bft) SW 229 9,4 C 22,0 km/h (4 Bft) 100 %
13.09.2017 21:38 13,1 C 78 % 999,5 hPa 0,0 l/m 5,6 km/h (1 Bft) W 271 9,4 C 18,8 km/h (3 Bft) 100 %
13.09.2017 21:39 13,0 C 78 % 999,5 hPa 0,0 l/m 9,6 km/h (2 Bft) NW 309 9,3 C 25,1 km/h (4 Bft) 100 %
13.09.2017 21:40 13,0 C 78 % 999,5 hPa 0,0 l/m 8,8 km/h (2 Bft) S 172 9,3 C 15,7 km/h (3 Bft) 100 %
13.09.2017 21:41 13,0 C 78 % 999,4 hPa 0,0 l/m 6,9 km/h (2 Bft) NW 314 9,3 C 18,8 km/h (3 Bft) 100 %
13.09.2017 21:42 13,0 C 78 % 999,5 hPa 0,0 l/m 8,6 km/h (2 Bft) W-NW 297 9,3 C 15,7 km/h (3 Bft) 100 %
13.09.2017 21:43 13,0 C 78 % 999,5 hPa 0,0 l/m 10,0 km/h (2 Bft) W 270 9,3 C 12,6 km/h (3 Bft) 100 %
13.09.2017 21:44 13,0 C 78 % 999,5 hPa 0,0 l/m 4,6 km/h (1 Bft) W-NW 292 9,3 C 12,6 km/h (3 Bft) 100 %
13.09.2017 21:45 12,9 C 78 % 999,4 hPa 0,0 l/m 12,2 km/h (2 Bft) W-SW 237 9,2 C 22,0 km/h (4 Bft) 100 %
13.09.2017 21:46 13,0 C 78 % 999,4 hPa 0,0 l/m 14,1 km/h (3 Bft) NW 306 9,3 C 22,0 km/h (4 Bft) 100 %
13.09.2017 21:47 13,0 C 78 % 999,4 hPa 0,0 l/m 14,0 km/h (3 Bft) NW 324 9,3 C 18,8 km/h (3 Bft) 100 %
13.09.2017 21:48 13,1 C 78 % 999,4 hPa 0,0 l/m 9,7 km/h (2 Bft) NW 307 9,4 C 18,8 km/h (3 Bft) 100 %
13.09.2017 21:49 13,1 C 77 % 999,5 hPa 0,0 l/m 6,9 km/h (2 Bft) W-SW 256 9,2 C 12,6 km/h (3 Bft) 100 %
13.09.2017 21:50 13,1 C 78 % 999,5 hPa 0,0 l/m 2,8 km/h (1 Bft) W-NW 291 9,4 C 9,4 km/h (2 Bft) 100 %
13.09.2017 21:51 13,1 C 78 % 999,5 hPa 0,0 l/m 5,6 km/h (1 Bft) NW 315 9,4 C 9,4 km/h (2 Bft) 100 %
13.09.2017 21:52 13,1 C 78 % 999,5 hPa 0,0 l/m 4,9 km/h (1 Bft) W-NW 303 9,4 C 9,4 km/h (2 Bft) 100 %
13.09.2017 21:53 13,1 C 78 % 999,5 hPa 0,0 l/m 6,7 km/h (2 Bft) W-SW 250 9,4 C 12,6 km/h (3 Bft) 100 %
13.09.2017 21:54 13,1 C 78 % 999,6 hPa 0,0 l/m 7,8 km/h (2 Bft) W-SW 249 9,4 C 15,7 km/h (3 Bft) 100 %
13.09.2017 21:55 13,1 C 78 % 999,6 hPa 0,0 l/m 8,0 km/h (2 Bft) W-NW 297 9,4 C 18,8 km/h (3 Bft) 100 %
13.09.2017 21:56 13,1 C 78 % 999,6 hPa 0,0 l/m 5,0 km/h (1 Bft) W-SW 245 9,4 C 9,4 km/h (2 Bft) 100 %
13.09.2017 21:57 13,0 C 78 % 999,6 hPa 0,0 l/m 5,1 km/h (1 Bft) N-NW 330 9,3 C 9,4 km/h (2 Bft) 100 %
13.09.2017 21:58 13,0 C 78 % 999,6 hPa 0,0 l/m 7,5 km/h (2 Bft) W 264 9,3 C 18,8 km/h (3 Bft) 100 %
13.09.2017 21:59 13,0 C 78 % 999,7 hPa 0,0 l/m 11,5 km/h (2 Bft) S-SW 205 9,3 C 22,0 km/h (4 Bft) 100 %
13.09.2017 22:00 13,0 C 78 % 999,6 hPa 0,0 l/m 9,6 km/h (2 Bft) W 269 9,3 C 15,7 km/h (3 Bft) 100 %
13.09.2017 22:01 13,0 C 78 % 999,6 hPa 0,0 l/m 9,8 km/h (2 Bft) W-SW 240 9,3 C 18,8 km/h (3 Bft) 100 %
13.09.2017 22:02 13,1 C 77 % 999,6 hPa 0,0 l/m 10,0 km/h (2 Bft) W 262 9,2 C 22,0 km/h (4 Bft) 100 %
13.09.2017 22:03 13,1 C 77 % 999,6 hPa 0,0 l/m 11,2 km/h (2 Bft) W-SW 251 9,2 C 18,8 km/h (3 Bft) 100 %
13.09.2017 22:04 13,1 C 77 % 999,6 hPa 0,0 l/m 5,2 km/h (1 Bft) W-NW 294 9,2 C 9,4 km/h (2 Bft) 100 %
13.09.2017 22:05 13,1 C 77 % 999,5 hPa 0,0 l/m 4,3 km/h (1 Bft) W-NW 290 9,2 C 9,4 km/h (2 Bft) 100 %
13.09.2017 22:06 13,0 C 77 % 999,6 hPa 0,0 l/m 9,1 km/h (2 Bft) S-SW 209 9,1 C 18,8 km/h (3 Bft) 99 %
13.09.2017 22:07 13,0 C 77 % 999,5 hPa 0,0 l/m 6,9 km/h (2 Bft) SW 231 9,1 C 15,7 km/h (3 Bft) 100 %
13.09.2017 22:08 13,0 C 77 % 999,5 hPa 0,0 l/m 12,9 km/h (3 Bft) NW 307 9,1 C 22,0 km/h (4 Bft) 100 %
13.09.2017 22:09 13,0 C 77 % 999,5 hPa 0,0 l/m 11,2 km/h (2 Bft) W-SW 242 9,1 C 18,8 km/h (3 Bft) 100 %
13.09.2017 22:10 13,1 C 77 % 999,6 hPa 0,0 l/m 12,6 km/h (3 Bft) S-SW 206 9,2 C 25,1 km/h (4 Bft) 100 %
13.09.2017 22:11 13,1 C 77 % 999,6 hPa 0,0 l/m 8,9 km/h (2 Bft) W-SW 237 9,2 C 15,7 km/h (3 Bft) 100 %
13.09.2017 22:12 13,1 C 77 % 999,6 hPa 0,0 l/m 6,4 km/h (2 Bft) W 267 9,2 C 18,8 km/h (3 Bft) 100 %
13.09.2017 22:13 13,1 C 77 % 999,6 hPa 0,0 l/m 8,0 km/h (2 Bft) N-NW 337 9,2 C 15,7 km/h (3 Bft) 100 %
13.09.2017 22:14 13,1 C 77 % 999,6 hPa 0,0 l/m 7,4 km/h (2 Bft) SW 229 9,2 C 25,1 km/h (4 Bft) 100 %
13.09.2017 22:15 13,1 C 77 % 999,7 hPa 0,0 l/m 7,7 km/h (2 Bft) W 279 9,2 C 15,7 km/h (3 Bft) 96 %
13.09.2017 22:16 13,1 C 77 % 999,7 hPa 0,0 l/m 10,4 km/h (2 Bft) SW 229 9,2 C 15,7 km/h (3 Bft) 100 %
13.09.2017 22:17 13,1 C 77 % 999,7 hPa 0,0 l/m 6,1 km/h (2 Bft) W-NW 299 9,2 C 12,6 km/h (3 Bft) 100 %
13.09.2017 22:18 13,1 C 77 % 999,7 hPa 0,0 l/m 8,4 km/h (2 Bft) W-SW 238 9,2 C 15,7 km/h (3 Bft) 100 %
13.09.2017 22:19 13,0 C 77 % 999,7 hPa 0,0 l/m 9,3 km/h (2 Bft) W-SW 257 9,1 C 22,0 km/h (4 Bft) 96 %
13.09.2017 22:20 13,0 C 77 % 999,6 hPa 0,0 l/m 6,3 km/h (2 Bft) W-SW 252 9,1 C 15,7 km/h (3 Bft) 100 %
13.09.2017 22:21 13,0 C 77 % 999,6 hPa 0,0 l/m 6,5 km/h (2 Bft) W 263 9,1 C 15,7 km/h (3 Bft) 94 %
13.09.2017 22:22 13,0 C 77 % 999,6 hPa 0,0 l/m 4,8 km/h (1 Bft) W 262 9,1 C 12,6 km/h (3 Bft) 100 %
13.09.2017 22:23 13,0 C 77 % 999,7 hPa 0,0 l/m 6,7 km/h (2 Bft) W-NW 285 9,1 C 12,6 km/h (3 Bft) 92 %
13.09.2017 22:24 12,9 C 78 % 999,7 hPa 0,0 l/m 4,7 km/h (1 Bft) SW 215 9,2 C 12,6 km/h (3 Bft) 100 %
13.09.2017 22:25 12,9 C 77 % 999,7 hPa 0,0 l/m 7,4 km/h (2 Bft) S-SO 168 9,0 C 15,7 km/h (3 Bft) 96 %
13.09.2017 22:26 12,9 C 78 % 999,7 hPa 0,0 l/m 6,1 km/h (2 Bft) SW 228 9,2 C 9,4 km/h (2 Bft) 100 %
13.09.2017 22:27 12,9 C 78 % 999,7 hPa 0,0 l/m 5,4 km/h (1 Bft) W 266 9,2 C 12,6 km/h (3 Bft) 92 %
13.09.2017 22:28 12,8 C 78 % 999,7 hPa 0,0 l/m 7,2 km/h (2 Bft) SW 226 9,1 C 18,8 km/h (3 Bft) 97 %
13.09.2017 22:29 12,8 C 78 % 999,7 hPa 0,0 l/m 1,5 km/h (1 Bft) W-SW 251 9,1 C 6,3 km/h (2 Bft) 100 %
13.09.2017 22:30 12,8 C 78 % 999,7 hPa 0,0 l/m 6,7 km/h (2 Bft) SW 225 9,1 C 12,6 km/h (3 Bft) 96 %
13.09.2017 22:31 12,8 C 78 % 999,7 hPa 0,0 l/m 6,7 km/h (2 Bft) W 259 9,1 C 22,0 km/h (4 Bft) 100 %
13.09.2017 22:32 12,9 C 77 % 999,7 hPa 0,0 l/m 10,7 km/h (2 Bft) W-SW 257 9,0 C 31,4 km/h (5 Bft) 100 %
13.09.2017 22:33 12,9 C 77 % 999,6 hPa 0,0 l/m 5,8 km/h (2 Bft) SW 224 9,0 C 9,4 km/h (2 Bft) 100 %
13.09.2017 22:34 12,9 C 77 % 999,6 hPa 0,0 l/m 5,7 km/h (1 Bft) S-SW 209 9,0 C 12,6 km/h (3 Bft) 100 %
13.09.2017 22:35 12,9 C 77 % 999,5 hPa 0,0 l/m 3,4 km/h (1 Bft) SW 227 9,0 C 9,4 km/h (2 Bft) 100 %
13.09.2017 22:36 12,9 C 77 % 999,5 hPa 0,0 l/m 6,1 km/h (2 Bft) S-SW 210 9,0 C 9,4 km/h (2 Bft) 100 %
13.09.2017 22:37 12,9 C 77 % 999,5 hPa 0,0 l/m 6,7 km/h (2 Bft) W-SW 257 9,0 C 12,6 km/h (3 Bft) 100 %
13.09.2017 22:38 12,9 C 77 % 999,5 hPa 0,0 l/m 3,6 km/h (1 Bft) W-SW 241 9,0 C 9,4 km/h (2 Bft) 100 %
13.09.2017 22:39 12,9 C 77 % 999,5 hPa 0,0 l/m 6,1 km/h (2 Bft) W-SW 243 9,0 C 12,6 km/h (3 Bft) 100 %
13.09.2017 22:40 12,9 C 77 % 999,5 hPa 0,0 l/m 9,9 km/h (2 Bft) W 264 9,0 C 25,1 km/h (4 Bft) 100 %
13.09.2017 22:41 12,9 C 77 % 999,5 hPa 0,0 l/m 8,0 km/h (2 Bft) W-NW 290 9,0 C 18,8 km/h (3 Bft) 100 %
13.09.2017 22:42 12,9 C 77 % 999,6 hPa 0,0 l/m 0,7 km/h (0 Bft) W-SW 238 9,0 C 6,3 km/h (2 Bft) 100 %
13.09.2017 22:43 12,9 C 77 % 999,8 hPa 0,0 l/m 5,7 km/h (1 Bft) W-NW 284 9,0 C 18,8 km/h (3 Bft) 100 %
13.09.2017 22:44 12,9 C 77 % 999,9 hPa 0,0 l/m 6,8 km/h (2 Bft) W 273 9,0 C 15,7 km/h (3 Bft) 100 %
13.09.2017 22:45 12,9 C 77 % 999,8 hPa 0,0 l/m 6,8 km/h (2 Bft) W 268 9,0 C 12,6 km/h (3 Bft) 100 %
13.09.2017 22:46 12,8 C 77 % 999,8 hPa 0,0 l/m 4,2 km/h (1 Bft) W-NW 300 8,9 C 9,4 km/h (2 Bft) 100 %
13.09.2017 22:47 12,8 C 77 % 999,8 hPa 0,0 l/m 2,3 km/h (1 Bft) W-NW 294 8,9 C 6,3 km/h (2 Bft) 100 %
13.09.2017 22:48 12,8 C 78 % 999,7 hPa 0,0 l/m 6,3 km/h (2 Bft) SW 217 9,1 C 12,6 km/h (3 Bft) 100 %
13.09.2017 22:49 12,8 C 78 % 999,7 hPa 0,0 l/m 6,8 km/h (2 Bft) W 272 9,1 C 12,6 km/h (3 Bft) 100 %
13.09.2017 22:50 12,8 C 78 % 999,6 hPa 0,0 l/m 1,8 km/h (1 Bft) W-NW 285 9,1 C 6,3 km/h (2 Bft) 100 %
13.09.2017 22:51 12,8 C 78 % 999,6 hPa 0,0 l/m 3,3 km/h (1 Bft) W 276 9,1 C 12,6 km/h (3 Bft) 100 %
13.09.2017 22:52 12,8 C 78 % 999,6 hPa 0,0 l/m 1,6 km/h (1 Bft) S-SO 154 9,1 C 6,3 km/h (2 Bft) 100 %
13.09.2017 22:53 12,7 C 78 % 999,7 hPa 0,0 l/m 6,8 km/h (2 Bft) W-NW 302 9,0 C 12,6 km/h (3 Bft) 100 %
13.09.2017 22:54 12,7 C 79 % 999,6 hPa 0,0 l/m 2,6 km/h (1 Bft) W 268 9,2 C 6,3 km/h (2 Bft) 100 %
13.09.2017 22:55 12,7 C 79 % 999,6 hPa 0,0 l/m 0,7 km/h (0 Bft) NW 309 9,2 C 3,1 km/h (1 Bft) 100 %
13.09.2017 22:56 12,7 C 79 % 999,6 hPa 0,0 l/m 3,0 km/h (1 Bft) S-SW 205 9,2 C 6,3 km/h (2 Bft) 100 %
13.09.2017 22:57 12,7 C 79 % 999,7 hPa 0,0 l/m 8,4 km/h (2 Bft) W 261 9,2 C 12,6 km/h (3 Bft) 100 %
13.09.2017 22:58 12,7 C 79 % 999,7 hPa 0,0 l/m 5,1 km/h (1 Bft) SW 225 9,2 C 18,8 km/h (3 Bft) 100 %
13.09.2017 22:59 12,7 C 79 % 999,7 hPa 0,0 l/m 4,8 km/h (1 Bft) S-SW 201 9,2 C 9,4 km/h (2 Bft) 100 %
13.09.2017 23:00 12,6 C 79 % 999,6 hPa 0,0 l/m 5,4 km/h (1 Bft) SW 216 9,1 C 9,4 km/h (2 Bft) 100 %
13.09.2017 23:01 12,6 C 79 % 999,6 hPa 0,0 l/m 6,7 km/h (2 Bft) SW 236 9,1 C 12,6 km/h (3 Bft) 100 %
13.09.2017 23:02 12,6 C 80 % 999,6 hPa 0,0 l/m 3,8 km/h (1 Bft) N-NW 331 9,2 C 9,4 km/h (2 Bft) 100 %
13.09.2017 23:03 12,6 C 80 % 999,7 hPa 0,0 l/m 0,0 km/h (0 Bft) N-NW 330 9,2 C 0,0 km/h (0 Bft) 100 %
13.09.2017 23:04 12,6 C 80 % 999,7 hPa 0,0 l/m 3,8 km/h (1 Bft) SW 230 9,2 C 12,6 km/h (3 Bft) 100 %
13.09.2017 23:05 12,5 C 80 % 999,7 hPa 0,0 l/m 0,5 km/h (0 Bft) W-SW 245 9,1 C 3,1 km/h (1 Bft) 100 %
13.09.2017 23:06 12,5 C 80 % 999,8 hPa 0,0 l/m 4,6 km/h (1 Bft) SW 227 9,1 C 12,6 km/h (3 Bft) 100 %
13.09.2017 23:07 12,5 C 80 % 999,7 hPa 0,0 l/m 6,0 km/h (2 Bft) SW 236 9,1 C 9,4 km/h (2 Bft) 100 %
13.09.2017 23:08 12,4 C 81 % 999,7 hPa 0,0 l/m 6,5 km/h (2 Bft) S 170 9,2 C 18,8 km/h (3 Bft) 100 %
13.09.2017 23:09 12,4 C 81 % 999,7 hPa 0,0 l/m 2,2 km/h (1 Bft) W-NW 297 9,2 C 6,3 km/h (2 Bft) 100 %
13.09.2017 23:10 12,4 C 81 % 999,7 hPa 0,0 l/m 5,0 km/h (1 Bft) NW 311 9,2 C 12,6 km/h (3 Bft) 100 %
13.09.2017 23:11 12,4 C 81 % 999,6 hPa 0,0 l/m 7,8 km/h (2 Bft) SW 231 9,2 C 18,8 km/h (3 Bft) 100 %
13.09.2017 23:12 12,4 C 81 % 999,6 hPa 0,0 l/m 2,4 km/h (1 Bft) SW 235 9,2 C 6,3 km/h (2 Bft) 100 %
13.09.2017 23:13 12,4 C 81 % 999,7 hPa 0,0 l/m 3,1 km/h (1 Bft) W-NW 293 9,2 C 9,4 km/h (2 Bft) 100 %
13.09.2017 23:14 12,4 C 81 % 999,6 hPa 0,0 l/m 4,1 km/h (1 Bft) W 268 9,2 C 15,7 km/h (3 Bft) 100 %
13.09.2017 23:15 12,3 C 81 % 999,7 hPa 0,0 l/m 5,1 km/h (1 Bft) SW 226 9,1 C 18,8 km/h (3 Bft) 100 %
13.09.2017 23:16 12,3 C 82 % 999,6 hPa 0,0 l/m 0,5 km/h (0 Bft) SW 215 9,3 C 3,1 km/h (1 Bft) 100 %
13.09.2017 23:17 12,3 C 82 % 999,7 hPa 0,0 l/m 3,9 km/h (1 Bft) SW 219 9,3 C 9,4 km/h (2 Bft) 100 %
13.09.2017 23:18 12,3 C 82 % 999,6 hPa 0,0 l/m 4,1 km/h (1 Bft) N-NW 346 9,3 C 9,4 km/h (2 Bft) 100 %
13.09.2017 23:19 12,3 C 82 % 999,6 hPa 0,0 l/m 1,8 km/h (1 Bft) S-SW 207 9,3 C 3,1 km/h (1 Bft) 100 %
13.09.2017 23:20 12,3 C 82 % 999,6 hPa 0,0 l/m 2,9 km/h (1 Bft) SW 226 9,3 C 12,6 km/h (3 Bft) 100 %
13.09.2017 23:21 12,3 C 82 % 999,6 hPa 0,0 l/m 5,5 km/h (1 Bft) W 276 9,3 C 12,6 km/h (3 Bft) 100 %
13.09.2017 23:22 12,3 C 82 % 999,6 hPa 0,0 l/m 5,8 km/h (2 Bft) W-SW 248 9,3 C 12,6 km/h (3 Bft) 100 %
13.09.2017 23:23 12,2 C 82 % 999,6 hPa 0,0 l/m 5,1 km/h (1 Bft) SW 221 9,2 C 12,6 km/h (3 Bft) 100 %
13.09.2017 23:24 12,2 C 82 % 999,6 hPa 0,0 l/m 4,2 km/h (1 Bft) SW 236 9,2 C 12,6 km/h (3 Bft) 100 %
13.09.2017 23:25 12,2 C 83 % 999,6 hPa 0,0 l/m 5,3 km/h (1 Bft) W-NW 303 9,4 C 12,6 km/h (3 Bft) 100 %
13.09.2017 23:26 12,2 C 83 % 999,7 hPa 0,0 l/m 1,4 km/h (1 Bft) SW 236 9,4 C 9,4 km/h (2 Bft) 100 %
13.09.2017 23:27 12,2 C 83 % 999,7 hPa 0,0 l/m 5,1 km/h (1 Bft) NW 307 9,4 C 12,6 km/h (3 Bft) 100 %
13.09.2017 23:28 12,2 C 83 % 999,7 hPa 0,0 l/m 2,9 km/h (1 Bft) S-SW 200 9,4 C 9,4 km/h (2 Bft) 100 %
13.09.2017 23:29 12,2 C 83 % 999,7 hPa 0,0 l/m 2,0 km/h (1 Bft) W-SW 240 9,4 C 6,3 km/h (2 Bft) 100 %
13.09.2017 23:30 12,2 C 83 % 999,7 hPa 0,0 l/m 2,7 km/h (1 Bft) W-NW 288 9,4 C 6,3 km/h (2 Bft) 96 %
13.09.2017 23:31 12,1 C 83 % 999,7 hPa 0,0 l/m 3,1 km/h (1 Bft) W-NW 298 9,3 C 6,3 km/h (2 Bft) 96 %
13.09.2017 23:32 12,1 C 83 % 999,7 hPa 0,0 l/m 5,2 km/h (1 Bft) SW 231 9,3 C 9,4 km/h (2 Bft) 100 %
13.09.2017 23:33 12,1 C 83 % 999,7 hPa 0,0 l/m 2,0 km/h (1 Bft) W-NW 295 9,3 C 9,4 km/h (2 Bft) 97 %
13.09.2017 23:34 12,1 C 83 % 999,7 hPa 0,0 l/m 1,1 km/h (1 Bft) SW 235 9,3 C 3,1 km/h (1 Bft) 100 %
13.09.2017 23:35 12,1 C 83 % 999,7 hPa 0,0 l/m 0,7 km/h (0 Bft) SW 226 9,3 C 3,1 km/h (1 Bft) 96 %
13.09.2017 23:36 12,0 C 84 % 999,6 hPa 0,0 l/m 1,1 km/h (1 Bft) W-SW 237 9,4 C 6,3 km/h (2 Bft) 96 %
13.09.2017 23:37 12,0 C 84 % 999,6 hPa 0,0 l/m 3,0 km/h (1 Bft) W-SW 238 9,4 C 9,4 km/h (2 Bft) 100 %
13.09.2017 23:38 12,0 C 84 % 999,6 hPa 0,0 l/m 2,5 km/h (1 Bft) S-SW 213 9,4 C 6,3 km/h (2 Bft) 96 %
13.09.2017 23:39 12,0 C 84 % 999,6 hPa 0,0 l/m 0,6 km/h (0 Bft) SW 232 9,4 C 6,3 km/h (2 Bft) 100 %
13.09.2017 23:40 11,9 C 84 % 999,5 hPa 0,0 l/m 4,2 km/h (1 Bft) SW 216 9,3 C 9,4 km/h (2 Bft) 96 %
13.09.2017 23:41 11,9 C 84 % 999,6 hPa 0,0 l/m 2,3 km/h (1 Bft) W 281 9,3 C 6,3 km/h (2 Bft) 100 %
13.09.2017 23:42 11,9 C 84 % 999,6 hPa 0,0 l/m 1,1 km/h (1 Bft) S-SW 210 9,3 C 3,1 km/h (1 Bft) 96 %
13.09.2017 23:43 11,9 C 84 % 999,6 hPa 0,0 l/m 4,7 km/h (1 Bft) SW 219 9,3 C 9,4 km/h (2 Bft) 100 %
13.09.2017 23:44 11,9 C 84 % 999,6 hPa 0,0 l/m 1,6 km/h (1 Bft) W-SW 253 9,3 C 3,1 km/h (1 Bft) 96 %
13.09.2017 23:45 11,9 C 84 % 999,6 hPa 0,0 l/m 0,1 km/h (0 Bft) N-NW 333 9,3 C 3,1 km/h (1 Bft) 100 %
13.09.2017 23:46 11,8 C 84 % 999,5 hPa 0,0 l/m 6,3 km/h (2 Bft) W-SW 255 9,2 C 12,6 km/h (3 Bft) 100 %
13.09.2017 23:47 11,8 C 84 % 999,5 hPa 0,0 l/m 4,3 km/h (1 Bft) SW 227 9,2 C 9,4 km/h (2 Bft) 100 %
13.09.2017 23:48 11,8 C 84 % 999,4 hPa 0,0 l/m 0,1 km/h (0 Bft) N-NO 30 9,2 C 3,1 km/h (1 Bft) 100 %
13.09.2017 23:49 11,8 C 85 % 999,5 hPa 0,0 l/m 0,9 km/h (0 Bft) W-SW 243 9,4 C 3,1 km/h (1 Bft) 100 %
13.09.2017 23:50 11,8 C 85 % 999,5 hPa 0,0 l/m 0,7 km/h (0 Bft) NW 313 9,4 C 3,1 km/h (1 Bft) 100 %
13.09.2017 23:51 11,8 C 85 % 999,5 hPa 0,0 l/m 5,1 km/h (1 Bft) S-SW 210 9,4 C 9,4 km/h (2 Bft) 100 %
13.09.2017 23:52 11,8 C 85 % 999,5 hPa 0,0 l/m 0,8 km/h (0 Bft) SW 218 9,4 C 3,1 km/h (1 Bft) 100 %
13.09.2017 23:53 11,8 C 85 % 999,5 hPa 0,0 l/m 3,1 km/h (1 Bft) W 280 9,4 C 9,4 km/h (2 Bft) 100 %
13.09.2017 23:54 11,7 C 85 % 999,5 hPa 0,0 l/m 4,2 km/h (1 Bft) W-SW 258 9,3 C 6,3 km/h (2 Bft) 100 %
13.09.2017 23:55 11,7 C 85 % 999,6 hPa 0,0 l/m 3,0 km/h (1 Bft) SW 231 9,3 C 9,4 km/h (2 Bft) 100 %
13.09.2017 23:56 11,7 C 85 % 999,6 hPa 0,0 l/m 2,0 km/h (1 Bft) W-NW 297 9,3 C 9,4 km/h (2 Bft) 100 %
13.09.2017 23:57 11,7 C 85 % 999,6 hPa 0,0 l/m 5,1 km/h (1 Bft) W 264 9,3 C 12,6 km/h (3 Bft) 100 %
13.09.2017 23:58 11,7 C 85 % 999,6 hPa 0,0 l/m 4,5 km/h (1 Bft) W-NW 284 9,3 C 9,4 km/h (2 Bft) 100 %
13.09.2017 23:59 11,7 C 85 % 999,6 hPa 0,0 l/m 3,4 km/h (1 Bft) W-SW 244 9,3 C 12,6 km/h (3 Bft) 100 %
_ Min-Zeit 01:59 15:22 11:46 - 00:05 - - 01:59 00:05 02:57
Minimum _ 9,3 C 52 % 996,5 hPa - 0,0 km/h (0 Bft) - - 8,2 C 0,0 km/h (0 Bft) 92 %
_ Max-Zeit 14:28 08:21 00:00 05:41 13:25 - - 11:05 13:24 00:02
Maximum _ 18,6 C 95 % 1008,5 hPa 0,2 l/m 38,0 km/h
NW (5 Bft)
- - 13,3 C 72,2 km/h
W (8 Bft)
100 %
Durchschnitt _ 13,4 C 80 % 1000,2 hPa #3,2 l/m 10,5 km/h (2 Bft) SW - 9,8 C 21,7 km/h (4 Bft) 99 %